<?xml version="1.0" encoding="UTF-8" ?>
<gpx version="1.1" xmlns:xsi="http://www.w3.org/2001/XMLSchema-instance" 
    xmlns="http://www.topografix.com/GPX/1/1" 
    xsi:schemaLocation="http://www.topografix.com/GPX/1/1 http://www.topografix.com/GPX/1/1/gpx.xsd" 
    creator="Openrunner - https://www.openrunner.com" >
				<wpt lat="48.198029" lon="6.411216">
				 	<ele>0</ele>
				 	<name><![CDATA[Danger]]></name>
				 	<desc><![CDATA[]]></desc>
					<sym>14</sym>
				</wpt>
			
				<wpt lat="48.197872" lon="6.411817">
				 	<ele>0</ele>
				 	<name><![CDATA[Danger]]></name>
				 	<desc><![CDATA[]]></desc>
					<sym>14</sym>
				</wpt>
			
				<wpt lat="48.193678" lon="6.371327">
				 	<ele>0</ele>
				 	<name><![CDATA[Danger]]></name>
				 	<desc><![CDATA[]]></desc>
					<sym>14</sym>
				</wpt>
			
				<wpt lat="48.137745" lon="6.256491">
				 	<ele>0</ele>
				 	<name><![CDATA[Danger]]></name>
				 	<desc><![CDATA[]]></desc>
					<sym>14</sym>
				</wpt>
			
				<wpt lat="48.021710" lon="6.304359">
				 	<ele>0</ele>
				 	<name><![CDATA[Danger]]></name>
				 	<desc><![CDATA[]]></desc>
					<sym>14</sym>
				</wpt>
			
				<wpt lat="48.177733" lon="6.462086">
				 	<ele>0</ele>
				 	<name><![CDATA[Descente dangereuse]]></name>
				 	<desc><![CDATA[]]></desc>
					<sym>15</sym>
				</wpt>
			
				<wpt lat="48.201694" lon="6.385518">
				 	<ele>0</ele>
				 	<name><![CDATA[Danger]]></name>
				 	<desc><![CDATA[]]></desc>
					<sym>14</sym>
				</wpt>
			
				<wpt lat="48.217325" lon="6.283609">
				 	<ele>0</ele>
				 	<name><![CDATA[Danger]]></name>
				 	<desc><![CDATA[]]></desc>
					<sym>14</sym>
				</wpt>
			
				<wpt lat="48.216907" lon="6.283697">
				 	<ele>0</ele>
				 	<name><![CDATA[Danger]]></name>
				 	<desc><![CDATA[]]></desc>
					<sym>14</sym>
				</wpt>
			
				<wpt lat="48.219916" lon="6.340838">
				 	<ele>0</ele>
				 	<name><![CDATA[Ravitaillement]]></name>
				 	<desc><![CDATA[]]></desc>
					<sym>3</sym>
				</wpt>
			
				<wpt lat="48.102476" lon="6.283678">
				 	<ele>0</ele>
				 	<name><![CDATA[Ravitaillement]]></name>
				 	<desc><![CDATA[]]></desc>
					<sym>3</sym>
				</wpt>
			
				<wpt lat="48.170233" lon="6.363735">
				 	<ele>0</ele>
				 	<name><![CDATA[Danger]]></name>
				 	<desc><![CDATA[]]></desc>
					<sym>14</sym>
				</wpt>
			
				<wpt lat="48.190896" lon="6.427817">
				 	<ele>0</ele>
				 	<name><![CDATA[Danger]]></name>
				 	<desc><![CDATA[]]></desc>
					<sym>14</sym>
				</wpt>
			
				<wpt lat="48.190865" lon="6.427561">
				 	<ele>0</ele>
				 	<name><![CDATA[Danger]]></name>
				 	<desc><![CDATA[]]></desc>
					<sym>14</sym>
				</wpt>
			
				<wpt lat="48.190906" lon="6.368827">
				 	<ele>0</ele>
				 	<name><![CDATA[Danger]]></name>
				 	<desc><![CDATA[]]></desc>
					<sym>14</sym>
				</wpt>
				<trk>
						<name>Terroirs 2025 - Grand Parcours-20501515</name>
						<trkseg>
					<trkpt lat="48.176930" lon="6.463370">
						<ele>363</ele>
						<time>2025-03-24T17:47:12Z</time>
					</trkpt>
					<trkpt lat="48.177690" lon="6.462130">
						<ele>376</ele>
						<time>2025-03-24T17:47:32Z</time>
					</trkpt>
					<trkpt lat="48.177860" lon="6.461630">
						<ele>375</ele>
						<time>2025-03-24T17:47:39Z</time>
					</trkpt>
					<trkpt lat="48.177880" lon="6.461380">
						<ele>372</ele>
						<time>2025-03-24T17:47:42Z</time>
					</trkpt>
					<trkpt lat="48.177390" lon="6.458760">
						<ele>354</ele>
						<time>2025-03-24T17:48:14Z</time>
					</trkpt>
					<trkpt lat="48.177260" lon="6.457670">
						<ele>350</ele>
						<time>2025-03-24T17:48:27Z</time>
					</trkpt>
					<trkpt lat="48.177270" lon="6.457430">
						<ele>348</ele>
						<time>2025-03-24T17:48:30Z</time>
					</trkpt>
					<trkpt lat="48.177420" lon="6.457340">
						<ele>344</ele>
						<time>2025-03-24T17:48:33Z</time>
					</trkpt>
					<trkpt lat="48.177600" lon="6.457180">
						<ele>343</ele>
						<time>2025-03-24T17:48:37Z</time>
					</trkpt>
					<trkpt lat="48.177580" lon="6.456960">
						<ele>342</ele>
						<time>2025-03-24T17:48:39Z</time>
					</trkpt>
					<trkpt lat="48.177090" lon="6.455610">
						<ele>346</ele>
						<time>2025-03-24T17:48:57Z</time>
					</trkpt>
					<trkpt lat="48.176810" lon="6.455110">
						<ele>341</ele>
						<time>2025-03-24T17:49:05Z</time>
					</trkpt>
					<trkpt lat="48.176510" lon="6.454400">
						<ele>339</ele>
						<time>2025-03-24T17:49:15Z</time>
					</trkpt>
					<trkpt lat="48.176310" lon="6.454000">
						<ele>338</ele>
						<time>2025-03-24T17:49:21Z</time>
					</trkpt>
					<trkpt lat="48.175890" lon="6.453350">
						<ele>332</ele>
						<time>2025-03-24T17:49:32Z</time>
					</trkpt>
					<trkpt lat="48.175800" lon="6.453160">
						<ele>331</ele>
						<time>2025-03-24T17:49:35Z</time>
					</trkpt>
					<trkpt lat="48.175790" lon="6.453010">
						<ele>331</ele>
						<time>2025-03-24T17:49:36Z</time>
					</trkpt>
					<trkpt lat="48.175840" lon="6.452890">
						<ele>331</ele>
						<time>2025-03-24T17:49:38Z</time>
					</trkpt>
					<trkpt lat="48.175780" lon="6.452790">
						<ele>331</ele>
						<time>2025-03-24T17:49:40Z</time>
					</trkpt>
					<trkpt lat="48.175800" lon="6.452640">
						<ele>330</ele>
						<time>2025-03-24T17:49:41Z</time>
					</trkpt>
					<trkpt lat="48.176150" lon="6.451420">
						<ele>329</ele>
						<time>2025-03-24T17:49:57Z</time>
					</trkpt>
					<trkpt lat="48.176240" lon="6.451270">
						<ele>329</ele>
						<time>2025-03-24T17:50:00Z</time>
					</trkpt>
					<trkpt lat="48.176400" lon="6.451240">
						<ele>330</ele>
						<time>2025-03-24T17:50:02Z</time>
					</trkpt>
					<trkpt lat="48.176560" lon="6.451030">
						<ele>329</ele>
						<time>2025-03-24T17:50:06Z</time>
					</trkpt>
					<trkpt lat="48.176770" lon="6.450910">
						<ele>329</ele>
						<time>2025-03-24T17:50:10Z</time>
					</trkpt>
					<trkpt lat="48.176910" lon="6.450880">
						<ele>330</ele>
						<time>2025-03-24T17:50:13Z</time>
					</trkpt>
					<trkpt lat="48.177770" lon="6.450580">
						<ele>335</ele>
						<time>2025-03-24T17:50:28Z</time>
					</trkpt>
					<trkpt lat="48.178140" lon="6.450260">
						<ele>331</ele>
						<time>2025-03-24T17:50:36Z</time>
					</trkpt>
					<trkpt lat="48.178310" lon="6.450180">
						<ele>330</ele>
						<time>2025-03-24T17:50:39Z</time>
					</trkpt>
					<trkpt lat="48.179020" lon="6.449640">
						<ele>331</ele>
						<time>2025-03-24T17:50:53Z</time>
					</trkpt>
					<trkpt lat="48.179210" lon="6.449470">
						<ele>330</ele>
						<time>2025-03-24T17:50:57Z</time>
					</trkpt>
					<trkpt lat="48.180350" lon="6.448090">
						<ele>323</ele>
						<time>2025-03-24T17:51:23Z</time>
					</trkpt>
					<trkpt lat="48.180740" lon="6.447710">
						<ele>324</ele>
						<time>2025-03-24T17:51:32Z</time>
					</trkpt>
					<trkpt lat="48.182430" lon="6.446420">
						<ele>322</ele>
						<time>2025-03-24T17:52:05Z</time>
					</trkpt>
					<trkpt lat="48.182860" lon="6.446160">
						<ele>322</ele>
						<time>2025-03-24T17:52:14Z</time>
					</trkpt>
					<trkpt lat="48.184000" lon="6.445820">
						<ele>320</ele>
						<time>2025-03-24T17:52:34Z</time>
					</trkpt>
					<trkpt lat="48.184080" lon="6.445710">
						<ele>320</ele>
						<time>2025-03-24T17:52:36Z</time>
					</trkpt>
					<trkpt lat="48.184340" lon="6.445560">
						<ele>320</ele>
						<time>2025-03-24T17:52:41Z</time>
					</trkpt>
					<trkpt lat="48.184380" lon="6.445480">
						<ele>320</ele>
						<time>2025-03-24T17:52:42Z</time>
					</trkpt>
					<trkpt lat="48.184400" lon="6.445220">
						<ele>319</ele>
						<time>2025-03-24T17:52:46Z</time>
					</trkpt>
					<trkpt lat="48.184300" lon="6.444600">
						<ele>319</ele>
						<time>2025-03-24T17:52:53Z</time>
					</trkpt>
					<trkpt lat="48.183400" lon="6.442640">
						<ele>319</ele>
						<time>2025-03-24T17:53:21Z</time>
					</trkpt>
					<trkpt lat="48.183220" lon="6.442320">
						<ele>320</ele>
						<time>2025-03-24T17:53:26Z</time>
					</trkpt>
					<trkpt lat="48.183180" lon="6.442300">
						<ele>321</ele>
						<time>2025-03-24T17:53:27Z</time>
					</trkpt>
					<trkpt lat="48.183160" lon="6.442190">
						<ele>321</ele>
						<time>2025-03-24T17:53:28Z</time>
					</trkpt>
					<trkpt lat="48.183480" lon="6.441810">
						<ele>323</ele>
						<time>2025-03-24T17:53:36Z</time>
					</trkpt>
					<trkpt lat="48.183780" lon="6.441610">
						<ele>325</ele>
						<time>2025-03-24T17:53:41Z</time>
					</trkpt>
					<trkpt lat="48.183850" lon="6.441460">
						<ele>326</ele>
						<time>2025-03-24T17:53:44Z</time>
					</trkpt>
					<trkpt lat="48.183950" lon="6.441420">
						<ele>326</ele>
						<time>2025-03-24T17:53:45Z</time>
					</trkpt>
					<trkpt lat="48.184060" lon="6.441230">
						<ele>328</ele>
						<time>2025-03-24T17:53:48Z</time>
					</trkpt>
					<trkpt lat="48.184190" lon="6.441140">
						<ele>329</ele>
						<time>2025-03-24T17:53:51Z</time>
					</trkpt>
					<trkpt lat="48.184550" lon="6.440780">
						<ele>331</ele>
						<time>2025-03-24T17:53:59Z</time>
					</trkpt>
					<trkpt lat="48.184770" lon="6.440650">
						<ele>331</ele>
						<time>2025-03-24T17:54:03Z</time>
					</trkpt>
					<trkpt lat="48.186230" lon="6.439960">
						<ele>335</ele>
						<time>2025-03-24T17:54:30Z</time>
					</trkpt>
					<trkpt lat="48.188350" lon="6.438290">
						<ele>335</ele>
						<time>2025-03-24T17:55:13Z</time>
					</trkpt>
					<trkpt lat="48.188310" lon="6.437600">
						<ele>337</ele>
						<time>2025-03-24T17:55:21Z</time>
					</trkpt>
					<trkpt lat="48.188350" lon="6.437300">
						<ele>337</ele>
						<time>2025-03-24T17:55:25Z</time>
					</trkpt>
					<trkpt lat="48.188420" lon="6.437130">
						<ele>337</ele>
						<time>2025-03-24T17:55:27Z</time>
					</trkpt>
					<trkpt lat="48.188420" lon="6.436810">
						<ele>337</ele>
						<time>2025-03-24T17:55:31Z</time>
					</trkpt>
					<trkpt lat="48.188500" lon="6.436190">
						<ele>335</ele>
						<time>2025-03-24T17:55:38Z</time>
					</trkpt>
					<trkpt lat="48.188520" lon="6.435820">
						<ele>334</ele>
						<time>2025-03-24T17:55:43Z</time>
					</trkpt>
					<trkpt lat="48.188480" lon="6.435350">
						<ele>332</ele>
						<time>2025-03-24T17:55:48Z</time>
					</trkpt>
					<trkpt lat="48.188160" lon="6.434020">
						<ele>331</ele>
						<time>2025-03-24T17:56:05Z</time>
					</trkpt>
					<trkpt lat="48.188180" lon="6.433870">
						<ele>331</ele>
						<time>2025-03-24T17:56:07Z</time>
					</trkpt>
					<trkpt lat="48.188310" lon="6.433480">
						<ele>330</ele>
						<time>2025-03-24T17:56:12Z</time>
					</trkpt>
					<trkpt lat="48.188440" lon="6.433180">
						<ele>331</ele>
						<time>2025-03-24T17:56:16Z</time>
					</trkpt>
					<trkpt lat="48.188590" lon="6.432710">
						<ele>332</ele>
						<time>2025-03-24T17:56:22Z</time>
					</trkpt>
					<trkpt lat="48.188740" lon="6.432100">
						<ele>334</ele>
						<time>2025-03-24T17:56:30Z</time>
					</trkpt>
					<trkpt lat="48.189000" lon="6.430690">
						<ele>340</ele>
						<time>2025-03-24T17:56:48Z</time>
					</trkpt>
					<trkpt lat="48.189430" lon="6.429880">
						<ele>343</ele>
						<time>2025-03-24T17:57:00Z</time>
					</trkpt>
					<trkpt lat="48.189640" lon="6.429560">
						<ele>343</ele>
						<time>2025-03-24T17:57:05Z</time>
					</trkpt>
					<trkpt lat="48.189730" lon="6.429380">
						<ele>344</ele>
						<time>2025-03-24T17:57:08Z</time>
					</trkpt>
					<trkpt lat="48.189700" lon="6.429360">
						<ele>344</ele>
						<time>2025-03-24T17:57:08Z</time>
					</trkpt>
					<trkpt lat="48.189700" lon="6.429260">
						<ele>344</ele>
						<time>2025-03-24T17:57:10Z</time>
					</trkpt>
					<trkpt lat="48.189750" lon="6.429210">
						<ele>344</ele>
						<time>2025-03-24T17:57:11Z</time>
					</trkpt>
					<trkpt lat="48.189810" lon="6.429230">
						<ele>344</ele>
						<time>2025-03-24T17:57:12Z</time>
					</trkpt>
					<trkpt lat="48.190130" lon="6.428740">
						<ele>345</ele>
						<time>2025-03-24T17:57:20Z</time>
					</trkpt>
					<trkpt lat="48.190540" lon="6.427840">
						<ele>346</ele>
						<time>2025-03-24T17:57:33Z</time>
					</trkpt>
					<trkpt lat="48.190650" lon="6.427770">
						<ele>346</ele>
						<time>2025-03-24T17:57:35Z</time>
					</trkpt>
					<trkpt lat="48.190650" lon="6.427620">
						<ele>346</ele>
						<time>2025-03-24T17:57:37Z</time>
					</trkpt>
					<trkpt lat="48.190730" lon="6.427500">
						<ele>346</ele>
						<time>2025-03-24T17:57:39Z</time>
					</trkpt>
					<trkpt lat="48.190840" lon="6.427520">
						<ele>346</ele>
						<time>2025-03-24T17:57:41Z</time>
					</trkpt>
					<trkpt lat="48.191030" lon="6.426850">
						<ele>345</ele>
						<time>2025-03-24T17:57:49Z</time>
					</trkpt>
					<trkpt lat="48.191160" lon="6.426700">
						<ele>345</ele>
						<time>2025-03-24T17:57:52Z</time>
					</trkpt>
					<trkpt lat="48.191210" lon="6.426530">
						<ele>345</ele>
						<time>2025-03-24T17:57:54Z</time>
					</trkpt>
					<trkpt lat="48.192620" lon="6.424320">
						<ele>346</ele>
						<time>2025-03-24T17:58:31Z</time>
					</trkpt>
					<trkpt lat="48.193050" lon="6.423440">
						<ele>351</ele>
						<time>2025-03-24T17:58:44Z</time>
					</trkpt>
					<trkpt lat="48.193350" lon="6.422600">
						<ele>353</ele>
						<time>2025-03-24T17:58:55Z</time>
					</trkpt>
					<trkpt lat="48.193310" lon="6.422520">
						<ele>353</ele>
						<time>2025-03-24T17:58:56Z</time>
					</trkpt>
					<trkpt lat="48.193330" lon="6.422320">
						<ele>353</ele>
						<time>2025-03-24T17:58:59Z</time>
					</trkpt>
					<trkpt lat="48.193420" lon="6.422260">
						<ele>352</ele>
						<time>2025-03-24T17:59:00Z</time>
					</trkpt>
					<trkpt lat="48.193590" lon="6.421980">
						<ele>351</ele>
						<time>2025-03-24T17:59:05Z</time>
					</trkpt>
					<trkpt lat="48.194450" lon="6.419060">
						<ele>343</ele>
						<time>2025-03-24T17:59:43Z</time>
					</trkpt>
					<trkpt lat="48.194530" lon="6.418850">
						<ele>344</ele>
						<time>2025-03-24T17:59:46Z</time>
					</trkpt>
					<trkpt lat="48.194660" lon="6.418590">
						<ele>345</ele>
						<time>2025-03-24T17:59:49Z</time>
					</trkpt>
					<trkpt lat="48.194900" lon="6.418290">
						<ele>347</ele>
						<time>2025-03-24T17:59:55Z</time>
					</trkpt>
					<trkpt lat="48.195430" lon="6.417750">
						<ele>350</ele>
						<time>2025-03-24T18:00:06Z</time>
					</trkpt>
					<trkpt lat="48.195690" lon="6.417320">
						<ele>352</ele>
						<time>2025-03-24T18:00:13Z</time>
					</trkpt>
					<trkpt lat="48.195820" lon="6.416980">
						<ele>354</ele>
						<time>2025-03-24T18:00:18Z</time>
					</trkpt>
					<trkpt lat="48.195760" lon="6.416830">
						<ele>355</ele>
						<time>2025-03-24T18:00:20Z</time>
					</trkpt>
					<trkpt lat="48.195820" lon="6.416660">
						<ele>356</ele>
						<time>2025-03-24T18:00:22Z</time>
					</trkpt>
					<trkpt lat="48.195950" lon="6.416640">
						<ele>356</ele>
						<time>2025-03-24T18:00:25Z</time>
					</trkpt>
					<trkpt lat="48.196100" lon="6.416190">
						<ele>356</ele>
						<time>2025-03-24T18:00:31Z</time>
					</trkpt>
					<trkpt lat="48.196270" lon="6.415820">
						<ele>355</ele>
						<time>2025-03-24T18:00:36Z</time>
					</trkpt>
					<trkpt lat="48.196790" lon="6.415050">
						<ele>353</ele>
						<time>2025-03-24T18:00:49Z</time>
					</trkpt>
					<trkpt lat="48.196980" lon="6.414730">
						<ele>352</ele>
						<time>2025-03-24T18:00:54Z</time>
					</trkpt>
					<trkpt lat="48.197170" lon="6.414260">
						<ele>351</ele>
						<time>2025-03-24T18:01:00Z</time>
					</trkpt>
					<trkpt lat="48.197390" lon="6.413530">
						<ele>354</ele>
						<time>2025-03-24T18:01:10Z</time>
					</trkpt>
					<trkpt lat="48.197450" lon="6.413120">
						<ele>356</ele>
						<time>2025-03-24T18:01:15Z</time>
					</trkpt>
					<trkpt lat="48.197470" lon="6.412670">
						<ele>358</ele>
						<time>2025-03-24T18:01:20Z</time>
					</trkpt>
					<trkpt lat="48.197410" lon="6.412130">
						<ele>361</ele>
						<time>2025-03-24T18:01:27Z</time>
					</trkpt>
					<trkpt lat="48.197540" lon="6.411550">
						<ele>366</ele>
						<time>2025-03-24T18:01:34Z</time>
					</trkpt>
					<trkpt lat="48.197520" lon="6.411470">
						<ele>366</ele>
						<time>2025-03-24T18:01:35Z</time>
					</trkpt>
					<trkpt lat="48.197540" lon="6.411290">
						<ele>368</ele>
						<time>2025-03-24T18:01:37Z</time>
					</trkpt>
					<trkpt lat="48.197670" lon="6.411140">
						<ele>368</ele>
						<time>2025-03-24T18:01:40Z</time>
					</trkpt>
					<trkpt lat="48.197820" lon="6.411170">
						<ele>366</ele>
						<time>2025-03-24T18:01:43Z</time>
					</trkpt>
					<trkpt lat="48.198030" lon="6.411020">
						<ele>366</ele>
						<time>2025-03-24T18:01:47Z</time>
					</trkpt>
					<trkpt lat="48.198540" lon="6.410500">
						<ele>367</ele>
						<time>2025-03-24T18:01:58Z</time>
					</trkpt>
					<trkpt lat="48.200180" lon="6.407930">
						<ele>376</ele>
						<time>2025-03-24T18:02:40Z</time>
					</trkpt>
					<trkpt lat="48.200910" lon="6.406900">
						<ele>375</ele>
						<time>2025-03-24T18:02:58Z</time>
					</trkpt>
					<trkpt lat="48.201460" lon="6.406530">
						<ele>371</ele>
						<time>2025-03-24T18:03:09Z</time>
					</trkpt>
					<trkpt lat="48.203030" lon="6.405610">
						<ele>368</ele>
						<time>2025-03-24T18:03:39Z</time>
					</trkpt>
					<trkpt lat="48.204620" lon="6.405310">
						<ele>370</ele>
						<time>2025-03-24T18:04:07Z</time>
					</trkpt>
					<trkpt lat="48.204770" lon="6.405220">
						<ele>370</ele>
						<time>2025-03-24T18:04:10Z</time>
					</trkpt>
					<trkpt lat="48.205000" lon="6.405030">
						<ele>371</ele>
						<time>2025-03-24T18:04:15Z</time>
					</trkpt>
					<trkpt lat="48.205200" lon="6.404790">
						<ele>371</ele>
						<time>2025-03-24T18:04:19Z</time>
					</trkpt>
					<trkpt lat="48.206960" lon="6.401450">
						<ele>372</ele>
						<time>2025-03-24T18:05:10Z</time>
					</trkpt>
					<trkpt lat="48.207450" lon="6.400310">
						<ele>369</ele>
						<time>2025-03-24T18:05:26Z</time>
					</trkpt>
					<trkpt lat="48.207880" lon="6.399190">
						<ele>371</ele>
						<time>2025-03-24T18:05:41Z</time>
					</trkpt>
					<trkpt lat="48.208950" lon="6.396960">
						<ele>376</ele>
						<time>2025-03-24T18:06:14Z</time>
					</trkpt>
					<trkpt lat="48.209120" lon="6.396150">
						<ele>376</ele>
						<time>2025-03-24T18:06:24Z</time>
					</trkpt>
					<trkpt lat="48.209340" lon="6.394020">
						<ele>374</ele>
						<time>2025-03-24T18:06:49Z</time>
					</trkpt>
					<trkpt lat="48.209470" lon="6.393310">
						<ele>374</ele>
						<time>2025-03-24T18:06:58Z</time>
					</trkpt>
					<trkpt lat="48.209940" lon="6.392150">
						<ele>373</ele>
						<time>2025-03-24T18:07:14Z</time>
					</trkpt>
					<trkpt lat="48.210670" lon="6.390800">
						<ele>372</ele>
						<time>2025-03-24T18:07:35Z</time>
					</trkpt>
					<trkpt lat="48.210840" lon="6.390160">
						<ele>375</ele>
						<time>2025-03-24T18:07:43Z</time>
					</trkpt>
					<trkpt lat="48.211180" lon="6.388550">
						<ele>376</ele>
						<time>2025-03-24T18:08:03Z</time>
					</trkpt>
					<trkpt lat="48.211380" lon="6.388030">
						<ele>373</ele>
						<time>2025-03-24T18:08:10Z</time>
					</trkpt>
					<trkpt lat="48.211720" lon="6.387350">
						<ele>367</ele>
						<time>2025-03-24T18:08:20Z</time>
					</trkpt>
					<trkpt lat="48.211980" lon="6.385850">
						<ele>356</ele>
						<time>2025-03-24T18:08:39Z</time>
					</trkpt>
					<trkpt lat="48.212040" lon="6.385050">
						<ele>353</ele>
						<time>2025-03-24T18:08:48Z</time>
					</trkpt>
					<trkpt lat="48.212110" lon="6.384560">
						<ele>352</ele>
						<time>2025-03-24T18:08:54Z</time>
					</trkpt>
					<trkpt lat="48.212150" lon="6.384430">
						<ele>352</ele>
						<time>2025-03-24T18:08:56Z</time>
					</trkpt>
					<trkpt lat="48.212660" lon="6.383440">
						<ele>346</ele>
						<time>2025-03-24T18:09:11Z</time>
					</trkpt>
					<trkpt lat="48.213200" lon="6.382630">
						<ele>341</ele>
						<time>2025-03-24T18:09:24Z</time>
					</trkpt>
					<trkpt lat="48.213290" lon="6.382350">
						<ele>340</ele>
						<time>2025-03-24T18:09:28Z</time>
					</trkpt>
					<trkpt lat="48.213330" lon="6.382160">
						<ele>339</ele>
						<time>2025-03-24T18:09:30Z</time>
					</trkpt>
					<trkpt lat="48.213460" lon="6.380950">
						<ele>334</ele>
						<time>2025-03-24T18:09:45Z</time>
					</trkpt>
					<trkpt lat="48.213240" lon="6.380550">
						<ele>333</ele>
						<time>2025-03-24T18:09:51Z</time>
					</trkpt>
					<trkpt lat="48.213110" lon="6.380420">
						<ele>333</ele>
						<time>2025-03-24T18:09:54Z</time>
					</trkpt>
					<trkpt lat="48.212860" lon="6.380370">
						<ele>333</ele>
						<time>2025-03-24T18:09:58Z</time>
					</trkpt>
					<trkpt lat="48.212730" lon="6.380400">
						<ele>333</ele>
						<time>2025-03-24T18:10:01Z</time>
					</trkpt>
					<trkpt lat="48.212240" lon="6.380650">
						<ele>334</ele>
						<time>2025-03-24T18:10:10Z</time>
					</trkpt>
					<trkpt lat="48.212170" lon="6.380720">
						<ele>334</ele>
						<time>2025-03-24T18:10:11Z</time>
					</trkpt>
					<trkpt lat="48.210180" lon="6.382130">
						<ele>331</ele>
						<time>2025-03-24T18:10:50Z</time>
					</trkpt>
					<trkpt lat="48.209720" lon="6.382220">
						<ele>331</ele>
						<time>2025-03-24T18:10:59Z</time>
					</trkpt>
					<trkpt lat="48.209300" lon="6.382180">
						<ele>330</ele>
						<time>2025-03-24T18:11:06Z</time>
					</trkpt>
					<trkpt lat="48.209080" lon="6.382070">
						<ele>330</ele>
						<time>2025-03-24T18:11:10Z</time>
					</trkpt>
					<trkpt lat="48.208310" lon="6.381580">
						<ele>334</ele>
						<time>2025-03-24T18:11:25Z</time>
					</trkpt>
					<trkpt lat="48.207810" lon="6.381190">
						<ele>334</ele>
						<time>2025-03-24T18:11:35Z</time>
					</trkpt>
					<trkpt lat="48.206810" lon="6.380200">
						<ele>335</ele>
						<time>2025-03-24T18:11:57Z</time>
					</trkpt>
					<trkpt lat="48.205090" lon="6.378700">
						<ele>333</ele>
						<time>2025-03-24T18:12:32Z</time>
					</trkpt>
					<trkpt lat="48.203500" lon="6.377540">
						<ele>335</ele>
						<time>2025-03-24T18:13:03Z</time>
					</trkpt>
					<trkpt lat="48.202320" lon="6.376810">
						<ele>337</ele>
						<time>2025-03-24T18:13:26Z</time>
					</trkpt>
					<trkpt lat="48.199960" lon="6.375460">
						<ele>336</ele>
						<time>2025-03-24T18:14:11Z</time>
					</trkpt>
					<trkpt lat="48.199770" lon="6.375440">
						<ele>336</ele>
						<time>2025-03-24T18:14:14Z</time>
					</trkpt>
					<trkpt lat="48.199270" lon="6.375570">
						<ele>337</ele>
						<time>2025-03-24T18:14:23Z</time>
					</trkpt>
					<trkpt lat="48.199170" lon="6.375550">
						<ele>337</ele>
						<time>2025-03-24T18:14:25Z</time>
					</trkpt>
					<trkpt lat="48.199020" lon="6.375440">
						<ele>336</ele>
						<time>2025-03-24T18:14:28Z</time>
					</trkpt>
					<trkpt lat="48.198950" lon="6.375290">
						<ele>335</ele>
						<time>2025-03-24T18:14:30Z</time>
					</trkpt>
					<trkpt lat="48.198910" lon="6.374880">
						<ele>333</ele>
						<time>2025-03-24T18:14:35Z</time>
					</trkpt>
					<trkpt lat="48.198650" lon="6.373270">
						<ele>334</ele>
						<time>2025-03-24T18:14:55Z</time>
					</trkpt>
					<trkpt lat="48.198700" lon="6.372890">
						<ele>336</ele>
						<time>2025-03-24T18:15:00Z</time>
					</trkpt>
					<trkpt lat="48.198670" lon="6.372610">
						<ele>337</ele>
						<time>2025-03-24T18:15:03Z</time>
					</trkpt>
					<trkpt lat="48.198390" lon="6.371920">
						<ele>340</ele>
						<time>2025-03-24T18:15:13Z</time>
					</trkpt>
					<trkpt lat="48.197920" lon="6.371320">
						<ele>341</ele>
						<time>2025-03-24T18:15:23Z</time>
					</trkpt>
					<trkpt lat="48.197580" lon="6.371130">
						<ele>340</ele>
						<time>2025-03-24T18:15:30Z</time>
					</trkpt>
					<trkpt lat="48.197280" lon="6.370800">
						<ele>340</ele>
						<time>2025-03-24T18:15:37Z</time>
					</trkpt>
					<trkpt lat="48.196700" lon="6.369820">
						<ele>337</ele>
						<time>2025-03-24T18:15:52Z</time>
					</trkpt>
					<trkpt lat="48.196510" lon="6.369560">
						<ele>336</ele>
						<time>2025-03-24T18:15:57Z</time>
					</trkpt>
					<trkpt lat="48.196330" lon="6.369450">
						<ele>335</ele>
						<time>2025-03-24T18:16:00Z</time>
					</trkpt>
					<trkpt lat="48.196140" lon="6.369470">
						<ele>334</ele>
						<time>2025-03-24T18:16:04Z</time>
					</trkpt>
					<trkpt lat="48.195880" lon="6.369690">
						<ele>333</ele>
						<time>2025-03-24T18:16:09Z</time>
					</trkpt>
					<trkpt lat="48.195670" lon="6.369920">
						<ele>333</ele>
						<time>2025-03-24T18:16:13Z</time>
					</trkpt>
					<trkpt lat="48.195280" lon="6.370500">
						<ele>331</ele>
						<time>2025-03-24T18:16:23Z</time>
					</trkpt>
					<trkpt lat="48.194960" lon="6.371080">
						<ele>330</ele>
						<time>2025-03-24T18:16:32Z</time>
					</trkpt>
					<trkpt lat="48.194700" lon="6.371430">
						<ele>331</ele>
						<time>2025-03-24T18:16:38Z</time>
					</trkpt>
					<trkpt lat="48.194470" lon="6.371580">
						<ele>332</ele>
						<time>2025-03-24T18:16:43Z</time>
					</trkpt>
					<trkpt lat="48.194040" lon="6.371680">
						<ele>332</ele>
						<time>2025-03-24T18:16:51Z</time>
					</trkpt>
					<trkpt lat="48.193720" lon="6.371340">
						<ele>333</ele>
						<time>2025-03-24T18:16:58Z</time>
					</trkpt>
					<trkpt lat="48.193520" lon="6.371280">
						<ele>333</ele>
						<time>2025-03-24T18:17:01Z</time>
					</trkpt>
					<trkpt lat="48.193460" lon="6.371130">
						<ele>333</ele>
						<time>2025-03-24T18:17:03Z</time>
					</trkpt>
					<trkpt lat="48.192750" lon="6.370630">
						<ele>334</ele>
						<time>2025-03-24T18:17:17Z</time>
					</trkpt>
					<trkpt lat="48.191380" lon="6.369390">
						<ele>335</ele>
						<time>2025-03-24T18:17:46Z</time>
					</trkpt>
					<trkpt lat="48.191010" lon="6.369020">
						<ele>335</ele>
						<time>2025-03-24T18:17:54Z</time>
					</trkpt>
					<trkpt lat="48.190780" lon="6.368590">
						<ele>334</ele>
						<time>2025-03-24T18:18:00Z</time>
					</trkpt>
					<trkpt lat="48.190620" lon="6.368400">
						<ele>335</ele>
						<time>2025-03-24T18:18:04Z</time>
					</trkpt>
					<trkpt lat="48.190310" lon="6.368360">
						<ele>335</ele>
						<time>2025-03-24T18:18:09Z</time>
					</trkpt>
					<trkpt lat="48.190110" lon="6.368170">
						<ele>336</ele>
						<time>2025-03-24T18:18:14Z</time>
					</trkpt>
					<trkpt lat="48.188850" lon="6.367180">
						<ele>336</ele>
						<time>2025-03-24T18:18:39Z</time>
					</trkpt>
					<trkpt lat="48.188610" lon="6.367160">
						<ele>336</ele>
						<time>2025-03-24T18:18:43Z</time>
					</trkpt>
					<trkpt lat="48.188010" lon="6.367370">
						<ele>338</ele>
						<time>2025-03-24T18:18:54Z</time>
					</trkpt>
					<trkpt lat="48.187880" lon="6.367390">
						<ele>338</ele>
						<time>2025-03-24T18:18:56Z</time>
					</trkpt>
					<trkpt lat="48.187750" lon="6.367330">
						<ele>338</ele>
						<time>2025-03-24T18:18:59Z</time>
					</trkpt>
					<trkpt lat="48.187640" lon="6.367180">
						<ele>338</ele>
						<time>2025-03-24T18:19:01Z</time>
					</trkpt>
					<trkpt lat="48.187390" lon="6.366580">
						<ele>338</ele>
						<time>2025-03-24T18:19:10Z</time>
					</trkpt>
					<trkpt lat="48.187240" lon="6.366430">
						<ele>339</ele>
						<time>2025-03-24T18:19:13Z</time>
					</trkpt>
					<trkpt lat="48.187070" lon="6.366450">
						<ele>340</ele>
						<time>2025-03-24T18:19:16Z</time>
					</trkpt>
					<trkpt lat="48.185950" lon="6.367140">
						<ele>341</ele>
						<time>2025-03-24T18:19:38Z</time>
					</trkpt>
					<trkpt lat="48.185070" lon="6.367240">
						<ele>341</ele>
						<time>2025-03-24T18:19:53Z</time>
					</trkpt>
					<trkpt lat="48.184790" lon="6.367200">
						<ele>341</ele>
						<time>2025-03-24T18:19:58Z</time>
					</trkpt>
					<trkpt lat="48.184190" lon="6.366770">
						<ele>342</ele>
						<time>2025-03-24T18:20:10Z</time>
					</trkpt>
					<trkpt lat="48.183460" lon="6.366060">
						<ele>347</ele>
						<time>2025-03-24T18:20:26Z</time>
					</trkpt>
					<trkpt lat="48.183270" lon="6.365910">
						<ele>348</ele>
						<time>2025-03-24T18:20:29Z</time>
					</trkpt>
					<trkpt lat="48.181590" lon="6.365180">
						<ele>352</ele>
						<time>2025-03-24T18:21:01Z</time>
					</trkpt>
					<trkpt lat="48.181230" lon="6.365120">
						<ele>354</ele>
						<time>2025-03-24T18:21:07Z</time>
					</trkpt>
					<trkpt lat="48.180820" lon="6.365140">
						<ele>356</ele>
						<time>2025-03-24T18:21:14Z</time>
					</trkpt>
					<trkpt lat="48.180310" lon="6.365290">
						<ele>358</ele>
						<time>2025-03-24T18:21:24Z</time>
					</trkpt>
					<trkpt lat="48.180050" lon="6.365440">
						<ele>360</ele>
						<time>2025-03-24T18:21:29Z</time>
					</trkpt>
					<trkpt lat="48.178980" lon="6.366490">
						<ele>360</ele>
						<time>2025-03-24T18:21:51Z</time>
					</trkpt>
					<trkpt lat="48.178830" lon="6.366530">
						<ele>360</ele>
						<time>2025-03-24T18:21:54Z</time>
					</trkpt>
					<trkpt lat="48.178610" lon="6.366510">
						<ele>361</ele>
						<time>2025-03-24T18:21:58Z</time>
					</trkpt>
					<trkpt lat="48.178400" lon="6.366410">
						<ele>361</ele>
						<time>2025-03-24T18:22:02Z</time>
					</trkpt>
					<trkpt lat="48.178270" lon="6.366230">
						<ele>361</ele>
						<time>2025-03-24T18:22:05Z</time>
					</trkpt>
					<trkpt lat="48.176640" lon="6.363470">
						<ele>353</ele>
						<time>2025-03-24T18:22:49Z</time>
					</trkpt>
					<trkpt lat="48.176380" lon="6.363120">
						<ele>355</ele>
						<time>2025-03-24T18:22:55Z</time>
					</trkpt>
					<trkpt lat="48.176120" lon="6.362950">
						<ele>357</ele>
						<time>2025-03-24T18:23:00Z</time>
					</trkpt>
					<trkpt lat="48.175820" lon="6.362860">
						<ele>359</ele>
						<time>2025-03-24T18:23:05Z</time>
					</trkpt>
					<trkpt lat="48.174640" lon="6.362820">
						<ele>365</ele>
						<time>2025-03-24T18:23:26Z</time>
					</trkpt>
					<trkpt lat="48.173950" lon="6.362910">
						<ele>369</ele>
						<time>2025-03-24T18:23:39Z</time>
					</trkpt>
					<trkpt lat="48.170070" lon="6.363770">
						<ele>367</ele>
						<time>2025-03-24T18:24:49Z</time>
					</trkpt>
					<trkpt lat="48.170050" lon="6.365890">
						<ele>367</ele>
						<time>2025-03-24T18:25:14Z</time>
					</trkpt>
					<trkpt lat="48.169710" lon="6.365830">
						<ele>368</ele>
						<time>2025-03-24T18:25:20Z</time>
					</trkpt>
					<trkpt lat="48.167950" lon="6.367160">
						<ele>382</ele>
						<time>2025-03-24T18:25:55Z</time>
					</trkpt>
					<trkpt lat="48.167320" lon="6.367610">
						<ele>388</ele>
						<time>2025-03-24T18:26:07Z</time>
					</trkpt>
					<trkpt lat="48.167150" lon="6.367650">
						<ele>388</ele>
						<time>2025-03-24T18:26:10Z</time>
					</trkpt>
					<trkpt lat="48.165930" lon="6.367520">
						<ele>390</ele>
						<time>2025-03-24T18:26:32Z</time>
					</trkpt>
					<trkpt lat="48.164860" lon="6.367310">
						<ele>382</ele>
						<time>2025-03-24T18:26:51Z</time>
					</trkpt>
					<trkpt lat="48.164620" lon="6.367330">
						<ele>380</ele>
						<time>2025-03-24T18:26:56Z</time>
					</trkpt>
					<trkpt lat="48.164360" lon="6.367460">
						<ele>377</ele>
						<time>2025-03-24T18:27:00Z</time>
					</trkpt>
					<trkpt lat="48.163330" lon="6.368080">
						<ele>374</ele>
						<time>2025-03-24T18:27:20Z</time>
					</trkpt>
					<trkpt lat="48.163180" lon="6.368080">
						<ele>375</ele>
						<time>2025-03-24T18:27:23Z</time>
					</trkpt>
					<trkpt lat="48.163050" lon="6.368040">
						<ele>377</ele>
						<time>2025-03-24T18:27:25Z</time>
					</trkpt>
					<trkpt lat="48.162900" lon="6.367860">
						<ele>377</ele>
						<time>2025-03-24T18:27:29Z</time>
					</trkpt>
					<trkpt lat="48.162820" lon="6.367690">
						<ele>378</ele>
						<time>2025-03-24T18:27:31Z</time>
					</trkpt>
					<trkpt lat="48.162780" lon="6.367410">
						<ele>378</ele>
						<time>2025-03-24T18:27:35Z</time>
					</trkpt>
					<trkpt lat="48.162860" lon="6.366880">
						<ele>376</ele>
						<time>2025-03-24T18:27:41Z</time>
					</trkpt>
					<trkpt lat="48.162860" lon="6.366580">
						<ele>376</ele>
						<time>2025-03-24T18:27:45Z</time>
					</trkpt>
					<trkpt lat="48.162780" lon="6.365950">
						<ele>376</ele>
						<time>2025-03-24T18:27:52Z</time>
					</trkpt>
					<trkpt lat="48.162390" lon="6.364580">
						<ele>372</ele>
						<time>2025-03-24T18:28:10Z</time>
					</trkpt>
					<trkpt lat="48.162110" lon="6.363770">
						<ele>370</ele>
						<time>2025-03-24T18:28:21Z</time>
					</trkpt>
					<trkpt lat="48.161660" lon="6.363120">
						<ele>371</ele>
						<time>2025-03-24T18:28:32Z</time>
					</trkpt>
					<trkpt lat="48.161380" lon="6.362760">
						<ele>369</ele>
						<time>2025-03-24T18:28:38Z</time>
					</trkpt>
					<trkpt lat="48.161250" lon="6.362670">
						<ele>369</ele>
						<time>2025-03-24T18:28:41Z</time>
					</trkpt>
					<trkpt lat="48.161100" lon="6.362610">
						<ele>368</ele>
						<time>2025-03-24T18:28:44Z</time>
					</trkpt>
					<trkpt lat="48.160780" lon="6.362560">
						<ele>369</ele>
						<time>2025-03-24T18:28:49Z</time>
					</trkpt>
					<trkpt lat="48.160520" lon="6.362560">
						<ele>369</ele>
						<time>2025-03-24T18:28:54Z</time>
					</trkpt>
					<trkpt lat="48.160090" lon="6.362690">
						<ele>372</ele>
						<time>2025-03-24T18:29:02Z</time>
					</trkpt>
					<trkpt lat="48.159730" lon="6.362910">
						<ele>374</ele>
						<time>2025-03-24T18:29:09Z</time>
					</trkpt>
					<trkpt lat="48.158850" lon="6.363510">
						<ele>377</ele>
						<time>2025-03-24T18:29:26Z</time>
					</trkpt>
					<trkpt lat="48.158400" lon="6.363890">
						<ele>376</ele>
						<time>2025-03-24T18:29:35Z</time>
					</trkpt>
					<trkpt lat="48.158080" lon="6.364300">
						<ele>378</ele>
						<time>2025-03-24T18:29:43Z</time>
					</trkpt>
					<trkpt lat="48.157950" lon="6.364350">
						<ele>378</ele>
						<time>2025-03-24T18:29:45Z</time>
					</trkpt>
					<trkpt lat="48.157840" lon="6.364300">
						<ele>378</ele>
						<time>2025-03-24T18:29:47Z</time>
					</trkpt>
					<trkpt lat="48.157540" lon="6.363770">
						<ele>374</ele>
						<time>2025-03-24T18:29:55Z</time>
					</trkpt>
					<trkpt lat="48.157390" lon="6.363660">
						<ele>374</ele>
						<time>2025-03-24T18:29:58Z</time>
					</trkpt>
					<trkpt lat="48.157050" lon="6.363550">
						<ele>375</ele>
						<time>2025-03-24T18:30:04Z</time>
					</trkpt>
					<trkpt lat="48.156170" lon="6.363420">
						<ele>375</ele>
						<time>2025-03-24T18:30:20Z</time>
					</trkpt>
					<trkpt lat="48.155290" lon="6.363020">
						<ele>372</ele>
						<time>2025-03-24T18:30:37Z</time>
					</trkpt>
					<trkpt lat="48.154110" lon="6.362690">
						<ele>371</ele>
						<time>2025-03-24T18:30:58Z</time>
					</trkpt>
					<trkpt lat="48.152580" lon="6.362800">
						<ele>374</ele>
						<time>2025-03-24T18:31:25Z</time>
					</trkpt>
					<trkpt lat="48.152450" lon="6.362350">
						<ele>372</ele>
						<time>2025-03-24T18:31:31Z</time>
					</trkpt>
					<trkpt lat="48.152430" lon="6.361900">
						<ele>370</ele>
						<time>2025-03-24T18:31:36Z</time>
					</trkpt>
					<trkpt lat="48.152560" lon="6.360870">
						<ele>371</ele>
						<time>2025-03-24T18:31:49Z</time>
					</trkpt>
					<trkpt lat="48.152730" lon="6.360270">
						<ele>373</ele>
						<time>2025-03-24T18:31:57Z</time>
					</trkpt>
					<trkpt lat="48.152730" lon="6.360050">
						<ele>374</ele>
						<time>2025-03-24T18:31:59Z</time>
					</trkpt>
					<trkpt lat="48.152690" lon="6.359900">
						<ele>374</ele>
						<time>2025-03-24T18:32:01Z</time>
					</trkpt>
					<trkpt lat="48.152370" lon="6.359600">
						<ele>374</ele>
						<time>2025-03-24T18:32:08Z</time>
					</trkpt>
					<trkpt lat="48.152220" lon="6.359620">
						<ele>375</ele>
						<time>2025-03-24T18:32:10Z</time>
					</trkpt>
					<trkpt lat="48.152110" lon="6.359690">
						<ele>375</ele>
						<time>2025-03-24T18:32:13Z</time>
					</trkpt>
					<trkpt lat="48.151770" lon="6.360050">
						<ele>376</ele>
						<time>2025-03-24T18:32:20Z</time>
					</trkpt>
					<trkpt lat="48.151470" lon="6.360100">
						<ele>378</ele>
						<time>2025-03-24T18:32:25Z</time>
					</trkpt>
					<trkpt lat="48.151190" lon="6.359900">
						<ele>382</ele>
						<time>2025-03-24T18:32:31Z</time>
					</trkpt>
					<trkpt lat="48.150930" lon="6.359580">
						<ele>386</ele>
						<time>2025-03-24T18:32:37Z</time>
					</trkpt>
					<trkpt lat="48.150690" lon="6.359150">
						<ele>392</ele>
						<time>2025-03-24T18:32:44Z</time>
					</trkpt>
					<trkpt lat="48.150290" lon="6.358190">
						<ele>398</ele>
						<time>2025-03-24T18:32:57Z</time>
					</trkpt>
					<trkpt lat="48.149900" lon="6.357670">
						<ele>399</ele>
						<time>2025-03-24T18:33:06Z</time>
					</trkpt>
					<trkpt lat="48.148060" lon="6.355440">
						<ele>400</ele>
						<time>2025-03-24T18:33:48Z</time>
					</trkpt>
					<trkpt lat="48.147970" lon="6.355270">
						<ele>399</ele>
						<time>2025-03-24T18:33:51Z</time>
					</trkpt>
					<trkpt lat="48.147930" lon="6.354780">
						<ele>394</ele>
						<time>2025-03-24T18:33:57Z</time>
					</trkpt>
					<trkpt lat="48.147820" lon="6.354580">
						<ele>394</ele>
						<time>2025-03-24T18:34:00Z</time>
					</trkpt>
					<trkpt lat="48.147070" lon="6.353530">
						<ele>394</ele>
						<time>2025-03-24T18:34:18Z</time>
					</trkpt>
					<trkpt lat="48.146190" lon="6.351450">
						<ele>400</ele>
						<time>2025-03-24T18:34:47Z</time>
					</trkpt>
					<trkpt lat="48.145800" lon="6.350810">
						<ele>406</ele>
						<time>2025-03-24T18:34:58Z</time>
					</trkpt>
					<trkpt lat="48.145720" lon="6.349900">
						<ele>407</ele>
						<time>2025-03-24T18:35:09Z</time>
					</trkpt>
					<trkpt lat="48.145630" lon="6.349690">
						<ele>407</ele>
						<time>2025-03-24T18:35:12Z</time>
					</trkpt>
					<trkpt lat="48.145140" lon="6.348940">
						<ele>405</ele>
						<time>2025-03-24T18:35:24Z</time>
					</trkpt>
					<trkpt lat="48.144510" lon="6.348420">
						<ele>407</ele>
						<time>2025-03-24T18:35:37Z</time>
					</trkpt>
					<trkpt lat="48.143870" lon="6.348120">
						<ele>410</ele>
						<time>2025-03-24T18:35:49Z</time>
					</trkpt>
					<trkpt lat="48.143720" lon="6.347950">
						<ele>410</ele>
						<time>2025-03-24T18:35:52Z</time>
					</trkpt>
					<trkpt lat="48.143380" lon="6.347760">
						<ele>411</ele>
						<time>2025-03-24T18:35:58Z</time>
					</trkpt>
					<trkpt lat="48.143330" lon="6.347670">
						<ele>409</ele>
						<time>2025-03-24T18:36:00Z</time>
					</trkpt>
					<trkpt lat="48.143270" lon="6.347420">
						<ele>406</ele>
						<time>2025-03-24T18:36:03Z</time>
					</trkpt>
					<trkpt lat="48.143290" lon="6.346300">
						<ele>402</ele>
						<time>2025-03-24T18:36:16Z</time>
					</trkpt>
					<trkpt lat="48.143210" lon="6.345700">
						<ele>406</ele>
						<time>2025-03-24T18:36:24Z</time>
					</trkpt>
					<trkpt lat="48.142970" lon="6.344950">
						<ele>415</ele>
						<time>2025-03-24T18:36:33Z</time>
					</trkpt>
					<trkpt lat="48.142630" lon="6.344090">
						<ele>417</ele>
						<time>2025-03-24T18:36:45Z</time>
					</trkpt>
					<trkpt lat="48.142330" lon="6.343570">
						<ele>418</ele>
						<time>2025-03-24T18:36:54Z</time>
					</trkpt>
					<trkpt lat="48.141940" lon="6.343230">
						<ele>423</ele>
						<time>2025-03-24T18:37:02Z</time>
					</trkpt>
					<trkpt lat="48.140290" lon="6.342650">
						<ele>427</ele>
						<time>2025-03-24T18:37:32Z</time>
					</trkpt>
					<trkpt lat="48.140050" lon="6.342740">
						<ele>429</ele>
						<time>2025-03-24T18:37:36Z</time>
					</trkpt>
					<trkpt lat="48.139540" lon="6.343100">
						<ele>432</ele>
						<time>2025-03-24T18:37:46Z</time>
					</trkpt>
					<trkpt lat="48.139340" lon="6.343190">
						<ele>433</ele>
						<time>2025-03-24T18:37:50Z</time>
					</trkpt>
					<trkpt lat="48.139130" lon="6.343150">
						<ele>433</ele>
						<time>2025-03-24T18:37:54Z</time>
					</trkpt>
					<trkpt lat="48.138850" lon="6.342970">
						<ele>435</ele>
						<time>2025-03-24T18:37:59Z</time>
					</trkpt>
					<trkpt lat="48.138680" lon="6.342690">
						<ele>436</ele>
						<time>2025-03-24T18:38:04Z</time>
					</trkpt>
					<trkpt lat="48.138570" lon="6.342330">
						<ele>436</ele>
						<time>2025-03-24T18:38:08Z</time>
					</trkpt>
					<trkpt lat="48.138120" lon="6.339730">
						<ele>434</ele>
						<time>2025-03-24T18:38:40Z</time>
					</trkpt>
					<trkpt lat="48.138120" lon="6.339370">
						<ele>432</ele>
						<time>2025-03-24T18:38:44Z</time>
					</trkpt>
					<trkpt lat="48.138310" lon="6.338770">
						<ele>432</ele>
						<time>2025-03-24T18:38:52Z</time>
					</trkpt>
					<trkpt lat="48.138180" lon="6.338450">
						<ele>431</ele>
						<time>2025-03-24T18:38:57Z</time>
					</trkpt>
					<trkpt lat="48.137630" lon="6.337720">
						<ele>424</ele>
						<time>2025-03-24T18:39:10Z</time>
					</trkpt>
					<trkpt lat="48.137430" lon="6.337370">
						<ele>422</ele>
						<time>2025-03-24T18:39:15Z</time>
					</trkpt>
					<trkpt lat="48.137150" lon="6.336430">
						<ele>419</ele>
						<time>2025-03-24T18:39:27Z</time>
					</trkpt>
					<trkpt lat="48.137110" lon="6.336130">
						<ele>419</ele>
						<time>2025-03-24T18:39:31Z</time>
					</trkpt>
					<trkpt lat="48.137050" lon="6.335230">
						<ele>419</ele>
						<time>2025-03-24T18:39:42Z</time>
					</trkpt>
					<trkpt lat="48.137070" lon="6.334880">
						<ele>417</ele>
						<time>2025-03-24T18:39:46Z</time>
					</trkpt>
					<trkpt lat="48.137130" lon="6.334690">
						<ele>415</ele>
						<time>2025-03-24T18:39:49Z</time>
					</trkpt>
					<trkpt lat="48.137730" lon="6.333900">
						<ele>410</ele>
						<time>2025-03-24T18:40:03Z</time>
					</trkpt>
					<trkpt lat="48.137780" lon="6.333730">
						<ele>410</ele>
						<time>2025-03-24T18:40:05Z</time>
					</trkpt>
					<trkpt lat="48.137760" lon="6.333530">
						<ele>408</ele>
						<time>2025-03-24T18:40:07Z</time>
					</trkpt>
					<trkpt lat="48.137150" lon="6.332030">
						<ele>395</ele>
						<time>2025-03-24T18:40:28Z</time>
					</trkpt>
					<trkpt lat="48.137030" lon="6.331970">
						<ele>393</ele>
						<time>2025-03-24T18:40:30Z</time>
					</trkpt>
					<trkpt lat="48.136940" lon="6.332050">
						<ele>393</ele>
						<time>2025-03-24T18:40:32Z</time>
					</trkpt>
					<trkpt lat="48.136510" lon="6.332870">
						<ele>393</ele>
						<time>2025-03-24T18:40:45Z</time>
					</trkpt>
					<trkpt lat="48.136400" lon="6.332870">
						<ele>392</ele>
						<time>2025-03-24T18:40:47Z</time>
					</trkpt>
					<trkpt lat="48.136300" lon="6.332670">
						<ele>390</ele>
						<time>2025-03-24T18:40:50Z</time>
					</trkpt>
					<trkpt lat="48.136150" lon="6.330960">
						<ele>377</ele>
						<time>2025-03-24T18:41:10Z</time>
					</trkpt>
					<trkpt lat="48.136100" lon="6.330890">
						<ele>377</ele>
						<time>2025-03-24T18:41:11Z</time>
					</trkpt>
					<trkpt lat="48.135420" lon="6.331540">
						<ele>376</ele>
						<time>2025-03-24T18:41:26Z</time>
					</trkpt>
					<trkpt lat="48.134750" lon="6.332070">
						<ele>374</ele>
						<time>2025-03-24T18:41:39Z</time>
					</trkpt>
					<trkpt lat="48.134280" lon="6.332480">
						<ele>373</ele>
						<time>2025-03-24T18:41:49Z</time>
					</trkpt>
					<trkpt lat="48.133660" lon="6.332850">
						<ele>376</ele>
						<time>2025-03-24T18:42:01Z</time>
					</trkpt>
					<trkpt lat="48.131230" lon="6.333940">
						<ele>382</ele>
						<time>2025-03-24T18:42:46Z</time>
					</trkpt>
					<trkpt lat="48.131040" lon="6.334090">
						<ele>383</ele>
						<time>2025-03-24T18:42:50Z</time>
					</trkpt>
					<trkpt lat="48.128610" lon="6.336320">
						<ele>396</ele>
						<time>2025-03-24T18:43:40Z</time>
					</trkpt>
					<trkpt lat="48.126580" lon="6.337760">
						<ele>384</ele>
						<time>2025-03-24T18:44:20Z</time>
					</trkpt>
					<trkpt lat="48.125760" lon="6.338510">
						<ele>382</ele>
						<time>2025-03-24T18:44:37Z</time>
					</trkpt>
					<trkpt lat="48.125590" lon="6.338620">
						<ele>381</ele>
						<time>2025-03-24T18:44:41Z</time>
					</trkpt>
					<trkpt lat="48.123400" lon="6.339000">
						<ele>372</ele>
						<time>2025-03-24T18:45:20Z</time>
					</trkpt>
					<trkpt lat="48.123120" lon="6.339070">
						<ele>372</ele>
						<time>2025-03-24T18:45:25Z</time>
					</trkpt>
					<trkpt lat="48.122950" lon="6.339150">
						<ele>371</ele>
						<time>2025-03-24T18:45:28Z</time>
					</trkpt>
					<trkpt lat="48.122740" lon="6.339430">
						<ele>370</ele>
						<time>2025-03-24T18:45:33Z</time>
					</trkpt>
					<trkpt lat="48.122580" lon="6.339820">
						<ele>369</ele>
						<time>2025-03-24T18:45:39Z</time>
					</trkpt>
					<trkpt lat="48.122560" lon="6.340210">
						<ele>371</ele>
						<time>2025-03-24T18:45:43Z</time>
					</trkpt>
					<trkpt lat="48.122560" lon="6.341730">
						<ele>371</ele>
						<time>2025-03-24T18:46:01Z</time>
					</trkpt>
					<trkpt lat="48.122630" lon="6.342160">
						<ele>367</ele>
						<time>2025-03-24T18:46:07Z</time>
					</trkpt>
					<trkpt lat="48.122820" lon="6.342590">
						<ele>365</ele>
						<time>2025-03-24T18:46:13Z</time>
					</trkpt>
					<trkpt lat="48.123140" lon="6.343060">
						<ele>367</ele>
						<time>2025-03-24T18:46:21Z</time>
					</trkpt>
					<trkpt lat="48.123720" lon="6.343680">
						<ele>373</ele>
						<time>2025-03-24T18:46:33Z</time>
					</trkpt>
					<trkpt lat="48.123870" lon="6.343940">
						<ele>374</ele>
						<time>2025-03-24T18:46:37Z</time>
					</trkpt>
					<trkpt lat="48.123870" lon="6.344130">
						<ele>372</ele>
						<time>2025-03-24T18:46:40Z</time>
					</trkpt>
					<trkpt lat="48.123810" lon="6.344370">
						<ele>374</ele>
						<time>2025-03-24T18:46:43Z</time>
					</trkpt>
					<trkpt lat="48.123680" lon="6.344410">
						<ele>374</ele>
						<time>2025-03-24T18:46:45Z</time>
					</trkpt>
					<trkpt lat="48.123440" lon="6.344350">
						<ele>372</ele>
						<time>2025-03-24T18:46:49Z</time>
					</trkpt>
					<trkpt lat="48.122350" lon="6.343960">
						<ele>367</ele>
						<time>2025-03-24T18:47:09Z</time>
					</trkpt>
					<trkpt lat="48.121130" lon="6.343450">
						<ele>358</ele>
						<time>2025-03-24T18:47:32Z</time>
					</trkpt>
					<trkpt lat="48.120680" lon="6.343380">
						<ele>356</ele>
						<time>2025-03-24T18:47:40Z</time>
					</trkpt>
					<trkpt lat="48.119750" lon="6.343380">
						<ele>353</ele>
						<time>2025-03-24T18:47:56Z</time>
					</trkpt>
					<trkpt lat="48.119370" lon="6.343490">
						<ele>352</ele>
						<time>2025-03-24T18:48:03Z</time>
					</trkpt>
					<trkpt lat="48.119220" lon="6.343640">
						<ele>354</ele>
						<time>2025-03-24T18:48:07Z</time>
					</trkpt>
					<trkpt lat="48.118920" lon="6.344110">
						<ele>361</ele>
						<time>2025-03-24T18:48:14Z</time>
					</trkpt>
					<trkpt lat="48.118770" lon="6.344220">
						<ele>363</ele>
						<time>2025-03-24T18:48:17Z</time>
					</trkpt>
					<trkpt lat="48.118550" lon="6.344200">
						<ele>363</ele>
						<time>2025-03-24T18:48:21Z</time>
					</trkpt>
					<trkpt lat="48.118190" lon="6.343940">
						<ele>361</ele>
						<time>2025-03-24T18:48:28Z</time>
					</trkpt>
					<trkpt lat="48.117780" lon="6.343940">
						<ele>364</ele>
						<time>2025-03-24T18:48:36Z</time>
					</trkpt>
					<trkpt lat="48.117160" lon="6.344110">
						<ele>366</ele>
						<time>2025-03-24T18:48:47Z</time>
					</trkpt>
					<trkpt lat="48.116920" lon="6.344220">
						<ele>367</ele>
						<time>2025-03-24T18:48:51Z</time>
					</trkpt>
					<trkpt lat="48.115800" lon="6.345030">
						<ele>370</ele>
						<time>2025-03-24T18:49:13Z</time>
					</trkpt>
					<trkpt lat="48.115610" lon="6.345210">
						<ele>370</ele>
						<time>2025-03-24T18:49:17Z</time>
					</trkpt>
					<trkpt lat="48.115100" lon="6.345910">
						<ele>379</ele>
						<time>2025-03-24T18:49:30Z</time>
					</trkpt>
					<trkpt lat="48.114770" lon="6.346150">
						<ele>380</ele>
						<time>2025-03-24T18:49:36Z</time>
					</trkpt>
					<trkpt lat="48.114580" lon="6.346190">
						<ele>379</ele>
						<time>2025-03-24T18:49:40Z</time>
					</trkpt>
					<trkpt lat="48.113660" lon="6.346000">
						<ele>370</ele>
						<time>2025-03-24T18:49:56Z</time>
					</trkpt>
					<trkpt lat="48.113320" lon="6.346020">
						<ele>370</ele>
						<time>2025-03-24T18:50:02Z</time>
					</trkpt>
					<trkpt lat="48.111510" lon="6.346560">
						<ele>377</ele>
						<time>2025-03-24T18:50:35Z</time>
					</trkpt>
					<trkpt lat="48.111260" lon="6.346690">
						<ele>377</ele>
						<time>2025-03-24T18:50:40Z</time>
					</trkpt>
					<trkpt lat="48.109730" lon="6.348250">
						<ele>374</ele>
						<time>2025-03-24T18:51:13Z</time>
					</trkpt>
					<trkpt lat="48.109390" lon="6.348470">
						<ele>374</ele>
						<time>2025-03-24T18:51:19Z</time>
					</trkpt>
					<trkpt lat="48.108440" lon="6.348900">
						<ele>373</ele>
						<time>2025-03-24T18:51:37Z</time>
					</trkpt>
					<trkpt lat="48.108020" lon="6.349150">
						<ele>373</ele>
						<time>2025-03-24T18:51:45Z</time>
					</trkpt>
					<trkpt lat="48.106380" lon="6.350830">
						<ele>370</ele>
						<time>2025-03-24T18:52:20Z</time>
					</trkpt>
					<trkpt lat="48.106080" lon="6.351190">
						<ele>369</ele>
						<time>2025-03-24T18:52:27Z</time>
					</trkpt>
					<trkpt lat="48.105810" lon="6.351750">
						<ele>368</ele>
						<time>2025-03-24T18:52:35Z</time>
					</trkpt>
					<trkpt lat="48.105080" lon="6.352970">
						<ele>367</ele>
						<time>2025-03-24T18:52:55Z</time>
					</trkpt>
					<trkpt lat="48.104840" lon="6.353700">
						<ele>364</ele>
						<time>2025-03-24T18:53:05Z</time>
					</trkpt>
					<trkpt lat="48.104820" lon="6.354110">
						<ele>363</ele>
						<time>2025-03-24T18:53:09Z</time>
					</trkpt>
					<trkpt lat="48.104820" lon="6.355630">
						<ele>360</ele>
						<time>2025-03-24T18:53:27Z</time>
					</trkpt>
					<trkpt lat="48.104730" lon="6.355910">
						<ele>360</ele>
						<time>2025-03-24T18:53:31Z</time>
					</trkpt>
					<trkpt lat="48.104560" lon="6.356040">
						<ele>360</ele>
						<time>2025-03-24T18:53:35Z</time>
					</trkpt>
					<trkpt lat="48.104020" lon="6.356060">
						<ele>358</ele>
						<time>2025-03-24T18:53:44Z</time>
					</trkpt>
					<trkpt lat="48.103700" lon="6.356210">
						<ele>356</ele>
						<time>2025-03-24T18:53:50Z</time>
					</trkpt>
					<trkpt lat="48.103620" lon="6.356300">
						<ele>356</ele>
						<time>2025-03-24T18:53:52Z</time>
					</trkpt>
					<trkpt lat="48.102990" lon="6.357310">
						<ele>356</ele>
						<time>2025-03-24T18:54:08Z</time>
					</trkpt>
					<trkpt lat="48.101640" lon="6.358340">
						<ele>356</ele>
						<time>2025-03-24T18:54:35Z</time>
					</trkpt>
					<trkpt lat="48.101380" lon="6.358440">
						<ele>356</ele>
						<time>2025-03-24T18:54:40Z</time>
					</trkpt>
					<trkpt lat="48.100460" lon="6.358660">
						<ele>357</ele>
						<time>2025-03-24T18:54:57Z</time>
					</trkpt>
					<trkpt lat="48.097690" lon="6.358250">
						<ele>361</ele>
						<time>2025-03-24T18:55:46Z</time>
					</trkpt>
					<trkpt lat="48.097290" lon="6.358250">
						<ele>362</ele>
						<time>2025-03-24T18:55:53Z</time>
					</trkpt>
					<trkpt lat="48.096860" lon="6.358440">
						<ele>363</ele>
						<time>2025-03-24T18:56:01Z</time>
					</trkpt>
					<trkpt lat="48.096230" lon="6.358850">
						<ele>363</ele>
						<time>2025-03-24T18:56:14Z</time>
					</trkpt>
					<trkpt lat="48.095760" lon="6.359020">
						<ele>362</ele>
						<time>2025-03-24T18:56:22Z</time>
					</trkpt>
					<trkpt lat="48.094970" lon="6.359170">
						<ele>358</ele>
						<time>2025-03-24T18:56:36Z</time>
					</trkpt>
					<trkpt lat="48.094220" lon="6.359220">
						<ele>356</ele>
						<time>2025-03-24T18:56:50Z</time>
					</trkpt>
					<trkpt lat="48.093600" lon="6.359130">
						<ele>352</ele>
						<time>2025-03-24T18:57:01Z</time>
					</trkpt>
					<trkpt lat="48.092240" lon="6.358810">
						<ele>346</ele>
						<time>2025-03-24T18:57:25Z</time>
					</trkpt>
					<trkpt lat="48.091900" lon="6.358830">
						<ele>344</ele>
						<time>2025-03-24T18:57:31Z</time>
					</trkpt>
					<trkpt lat="48.091750" lon="6.358870">
						<ele>344</ele>
						<time>2025-03-24T18:57:34Z</time>
					</trkpt>
					<trkpt lat="48.090850" lon="6.359520">
						<ele>341</ele>
						<time>2025-03-24T18:57:52Z</time>
					</trkpt>
					<trkpt lat="48.090120" lon="6.359990">
						<ele>338</ele>
						<time>2025-03-24T18:58:06Z</time>
					</trkpt>
					<trkpt lat="48.090030" lon="6.359580">
						<ele>338</ele>
						<time>2025-03-24T18:58:11Z</time>
					</trkpt>
					<trkpt lat="48.089690" lon="6.358530">
						<ele>340</ele>
						<time>2025-03-24T18:58:25Z</time>
					</trkpt>
					<trkpt lat="48.089560" lon="6.358270">
						<ele>341</ele>
						<time>2025-03-24T18:58:29Z</time>
					</trkpt>
					<trkpt lat="48.088810" lon="6.357200">
						<ele>344</ele>
						<time>2025-03-24T18:58:47Z</time>
					</trkpt>
					<trkpt lat="48.087720" lon="6.356210">
						<ele>344</ele>
						<time>2025-03-24T18:59:10Z</time>
					</trkpt>
					<trkpt lat="48.087460" lon="6.355890">
						<ele>344</ele>
						<time>2025-03-24T18:59:16Z</time>
					</trkpt>
					<trkpt lat="48.086970" lon="6.355120">
						<ele>339</ele>
						<time>2025-03-24T18:59:29Z</time>
					</trkpt>
					<trkpt lat="48.086170" lon="6.354260">
						<ele>335</ele>
						<time>2025-03-24T18:59:46Z</time>
					</trkpt>
					<trkpt lat="48.085740" lon="6.353570">
						<ele>333</ele>
						<time>2025-03-24T18:59:57Z</time>
					</trkpt>
					<trkpt lat="48.085420" lon="6.352650">
						<ele>333</ele>
						<time>2025-03-24T19:00:10Z</time>
					</trkpt>
					<trkpt lat="48.085100" lon="6.351580">
						<ele>331</ele>
						<time>2025-03-24T19:00:24Z</time>
					</trkpt>
					<trkpt lat="48.085030" lon="6.351280">
						<ele>330</ele>
						<time>2025-03-24T19:00:27Z</time>
					</trkpt>
					<trkpt lat="48.085010" lon="6.350850">
						<ele>329</ele>
						<time>2025-03-24T19:00:32Z</time>
					</trkpt>
					<trkpt lat="48.085100" lon="6.350380">
						<ele>328</ele>
						<time>2025-03-24T19:00:38Z</time>
					</trkpt>
					<trkpt lat="48.085250" lon="6.350010">
						<ele>328</ele>
						<time>2025-03-24T19:00:43Z</time>
					</trkpt>
					<trkpt lat="48.085530" lon="6.349690">
						<ele>329</ele>
						<time>2025-03-24T19:00:50Z</time>
					</trkpt>
					<trkpt lat="48.086300" lon="6.349260">
						<ele>327</ele>
						<time>2025-03-24T19:01:04Z</time>
					</trkpt>
					<trkpt lat="48.086410" lon="6.349130">
						<ele>327</ele>
						<time>2025-03-24T19:01:07Z</time>
					</trkpt>
					<trkpt lat="48.086470" lon="6.348940">
						<ele>328</ele>
						<time>2025-03-24T19:01:09Z</time>
					</trkpt>
					<trkpt lat="48.086390" lon="6.347610">
						<ele>329</ele>
						<time>2025-03-24T19:01:25Z</time>
					</trkpt>
					<trkpt lat="48.086280" lon="6.346860">
						<ele>327</ele>
						<time>2025-03-24T19:01:34Z</time>
					</trkpt>
					<trkpt lat="48.085850" lon="6.345180">
						<ele>327</ele>
						<time>2025-03-24T19:01:56Z</time>
					</trkpt>
					<trkpt lat="48.085780" lon="6.344540">
						<ele>330</ele>
						<time>2025-03-24T19:02:03Z</time>
					</trkpt>
					<trkpt lat="48.085400" lon="6.344650">
						<ele>325</ele>
						<time>2025-03-24T19:02:10Z</time>
					</trkpt>
					<trkpt lat="48.084930" lon="6.344580">
						<ele>321</ele>
						<time>2025-03-24T19:02:19Z</time>
					</trkpt>
					<trkpt lat="48.084710" lon="6.344540">
						<ele>321</ele>
						<time>2025-03-24T19:02:23Z</time>
					</trkpt>
					<trkpt lat="48.083470" lon="6.344180">
						<ele>324</ele>
						<time>2025-03-24T19:02:45Z</time>
					</trkpt>
					<trkpt lat="48.083150" lon="6.344030">
						<ele>326</ele>
						<time>2025-03-24T19:02:51Z</time>
					</trkpt>
					<trkpt lat="48.082850" lon="6.343770">
						<ele>328</ele>
						<time>2025-03-24T19:02:57Z</time>
					</trkpt>
					<trkpt lat="48.082870" lon="6.343680">
						<ele>327</ele>
						<time>2025-03-24T19:02:58Z</time>
					</trkpt>
					<trkpt lat="48.082160" lon="6.343040">
						<ele>336</ele>
						<time>2025-03-24T19:03:13Z</time>
					</trkpt>
					<trkpt lat="48.081880" lon="6.342970">
						<ele>341</ele>
						<time>2025-03-24T19:03:18Z</time>
					</trkpt>
					<trkpt lat="48.081540" lon="6.342930">
						<ele>345</ele>
						<time>2025-03-24T19:03:24Z</time>
					</trkpt>
					<trkpt lat="48.080790" lon="6.342460">
						<ele>353</ele>
						<time>2025-03-24T19:03:39Z</time>
					</trkpt>
					<trkpt lat="48.080180" lon="6.342200">
						<ele>350</ele>
						<time>2025-03-24T19:03:50Z</time>
					</trkpt>
					<trkpt lat="48.079950" lon="6.342140">
						<ele>350</ele>
						<time>2025-03-24T19:03:54Z</time>
					</trkpt>
					<trkpt lat="48.079330" lon="6.341840">
						<ele>346</ele>
						<time>2025-03-24T19:04:06Z</time>
					</trkpt>
					<trkpt lat="48.079030" lon="6.341660">
						<ele>344</ele>
						<time>2025-03-24T19:04:11Z</time>
					</trkpt>
					<trkpt lat="48.078730" lon="6.341580">
						<ele>342</ele>
						<time>2025-03-24T19:04:17Z</time>
					</trkpt>
					<trkpt lat="48.078150" lon="6.341540">
						<ele>339</ele>
						<time>2025-03-24T19:04:27Z</time>
					</trkpt>
					<trkpt lat="48.077630" lon="6.341190">
						<ele>335</ele>
						<time>2025-03-24T19:04:37Z</time>
					</trkpt>
					<trkpt lat="48.077370" lon="6.341110">
						<ele>335</ele>
						<time>2025-03-24T19:04:42Z</time>
					</trkpt>
					<trkpt lat="48.074970" lon="6.340700">
						<ele>326</ele>
						<time>2025-03-24T19:05:25Z</time>
					</trkpt>
					<trkpt lat="48.073340" lon="6.340460">
						<ele>334</ele>
						<time>2025-03-24T19:05:54Z</time>
					</trkpt>
					<trkpt lat="48.073150" lon="6.340380">
						<ele>335</ele>
						<time>2025-03-24T19:05:58Z</time>
					</trkpt>
					<trkpt lat="48.072310" lon="6.339050">
						<ele>348</ele>
						<time>2025-03-24T19:06:19Z</time>
					</trkpt>
					<trkpt lat="48.071560" lon="6.337350">
						<ele>364</ele>
						<time>2025-03-24T19:06:44Z</time>
					</trkpt>
					<trkpt lat="48.071190" lon="6.336880">
						<ele>371</ele>
						<time>2025-03-24T19:06:52Z</time>
					</trkpt>
					<trkpt lat="48.071020" lon="6.336840">
						<ele>371</ele>
						<time>2025-03-24T19:06:55Z</time>
					</trkpt>
					<trkpt lat="48.070890" lon="6.336860">
						<ele>371</ele>
						<time>2025-03-24T19:06:58Z</time>
					</trkpt>
					<trkpt lat="48.070590" lon="6.337030">
						<ele>370</ele>
						<time>2025-03-24T19:07:03Z</time>
					</trkpt>
					<trkpt lat="48.070290" lon="6.337160">
						<ele>372</ele>
						<time>2025-03-24T19:07:09Z</time>
					</trkpt>
					<trkpt lat="48.069520" lon="6.337200">
						<ele>378</ele>
						<time>2025-03-24T19:07:23Z</time>
					</trkpt>
					<trkpt lat="48.069260" lon="6.337140">
						<ele>379</ele>
						<time>2025-03-24T19:07:27Z</time>
					</trkpt>
					<trkpt lat="48.069010" lon="6.336970">
						<ele>380</ele>
						<time>2025-03-24T19:07:32Z</time>
					</trkpt>
					<trkpt lat="48.068250" lon="6.336190">
						<ele>377</ele>
						<time>2025-03-24T19:07:49Z</time>
					</trkpt>
					<trkpt lat="48.067550" lon="6.335360">
						<ele>372</ele>
						<time>2025-03-24T19:08:05Z</time>
					</trkpt>
					<trkpt lat="48.065810" lon="6.333100">
						<ele>360</ele>
						<time>2025-03-24T19:08:46Z</time>
					</trkpt>
					<trkpt lat="48.065700" lon="6.332930">
						<ele>360</ele>
						<time>2025-03-24T19:08:48Z</time>
					</trkpt>
					<trkpt lat="48.065080" lon="6.332420">
						<ele>355</ele>
						<time>2025-03-24T19:09:01Z</time>
					</trkpt>
					<trkpt lat="48.064500" lon="6.331840">
						<ele>353</ele>
						<time>2025-03-24T19:09:13Z</time>
					</trkpt>
					<trkpt lat="48.063960" lon="6.331470">
						<ele>347</ele>
						<time>2025-03-24T19:09:24Z</time>
					</trkpt>
					<trkpt lat="48.063550" lon="6.331130">
						<ele>340</ele>
						<time>2025-03-24T19:09:32Z</time>
					</trkpt>
					<trkpt lat="48.063700" lon="6.329950">
						<ele>341</ele>
						<time>2025-03-24T19:09:47Z</time>
					</trkpt>
					<trkpt lat="48.063060" lon="6.329410">
						<ele>332</ele>
						<time>2025-03-24T19:10:00Z</time>
					</trkpt>
					<trkpt lat="48.062350" lon="6.327290">
						<ele>338</ele>
						<time>2025-03-24T19:10:28Z</time>
					</trkpt>
					<trkpt lat="48.062250" lon="6.327120">
						<ele>339</ele>
						<time>2025-03-24T19:10:30Z</time>
					</trkpt>
					<trkpt lat="48.061390" lon="6.326690">
						<ele>342</ele>
						<time>2025-03-24T19:10:47Z</time>
					</trkpt>
					<trkpt lat="48.061040" lon="6.326620">
						<ele>344</ele>
						<time>2025-03-24T19:10:53Z</time>
					</trkpt>
					<trkpt lat="48.059970" lon="6.326730">
						<ele>353</ele>
						<time>2025-03-24T19:11:12Z</time>
					</trkpt>
					<trkpt lat="48.059390" lon="6.326860">
						<ele>358</ele>
						<time>2025-03-24T19:11:22Z</time>
					</trkpt>
					<trkpt lat="48.059180" lon="6.326860">
						<ele>360</ele>
						<time>2025-03-24T19:11:26Z</time>
					</trkpt>
					<trkpt lat="48.057950" lon="6.326410">
						<ele>369</ele>
						<time>2025-03-24T19:11:49Z</time>
					</trkpt>
					<trkpt lat="48.056990" lon="6.326170">
						<ele>374</ele>
						<time>2025-03-24T19:12:06Z</time>
					</trkpt>
					<trkpt lat="48.056620" lon="6.326150">
						<ele>375</ele>
						<time>2025-03-24T19:12:13Z</time>
					</trkpt>
					<trkpt lat="48.054970" lon="6.326730">
						<ele>387</ele>
						<time>2025-03-24T19:12:43Z</time>
					</trkpt>
					<trkpt lat="48.052890" lon="6.327370">
						<ele>406</ele>
						<time>2025-03-24T19:13:21Z</time>
					</trkpt>
					<trkpt lat="48.052630" lon="6.327370">
						<ele>408</ele>
						<time>2025-03-24T19:13:25Z</time>
					</trkpt>
					<trkpt lat="48.051560" lon="6.327250">
						<ele>412</ele>
						<time>2025-03-24T19:13:44Z</time>
					</trkpt>
					<trkpt lat="48.051240" lon="6.327270">
						<ele>413</ele>
						<time>2025-03-24T19:13:50Z</time>
					</trkpt>
					<trkpt lat="48.048900" lon="6.328510">
						<ele>417</ele>
						<time>2025-03-24T19:14:34Z</time>
					</trkpt>
					<trkpt lat="48.048340" lon="6.328900">
						<ele>419</ele>
						<time>2025-03-24T19:14:45Z</time>
					</trkpt>
					<trkpt lat="48.047200" lon="6.329390">
						<ele>420</ele>
						<time>2025-03-24T19:15:06Z</time>
					</trkpt>
					<trkpt lat="48.046690" lon="6.329780">
						<ele>421</ele>
						<time>2025-03-24T19:15:16Z</time>
					</trkpt>
					<trkpt lat="48.045550" lon="6.330060">
						<ele>424</ele>
						<time>2025-03-24T19:15:37Z</time>
					</trkpt>
					<trkpt lat="48.045170" lon="6.330210">
						<ele>424</ele>
						<time>2025-03-24T19:15:44Z</time>
					</trkpt>
					<trkpt lat="48.044180" lon="6.330250">
						<ele>420</ele>
						<time>2025-03-24T19:16:02Z</time>
					</trkpt>
					<trkpt lat="48.043840" lon="6.330310">
						<ele>418</ele>
						<time>2025-03-24T19:16:08Z</time>
					</trkpt>
					<trkpt lat="48.043450" lon="6.330530">
						<ele>416</ele>
						<time>2025-03-24T19:16:15Z</time>
					</trkpt>
					<trkpt lat="48.043230" lon="6.330720">
						<ele>414</ele>
						<time>2025-03-24T19:16:20Z</time>
					</trkpt>
					<trkpt lat="48.042850" lon="6.331190">
						<ele>414</ele>
						<time>2025-03-24T19:16:28Z</time>
					</trkpt>
					<trkpt lat="48.042700" lon="6.331260">
						<ele>413</ele>
						<time>2025-03-24T19:16:31Z</time>
					</trkpt>
					<trkpt lat="48.041630" lon="6.330960">
						<ele>411</ele>
						<time>2025-03-24T19:16:51Z</time>
					</trkpt>
					<trkpt lat="48.040440" lon="6.330790">
						<ele>412</ele>
						<time>2025-03-24T19:17:12Z</time>
					</trkpt>
					<trkpt lat="48.040080" lon="6.330810">
						<ele>413</ele>
						<time>2025-03-24T19:17:18Z</time>
					</trkpt>
					<trkpt lat="48.039610" lon="6.331000">
						<ele>415</ele>
						<time>2025-03-24T19:17:27Z</time>
					</trkpt>
					<trkpt lat="48.039220" lon="6.331000">
						<ele>415</ele>
						<time>2025-03-24T19:17:34Z</time>
					</trkpt>
					<trkpt lat="48.038130" lon="6.331600">
						<ele>411</ele>
						<time>2025-03-24T19:17:54Z</time>
					</trkpt>
					<trkpt lat="48.037440" lon="6.331750">
						<ele>408</ele>
						<time>2025-03-24T19:18:07Z</time>
					</trkpt>
					<trkpt lat="48.037160" lon="6.331840">
						<ele>406</ele>
						<time>2025-03-24T19:18:12Z</time>
					</trkpt>
					<trkpt lat="48.036930" lon="6.332030">
						<ele>405</ele>
						<time>2025-03-24T19:18:17Z</time>
					</trkpt>
					<trkpt lat="48.036750" lon="6.332030">
						<ele>404</ele>
						<time>2025-03-24T19:18:20Z</time>
					</trkpt>
					<trkpt lat="48.036710" lon="6.331490">
						<ele>404</ele>
						<time>2025-03-24T19:18:26Z</time>
					</trkpt>
					<trkpt lat="48.036580" lon="6.331110">
						<ele>403</ele>
						<time>2025-03-24T19:18:31Z</time>
					</trkpt>
					<trkpt lat="48.036320" lon="6.330850">
						<ele>401</ele>
						<time>2025-03-24T19:18:37Z</time>
					</trkpt>
					<trkpt lat="48.036220" lon="6.330830">
						<ele>401</ele>
						<time>2025-03-24T19:18:39Z</time>
					</trkpt>
					<trkpt lat="48.035550" lon="6.331090">
						<ele>397</ele>
						<time>2025-03-24T19:18:51Z</time>
					</trkpt>
					<trkpt lat="48.035380" lon="6.331060">
						<ele>397</ele>
						<time>2025-03-24T19:18:54Z</time>
					</trkpt>
					<trkpt lat="48.035320" lon="6.331210">
						<ele>397</ele>
						<time>2025-03-24T19:18:56Z</time>
					</trkpt>
					<trkpt lat="48.034820" lon="6.331470">
						<ele>398</ele>
						<time>2025-03-24T19:19:06Z</time>
					</trkpt>
					<trkpt lat="48.034570" lon="6.331540">
						<ele>399</ele>
						<time>2025-03-24T19:19:10Z</time>
					</trkpt>
					<trkpt lat="48.034220" lon="6.331490">
						<ele>400</ele>
						<time>2025-03-24T19:19:16Z</time>
					</trkpt>
					<trkpt lat="48.033490" lon="6.331750">
						<ele>407</ele>
						<time>2025-03-24T19:19:30Z</time>
					</trkpt>
					<trkpt lat="48.032740" lon="6.332480">
						<ele>412</ele>
						<time>2025-03-24T19:19:46Z</time>
					</trkpt>
					<trkpt lat="48.030920" lon="6.333920">
						<ele>422</ele>
						<time>2025-03-24T19:20:22Z</time>
					</trkpt>
					<trkpt lat="48.030250" lon="6.334650">
						<ele>425</ele>
						<time>2025-03-24T19:20:37Z</time>
					</trkpt>
					<trkpt lat="48.029800" lon="6.333580">
						<ele>420</ele>
						<time>2025-03-24T19:20:52Z</time>
					</trkpt>
					<trkpt lat="48.029720" lon="6.333250">
						<ele>418</ele>
						<time>2025-03-24T19:20:56Z</time>
					</trkpt>
					<trkpt lat="48.029720" lon="6.332480">
						<ele>416</ele>
						<time>2025-03-24T19:21:05Z</time>
					</trkpt>
					<trkpt lat="48.029690" lon="6.332290">
						<ele>416</ele>
						<time>2025-03-24T19:21:08Z</time>
					</trkpt>
					<trkpt lat="48.029330" lon="6.331040">
						<ele>411</ele>
						<time>2025-03-24T19:21:24Z</time>
					</trkpt>
					<trkpt lat="48.028390" lon="6.331600">
						<ele>414</ele>
						<time>2025-03-24T19:21:42Z</time>
					</trkpt>
					<trkpt lat="48.028260" lon="6.331640">
						<ele>414</ele>
						<time>2025-03-24T19:21:44Z</time>
					</trkpt>
					<trkpt lat="48.027570" lon="6.331600">
						<ele>417</ele>
						<time>2025-03-24T19:21:57Z</time>
					</trkpt>
					<trkpt lat="48.026990" lon="6.331730">
						<ele>420</ele>
						<time>2025-03-24T19:22:07Z</time>
					</trkpt>
					<trkpt lat="48.026930" lon="6.331690">
						<ele>420</ele>
						<time>2025-03-24T19:22:08Z</time>
					</trkpt>
					<trkpt lat="48.026480" lon="6.331090">
						<ele>420</ele>
						<time>2025-03-24T19:22:19Z</time>
					</trkpt>
					<trkpt lat="48.026260" lon="6.330870">
						<ele>419</ele>
						<time>2025-03-24T19:22:24Z</time>
					</trkpt>
					<trkpt lat="48.025400" lon="6.330290">
						<ele>420</ele>
						<time>2025-03-24T19:22:40Z</time>
					</trkpt>
					<trkpt lat="48.025150" lon="6.330210">
						<ele>421</ele>
						<time>2025-03-24T19:22:45Z</time>
					</trkpt>
					<trkpt lat="48.025020" lon="6.330210">
						<ele>422</ele>
						<time>2025-03-24T19:22:47Z</time>
					</trkpt>
					<trkpt lat="48.024670" lon="6.330380">
						<ele>423</ele>
						<time>2025-03-24T19:22:54Z</time>
					</trkpt>
					<trkpt lat="48.024540" lon="6.330310">
						<ele>423</ele>
						<time>2025-03-24T19:22:56Z</time>
					</trkpt>
					<trkpt lat="48.023990" lon="6.329780">
						<ele>421</ele>
						<time>2025-03-24T19:23:08Z</time>
					</trkpt>
					<trkpt lat="48.023510" lon="6.329090">
						<ele>418</ele>
						<time>2025-03-24T19:23:20Z</time>
					</trkpt>
					<trkpt lat="48.023210" lon="6.328450">
						<ele>416</ele>
						<time>2025-03-24T19:23:29Z</time>
					</trkpt>
					<trkpt lat="48.023210" lon="6.327910">
						<ele>415</ele>
						<time>2025-03-24T19:23:36Z</time>
					</trkpt>
					<trkpt lat="48.023130" lon="6.327800">
						<ele>416</ele>
						<time>2025-03-24T19:23:37Z</time>
					</trkpt>
					<trkpt lat="48.022160" lon="6.327120">
						<ele>414</ele>
						<time>2025-03-24T19:23:57Z</time>
					</trkpt>
					<trkpt lat="48.021650" lon="6.326970">
						<ele>413</ele>
						<time>2025-03-24T19:24:06Z</time>
					</trkpt>
					<trkpt lat="48.021150" lon="6.326640">
						<ele>413</ele>
						<time>2025-03-24T19:24:15Z</time>
					</trkpt>
					<trkpt lat="48.020580" lon="6.326110">
						<ele>413</ele>
						<time>2025-03-24T19:24:27Z</time>
					</trkpt>
					<trkpt lat="48.020420" lon="6.325830">
						<ele>411</ele>
						<time>2025-03-24T19:24:32Z</time>
					</trkpt>
					<trkpt lat="48.020080" lon="6.325510">
						<ele>411</ele>
						<time>2025-03-24T19:24:39Z</time>
					</trkpt>
					<trkpt lat="48.019220" lon="6.324580">
						<ele>410</ele>
						<time>2025-03-24T19:24:58Z</time>
					</trkpt>
					<trkpt lat="48.018820" lon="6.323280">
						<ele>404</ele>
						<time>2025-03-24T19:25:15Z</time>
					</trkpt>
					<trkpt lat="48.018750" lon="6.322950">
						<ele>403</ele>
						<time>2025-03-24T19:25:19Z</time>
					</trkpt>
					<trkpt lat="48.018710" lon="6.322500">
						<ele>400</ele>
						<time>2025-03-24T19:25:24Z</time>
					</trkpt>
					<trkpt lat="48.018600" lon="6.322370">
						<ele>400</ele>
						<time>2025-03-24T19:25:27Z</time>
					</trkpt>
					<trkpt lat="48.017700" lon="6.321790">
						<ele>400</ele>
						<time>2025-03-24T19:25:44Z</time>
					</trkpt>
					<trkpt lat="48.017210" lon="6.321090">
						<ele>398</ele>
						<time>2025-03-24T19:25:56Z</time>
					</trkpt>
					<trkpt lat="48.016560" lon="6.320550">
						<ele>398</ele>
						<time>2025-03-24T19:26:10Z</time>
					</trkpt>
					<trkpt lat="48.016480" lon="6.320440">
						<ele>397</ele>
						<time>2025-03-24T19:26:12Z</time>
					</trkpt>
					<trkpt lat="48.016370" lon="6.320100">
						<ele>396</ele>
						<time>2025-03-24T19:26:16Z</time>
					</trkpt>
					<trkpt lat="48.016260" lon="6.319860">
						<ele>395</ele>
						<time>2025-03-24T19:26:20Z</time>
					</trkpt>
					<trkpt lat="48.015880" lon="6.319580">
						<ele>394</ele>
						<time>2025-03-24T19:26:27Z</time>
					</trkpt>
					<trkpt lat="48.015490" lon="6.319090">
						<ele>391</ele>
						<time>2025-03-24T19:26:36Z</time>
					</trkpt>
					<trkpt lat="48.015380" lon="6.318900">
						<ele>391</ele>
						<time>2025-03-24T19:26:39Z</time>
					</trkpt>
					<trkpt lat="48.015430" lon="6.318210">
						<ele>388</ele>
						<time>2025-03-24T19:26:47Z</time>
					</trkpt>
					<trkpt lat="48.015340" lon="6.317200">
						<ele>386</ele>
						<time>2025-03-24T19:27:00Z</time>
					</trkpt>
					<trkpt lat="48.015490" lon="6.316580">
						<ele>382</ele>
						<time>2025-03-24T19:27:07Z</time>
					</trkpt>
					<trkpt lat="48.015810" lon="6.315770">
						<ele>376</ele>
						<time>2025-03-24T19:27:19Z</time>
					</trkpt>
					<trkpt lat="48.016070" lon="6.314440">
						<ele>371</ele>
						<time>2025-03-24T19:27:35Z</time>
					</trkpt>
					<trkpt lat="48.016300" lon="6.314590">
						<ele>370</ele>
						<time>2025-03-24T19:27:40Z</time>
					</trkpt>
					<trkpt lat="48.016480" lon="6.314610">
						<ele>369</ele>
						<time>2025-03-24T19:27:43Z</time>
					</trkpt>
					<trkpt lat="48.016650" lon="6.314590">
						<ele>369</ele>
						<time>2025-03-24T19:27:46Z</time>
					</trkpt>
					<trkpt lat="48.016970" lon="6.314350">
						<ele>369</ele>
						<time>2025-03-24T19:27:52Z</time>
					</trkpt>
					<trkpt lat="48.016990" lon="6.314200">
						<ele>369</ele>
						<time>2025-03-24T19:27:54Z</time>
					</trkpt>
					<trkpt lat="48.017180" lon="6.313730">
						<ele>368</ele>
						<time>2025-03-24T19:28:00Z</time>
					</trkpt>
					<trkpt lat="48.017420" lon="6.313300">
						<ele>368</ele>
						<time>2025-03-24T19:28:07Z</time>
					</trkpt>
					<trkpt lat="48.017740" lon="6.312890">
						<ele>368</ele>
						<time>2025-03-24T19:28:15Z</time>
					</trkpt>
					<trkpt lat="48.017980" lon="6.312800">
						<ele>368</ele>
						<time>2025-03-24T19:28:19Z</time>
					</trkpt>
					<trkpt lat="48.018620" lon="6.312910">
						<ele>368</ele>
						<time>2025-03-24T19:28:31Z</time>
					</trkpt>
					<trkpt lat="48.018880" lon="6.312870">
						<ele>367</ele>
						<time>2025-03-24T19:28:35Z</time>
					</trkpt>
					<trkpt lat="48.019200" lon="6.312650">
						<ele>366</ele>
						<time>2025-03-24T19:28:41Z</time>
					</trkpt>
					<trkpt lat="48.019290" lon="6.312350">
						<ele>366</ele>
						<time>2025-03-24T19:28:45Z</time>
					</trkpt>
					<trkpt lat="48.019290" lon="6.312100">
						<ele>365</ele>
						<time>2025-03-24T19:28:48Z</time>
					</trkpt>
					<trkpt lat="48.019200" lon="6.311840">
						<ele>364</ele>
						<time>2025-03-24T19:28:52Z</time>
					</trkpt>
					<trkpt lat="48.018940" lon="6.311430">
						<ele>366</ele>
						<time>2025-03-24T19:28:59Z</time>
					</trkpt>
					<trkpt lat="48.018790" lon="6.310830">
						<ele>367</ele>
						<time>2025-03-24T19:29:06Z</time>
					</trkpt>
					<trkpt lat="48.018790" lon="6.309800">
						<ele>369</ele>
						<time>2025-03-24T19:29:18Z</time>
					</trkpt>
					<trkpt lat="48.018670" lon="6.309310">
						<ele>369</ele>
						<time>2025-03-24T19:29:25Z</time>
					</trkpt>
					<trkpt lat="48.018410" lon="6.308810">
						<ele>367</ele>
						<time>2025-03-24T19:29:32Z</time>
					</trkpt>
					<trkpt lat="48.018000" lon="6.307740">
						<ele>369</ele>
						<time>2025-03-24T19:29:47Z</time>
					</trkpt>
					<trkpt lat="48.017640" lon="6.307120">
						<ele>370</ele>
						<time>2025-03-24T19:29:57Z</time>
					</trkpt>
					<trkpt lat="48.017610" lon="6.307010">
						<ele>370</ele>
						<time>2025-03-24T19:29:58Z</time>
					</trkpt>
					<trkpt lat="48.017660" lon="6.306920">
						<ele>370</ele>
						<time>2025-03-24T19:29:59Z</time>
					</trkpt>
					<trkpt lat="48.018060" lon="6.306600">
						<ele>370</ele>
						<time>2025-03-24T19:30:07Z</time>
					</trkpt>
					<trkpt lat="48.020080" lon="6.305420">
						<ele>374</ele>
						<time>2025-03-24T19:30:46Z</time>
					</trkpt>
					<trkpt lat="48.021330" lon="6.304590">
						<ele>379</ele>
						<time>2025-03-24T19:31:10Z</time>
					</trkpt>
					<trkpt lat="48.021540" lon="6.304370">
						<ele>380</ele>
						<time>2025-03-24T19:31:15Z</time>
					</trkpt>
					<trkpt lat="48.023730" lon="6.302530">
						<ele>384</ele>
						<time>2025-03-24T19:32:00Z</time>
					</trkpt>
					<trkpt lat="48.024250" lon="6.301920">
						<ele>383</ele>
						<time>2025-03-24T19:32:11Z</time>
					</trkpt>
					<trkpt lat="48.024760" lon="6.301370">
						<ele>383</ele>
						<time>2025-03-24T19:32:23Z</time>
					</trkpt>
					<trkpt lat="48.025210" lon="6.301000">
						<ele>383</ele>
						<time>2025-03-24T19:32:32Z</time>
					</trkpt>
					<trkpt lat="48.025620" lon="6.300590">
						<ele>383</ele>
						<time>2025-03-24T19:32:41Z</time>
					</trkpt>
					<trkpt lat="48.025790" lon="6.300530">
						<ele>383</ele>
						<time>2025-03-24T19:32:44Z</time>
					</trkpt>
					<trkpt lat="48.025920" lon="6.300570">
						<ele>384</ele>
						<time>2025-03-24T19:32:46Z</time>
					</trkpt>
					<trkpt lat="48.026110" lon="6.300850">
						<ele>386</ele>
						<time>2025-03-24T19:32:51Z</time>
					</trkpt>
					<trkpt lat="48.026200" lon="6.300870">
						<ele>386</ele>
						<time>2025-03-24T19:32:52Z</time>
					</trkpt>
					<trkpt lat="48.026350" lon="6.300770">
						<ele>386</ele>
						<time>2025-03-24T19:32:55Z</time>
					</trkpt>
					<trkpt lat="48.026560" lon="6.300470">
						<ele>385</ele>
						<time>2025-03-24T19:33:00Z</time>
					</trkpt>
					<trkpt lat="48.027460" lon="6.298770">
						<ele>385</ele>
						<time>2025-03-24T19:33:26Z</time>
					</trkpt>
					<trkpt lat="48.027700" lon="6.298170">
						<ele>385</ele>
						<time>2025-03-24T19:33:35Z</time>
					</trkpt>
					<trkpt lat="48.027940" lon="6.297460">
						<ele>385</ele>
						<time>2025-03-24T19:33:44Z</time>
					</trkpt>
					<trkpt lat="48.028240" lon="6.296930">
						<ele>383</ele>
						<time>2025-03-24T19:33:52Z</time>
					</trkpt>
					<trkpt lat="48.028400" lon="6.296710">
						<ele>382</ele>
						<time>2025-03-24T19:33:56Z</time>
					</trkpt>
					<trkpt lat="48.028560" lon="6.296500">
						<ele>382</ele>
						<time>2025-03-24T19:34:00Z</time>
					</trkpt>
					<trkpt lat="48.028990" lon="6.296220">
						<ele>380</ele>
						<time>2025-03-24T19:34:08Z</time>
					</trkpt>
					<trkpt lat="48.029370" lon="6.295830">
						<ele>377</ele>
						<time>2025-03-24T19:34:16Z</time>
					</trkpt>
					<trkpt lat="48.029990" lon="6.295570">
						<ele>371</ele>
						<time>2025-03-24T19:34:28Z</time>
					</trkpt>
					<trkpt lat="48.030190" lon="6.295660">
						<ele>372</ele>
						<time>2025-03-24T19:34:32Z</time>
					</trkpt>
					<trkpt lat="48.030340" lon="6.295570">
						<ele>372</ele>
						<time>2025-03-24T19:34:35Z</time>
					</trkpt>
					<trkpt lat="48.030470" lon="6.295270">
						<ele>371</ele>
						<time>2025-03-24T19:34:39Z</time>
					</trkpt>
					<trkpt lat="48.030870" lon="6.295270">
						<ele>373</ele>
						<time>2025-03-24T19:34:46Z</time>
					</trkpt>
					<trkpt lat="48.031480" lon="6.295420">
						<ele>377</ele>
						<time>2025-03-24T19:34:57Z</time>
					</trkpt>
					<trkpt lat="48.032140" lon="6.295640">
						<ele>382</ele>
						<time>2025-03-24T19:35:09Z</time>
					</trkpt>
					<trkpt lat="48.033410" lon="6.296280">
						<ele>391</ele>
						<time>2025-03-24T19:35:33Z</time>
					</trkpt>
					<trkpt lat="48.034840" lon="6.297080">
						<ele>396</ele>
						<time>2025-03-24T19:36:00Z</time>
					</trkpt>
					<trkpt lat="48.035570" lon="6.297700">
						<ele>400</ele>
						<time>2025-03-24T19:36:15Z</time>
					</trkpt>
					<trkpt lat="48.037030" lon="6.299260">
						<ele>402</ele>
						<time>2025-03-24T19:36:47Z</time>
					</trkpt>
					<trkpt lat="48.037530" lon="6.298040">
						<ele>400</ele>
						<time>2025-03-24T19:37:04Z</time>
					</trkpt>
					<trkpt lat="48.038280" lon="6.296320">
						<ele>398</ele>
						<time>2025-03-24T19:37:28Z</time>
					</trkpt>
					<trkpt lat="48.038560" lon="6.295470">
						<ele>397</ele>
						<time>2025-03-24T19:37:40Z</time>
					</trkpt>
					<trkpt lat="48.038660" lon="6.294930">
						<ele>396</ele>
						<time>2025-03-24T19:37:46Z</time>
					</trkpt>
					<trkpt lat="48.038690" lon="6.294610">
						<ele>396</ele>
						<time>2025-03-24T19:37:50Z</time>
					</trkpt>
					<trkpt lat="48.039260" lon="6.291750">
						<ele>398</ele>
						<time>2025-03-24T19:38:26Z</time>
					</trkpt>
					<trkpt lat="48.039480" lon="6.290980">
						<ele>400</ele>
						<time>2025-03-24T19:38:36Z</time>
					</trkpt>
					<trkpt lat="48.039990" lon="6.289590">
						<ele>404</ele>
						<time>2025-03-24T19:38:54Z</time>
					</trkpt>
					<trkpt lat="48.040140" lon="6.288940">
						<ele>405</ele>
						<time>2025-03-24T19:39:03Z</time>
					</trkpt>
					<trkpt lat="48.040210" lon="6.288410">
						<ele>405</ele>
						<time>2025-03-24T19:39:09Z</time>
					</trkpt>
					<trkpt lat="48.040190" lon="6.287570">
						<ele>405</ele>
						<time>2025-03-24T19:39:19Z</time>
					</trkpt>
					<trkpt lat="48.039930" lon="6.284820">
						<ele>403</ele>
						<time>2025-03-24T19:39:52Z</time>
					</trkpt>
					<trkpt lat="48.039840" lon="6.284330">
						<ele>403</ele>
						<time>2025-03-24T19:39:58Z</time>
					</trkpt>
					<trkpt lat="48.039480" lon="6.283580">
						<ele>402</ele>
						<time>2025-03-24T19:40:09Z</time>
					</trkpt>
					<trkpt lat="48.039410" lon="6.283360">
						<ele>402</ele>
						<time>2025-03-24T19:40:12Z</time>
					</trkpt>
					<trkpt lat="48.039440" lon="6.283210">
						<ele>402</ele>
						<time>2025-03-24T19:40:14Z</time>
					</trkpt>
					<trkpt lat="48.039500" lon="6.283090">
						<ele>402</ele>
						<time>2025-03-24T19:40:16Z</time>
					</trkpt>
					<trkpt lat="48.040080" lon="6.282510">
						<ele>402</ele>
						<time>2025-03-24T19:40:28Z</time>
					</trkpt>
					<trkpt lat="48.040640" lon="6.282100">
						<ele>400</ele>
						<time>2025-03-24T19:40:39Z</time>
					</trkpt>
					<trkpt lat="48.041240" lon="6.281260">
						<ele>392</ele>
						<time>2025-03-24T19:40:54Z</time>
					</trkpt>
					<trkpt lat="48.041520" lon="6.280810">
						<ele>388</ele>
						<time>2025-03-24T19:41:01Z</time>
					</trkpt>
					<trkpt lat="48.042570" lon="6.278110">
						<ele>374</ele>
						<time>2025-03-24T19:41:38Z</time>
					</trkpt>
					<trkpt lat="48.042910" lon="6.277060">
						<ele>374</ele>
						<time>2025-03-24T19:41:52Z</time>
					</trkpt>
					<trkpt lat="48.043110" lon="6.276760">
						<ele>373</ele>
						<time>2025-03-24T19:41:57Z</time>
					</trkpt>
					<trkpt lat="48.043410" lon="6.276500">
						<ele>371</ele>
						<time>2025-03-24T19:42:03Z</time>
					</trkpt>
					<trkpt lat="48.043730" lon="6.276090">
						<ele>369</ele>
						<time>2025-03-24T19:42:11Z</time>
					</trkpt>
					<trkpt lat="48.043940" lon="6.275900">
						<ele>368</ele>
						<time>2025-03-24T19:42:15Z</time>
					</trkpt>
					<trkpt lat="48.044540" lon="6.275770">
						<ele>367</ele>
						<time>2025-03-24T19:42:26Z</time>
					</trkpt>
					<trkpt lat="48.044870" lon="6.275960">
						<ele>366</ele>
						<time>2025-03-24T19:42:32Z</time>
					</trkpt>
					<trkpt lat="48.045530" lon="6.275830">
						<ele>367</ele>
						<time>2025-03-24T19:42:44Z</time>
					</trkpt>
					<trkpt lat="48.045640" lon="6.275730">
						<ele>367</ele>
						<time>2025-03-24T19:42:46Z</time>
					</trkpt>
					<trkpt lat="48.046020" lon="6.275170">
						<ele>364</ele>
						<time>2025-03-24T19:42:56Z</time>
					</trkpt>
					<trkpt lat="48.046150" lon="6.275080">
						<ele>363</ele>
						<time>2025-03-24T19:42:58Z</time>
					</trkpt>
					<trkpt lat="48.046580" lon="6.274930">
						<ele>362</ele>
						<time>2025-03-24T19:43:06Z</time>
					</trkpt>
					<trkpt lat="48.046950" lon="6.274930">
						<ele>357</ele>
						<time>2025-03-24T19:43:13Z</time>
					</trkpt>
					<trkpt lat="48.047160" lon="6.275060">
						<ele>356</ele>
						<time>2025-03-24T19:43:17Z</time>
					</trkpt>
					<trkpt lat="48.047200" lon="6.274890">
						<ele>352</ele>
						<time>2025-03-24T19:43:19Z</time>
					</trkpt>
					<trkpt lat="48.047180" lon="6.274780">
						<ele>351</ele>
						<time>2025-03-24T19:43:20Z</time>
					</trkpt>
					<trkpt lat="48.046950" lon="6.274290">
						<ele>344</ele>
						<time>2025-03-24T19:43:28Z</time>
					</trkpt>
					<trkpt lat="48.046770" lon="6.274090">
						<ele>343</ele>
						<time>2025-03-24T19:43:32Z</time>
					</trkpt>
					<trkpt lat="48.046580" lon="6.273990">
						<ele>343</ele>
						<time>2025-03-24T19:43:35Z</time>
					</trkpt>
					<trkpt lat="48.046410" lon="6.274010">
						<ele>343</ele>
						<time>2025-03-24T19:43:38Z</time>
					</trkpt>
					<trkpt lat="48.045870" lon="6.274290">
						<ele>349</ele>
						<time>2025-03-24T19:43:48Z</time>
					</trkpt>
					<trkpt lat="48.045830" lon="6.274290">
						<ele>349</ele>
						<time>2025-03-24T19:43:49Z</time>
					</trkpt>
					<trkpt lat="48.045790" lon="6.274200">
						<ele>348</ele>
						<time>2025-03-24T19:43:50Z</time>
					</trkpt>
					<trkpt lat="48.046320" lon="6.273620">
						<ele>338</ele>
						<time>2025-03-24T19:44:02Z</time>
					</trkpt>
					<trkpt lat="48.046580" lon="6.273300">
						<ele>332</ele>
						<time>2025-03-24T19:44:08Z</time>
					</trkpt>
					<trkpt lat="48.046690" lon="6.273240">
						<ele>330</ele>
						<time>2025-03-24T19:44:10Z</time>
					</trkpt>
					<trkpt lat="48.046880" lon="6.273260">
						<ele>328</ele>
						<time>2025-03-24T19:44:13Z</time>
					</trkpt>
					<trkpt lat="48.047200" lon="6.273410">
						<ele>327</ele>
						<time>2025-03-24T19:44:19Z</time>
					</trkpt>
					<trkpt lat="48.047480" lon="6.273620">
						<ele>328</ele>
						<time>2025-03-24T19:44:25Z</time>
					</trkpt>
					<trkpt lat="48.047680" lon="6.273900">
						<ele>326</ele>
						<time>2025-03-24T19:44:30Z</time>
					</trkpt>
					<trkpt lat="48.048230" lon="6.275360">
						<ele>324</ele>
						<time>2025-03-24T19:44:50Z</time>
					</trkpt>
					<trkpt lat="48.048660" lon="6.275960">
						<ele>317</ele>
						<time>2025-03-24T19:45:00Z</time>
					</trkpt>
					<trkpt lat="48.048710" lon="6.276090">
						<ele>316</ele>
						<time>2025-03-24T19:45:02Z</time>
					</trkpt>
					<trkpt lat="48.048730" lon="6.276330">
						<ele>317</ele>
						<time>2025-03-24T19:45:05Z</time>
					</trkpt>
					<trkpt lat="48.048600" lon="6.277030">
						<ele>321</ele>
						<time>2025-03-24T19:45:14Z</time>
					</trkpt>
					<trkpt lat="48.048620" lon="6.277140">
						<ele>321</ele>
						<time>2025-03-24T19:45:15Z</time>
					</trkpt>
					<trkpt lat="48.048660" lon="6.277160">
						<ele>320</ele>
						<time>2025-03-24T19:45:16Z</time>
					</trkpt>
					<trkpt lat="48.048770" lon="6.277080">
						<ele>318</ele>
						<time>2025-03-24T19:45:18Z</time>
					</trkpt>
					<trkpt lat="48.049010" lon="6.276520">
						<ele>311</ele>
						<time>2025-03-24T19:45:26Z</time>
					</trkpt>
					<trkpt lat="48.049070" lon="6.276500">
						<ele>309</ele>
						<time>2025-03-24T19:45:27Z</time>
					</trkpt>
					<trkpt lat="48.049260" lon="6.276540">
						<ele>308</ele>
						<time>2025-03-24T19:45:30Z</time>
					</trkpt>
					<trkpt lat="48.049410" lon="6.276500">
						<ele>308</ele>
						<time>2025-03-24T19:45:33Z</time>
					</trkpt>
					<trkpt lat="48.050100" lon="6.276030">
						<ele>306</ele>
						<time>2025-03-24T19:45:46Z</time>
					</trkpt>
					<trkpt lat="48.050320" lon="6.275790">
						<ele>304</ele>
						<time>2025-03-24T19:45:51Z</time>
					</trkpt>
					<trkpt lat="48.050420" lon="6.275300">
						<ele>303</ele>
						<time>2025-03-24T19:45:57Z</time>
					</trkpt>
					<trkpt lat="48.050590" lon="6.274120">
						<ele>298</ele>
						<time>2025-03-24T19:46:12Z</time>
					</trkpt>
					<trkpt lat="48.050870" lon="6.274010">
						<ele>300</ele>
						<time>2025-03-24T19:46:17Z</time>
					</trkpt>
					<trkpt lat="48.051220" lon="6.273920">
						<ele>301</ele>
						<time>2025-03-24T19:46:23Z</time>
					</trkpt>
					<trkpt lat="48.051690" lon="6.273900">
						<ele>304</ele>
						<time>2025-03-24T19:46:32Z</time>
					</trkpt>
					<trkpt lat="48.052270" lon="6.273970">
						<ele>301</ele>
						<time>2025-03-24T19:46:42Z</time>
					</trkpt>
					<trkpt lat="48.053960" lon="6.274390">
						<ele>303</ele>
						<time>2025-03-24T19:47:12Z</time>
					</trkpt>
					<trkpt lat="48.054610" lon="6.274590">
						<ele>304</ele>
						<time>2025-03-24T19:47:24Z</time>
					</trkpt>
					<trkpt lat="48.055530" lon="6.274950">
						<ele>302</ele>
						<time>2025-03-24T19:47:41Z</time>
					</trkpt>
					<trkpt lat="48.056580" lon="6.275150">
						<ele>305</ele>
						<time>2025-03-24T19:48:00Z</time>
					</trkpt>
					<trkpt lat="48.056970" lon="6.275450">
						<ele>306</ele>
						<time>2025-03-24T19:48:08Z</time>
					</trkpt>
					<trkpt lat="48.057830" lon="6.276430">
						<ele>306</ele>
						<time>2025-03-24T19:48:27Z</time>
					</trkpt>
					<trkpt lat="48.058020" lon="6.276610">
						<ele>305</ele>
						<time>2025-03-24T19:48:31Z</time>
					</trkpt>
					<trkpt lat="48.058190" lon="6.276710">
						<ele>303</ele>
						<time>2025-03-24T19:48:34Z</time>
					</trkpt>
					<trkpt lat="48.058360" lon="6.276760">
						<ele>302</ele>
						<time>2025-03-24T19:48:37Z</time>
					</trkpt>
					<trkpt lat="48.059970" lon="6.276820">
						<ele>299</ele>
						<time>2025-03-24T19:49:06Z</time>
					</trkpt>
					<trkpt lat="48.060400" lon="6.276910">
						<ele>299</ele>
						<time>2025-03-24T19:49:14Z</time>
					</trkpt>
					<trkpt lat="48.060890" lon="6.277400">
						<ele>300</ele>
						<time>2025-03-24T19:49:24Z</time>
					</trkpt>
					<trkpt lat="48.061450" lon="6.277740">
						<ele>300</ele>
						<time>2025-03-24T19:49:35Z</time>
					</trkpt>
					<trkpt lat="48.065040" lon="6.279310">
						<ele>304</ele>
						<time>2025-03-24T19:50:42Z</time>
					</trkpt>
					<trkpt lat="48.065510" lon="6.279630">
						<ele>311</ele>
						<time>2025-03-24T19:50:51Z</time>
					</trkpt>
					<trkpt lat="48.065790" lon="6.279870">
						<ele>314</ele>
						<time>2025-03-24T19:50:56Z</time>
					</trkpt>
					<trkpt lat="48.065980" lon="6.280100">
						<ele>315</ele>
						<time>2025-03-24T19:51:01Z</time>
					</trkpt>
					<trkpt lat="48.066220" lon="6.280510">
						<ele>316</ele>
						<time>2025-03-24T19:51:07Z</time>
					</trkpt>
					<trkpt lat="48.066670" lon="6.281540">
						<ele>313</ele>
						<time>2025-03-24T19:51:22Z</time>
					</trkpt>
					<trkpt lat="48.067050" lon="6.282290">
						<ele>312</ele>
						<time>2025-03-24T19:51:33Z</time>
					</trkpt>
					<trkpt lat="48.067480" lon="6.283360">
						<ele>308</ele>
						<time>2025-03-24T19:51:48Z</time>
					</trkpt>
					<trkpt lat="48.068080" lon="6.284290">
						<ele>312</ele>
						<time>2025-03-24T19:52:03Z</time>
					</trkpt>
					<trkpt lat="48.068450" lon="6.284760">
						<ele>314</ele>
						<time>2025-03-24T19:52:12Z</time>
					</trkpt>
					<trkpt lat="48.068850" lon="6.285450">
						<ele>313</ele>
						<time>2025-03-24T19:52:23Z</time>
					</trkpt>
					<trkpt lat="48.069180" lon="6.286750">
						<ele>313</ele>
						<time>2025-03-24T19:52:39Z</time>
					</trkpt>
					<trkpt lat="48.069310" lon="6.287120">
						<ele>315</ele>
						<time>2025-03-24T19:52:44Z</time>
					</trkpt>
					<trkpt lat="48.069430" lon="6.287290">
						<ele>315</ele>
						<time>2025-03-24T19:52:47Z</time>
					</trkpt>
					<trkpt lat="48.070680" lon="6.288620">
						<ele>313</ele>
						<time>2025-03-24T19:53:15Z</time>
					</trkpt>
					<trkpt lat="48.070960" lon="6.289010">
						<ele>314</ele>
						<time>2025-03-24T19:53:21Z</time>
					</trkpt>
					<trkpt lat="48.071320" lon="6.289630">
						<ele>317</ele>
						<time>2025-03-24T19:53:31Z</time>
					</trkpt>
					<trkpt lat="48.072180" lon="6.291600">
						<ele>318</ele>
						<time>2025-03-24T19:53:59Z</time>
					</trkpt>
					<trkpt lat="48.072520" lon="6.292680">
						<ele>310</ele>
						<time>2025-03-24T19:54:13Z</time>
					</trkpt>
					<trkpt lat="48.072800" lon="6.293920">
						<ele>311</ele>
						<time>2025-03-24T19:54:29Z</time>
					</trkpt>
					<trkpt lat="48.073000" lon="6.296970">
						<ele>313</ele>
						<time>2025-03-24T19:55:05Z</time>
					</trkpt>
					<trkpt lat="48.073060" lon="6.297480">
						<ele>311</ele>
						<time>2025-03-24T19:55:11Z</time>
					</trkpt>
					<trkpt lat="48.074000" lon="6.299560">
						<ele>311</ele>
						<time>2025-03-24T19:55:41Z</time>
					</trkpt>
					<trkpt lat="48.075210" lon="6.297890">
						<ele>312</ele>
						<time>2025-03-24T19:56:11Z</time>
					</trkpt>
					<trkpt lat="48.075400" lon="6.297660">
						<ele>312</ele>
						<time>2025-03-24T19:56:15Z</time>
					</trkpt>
					<trkpt lat="48.075740" lon="6.297330">
						<ele>311</ele>
						<time>2025-03-24T19:56:22Z</time>
					</trkpt>
					<trkpt lat="48.076110" lon="6.297120">
						<ele>310</ele>
						<time>2025-03-24T19:56:29Z</time>
					</trkpt>
					<trkpt lat="48.076320" lon="6.297100">
						<ele>311</ele>
						<time>2025-03-24T19:56:33Z</time>
					</trkpt>
					<trkpt lat="48.076710" lon="6.297140">
						<ele>313</ele>
						<time>2025-03-24T19:56:40Z</time>
					</trkpt>
					<trkpt lat="48.077390" lon="6.297380">
						<ele>314</ele>
						<time>2025-03-24T19:56:52Z</time>
					</trkpt>
					<trkpt lat="48.077950" lon="6.297780">
						<ele>316</ele>
						<time>2025-03-24T19:57:03Z</time>
					</trkpt>
					<trkpt lat="48.078550" lon="6.298340">
						<ele>317</ele>
						<time>2025-03-24T19:57:16Z</time>
					</trkpt>
					<trkpt lat="48.080230" lon="6.299760">
						<ele>317</ele>
						<time>2025-03-24T19:57:50Z</time>
					</trkpt>
					<trkpt lat="48.081170" lon="6.301000">
						<ele>320</ele>
						<time>2025-03-24T19:58:13Z</time>
					</trkpt>
					<trkpt lat="48.081360" lon="6.301300">
						<ele>319</ele>
						<time>2025-03-24T19:58:17Z</time>
					</trkpt>
					<trkpt lat="48.081580" lon="6.301820">
						<ele>317</ele>
						<time>2025-03-24T19:58:25Z</time>
					</trkpt>
					<trkpt lat="48.081690" lon="6.302440">
						<ele>315</ele>
						<time>2025-03-24T19:58:32Z</time>
					</trkpt>
					<trkpt lat="48.081670" lon="6.302850">
						<ele>314</ele>
						<time>2025-03-24T19:58:37Z</time>
					</trkpt>
					<trkpt lat="48.081580" lon="6.303530">
						<ele>317</ele>
						<time>2025-03-24T19:58:46Z</time>
					</trkpt>
					<trkpt lat="48.081600" lon="6.303750">
						<ele>317</ele>
						<time>2025-03-24T19:58:48Z</time>
					</trkpt>
					<trkpt lat="48.081770" lon="6.304050">
						<ele>314</ele>
						<time>2025-03-24T19:58:53Z</time>
					</trkpt>
					<trkpt lat="48.082540" lon="6.304480">
						<ele>304</ele>
						<time>2025-03-24T19:59:07Z</time>
					</trkpt>
					<trkpt lat="48.084000" lon="6.305380">
						<ele>306</ele>
						<time>2025-03-24T19:59:36Z</time>
					</trkpt>
					<trkpt lat="48.084370" lon="6.304590">
						<ele>306</ele>
						<time>2025-03-24T19:59:47Z</time>
					</trkpt>
					<trkpt lat="48.084430" lon="6.304410">
						<ele>306</ele>
						<time>2025-03-24T19:59:49Z</time>
					</trkpt>
					<trkpt lat="48.084750" lon="6.303830">
						<ele>306</ele>
						<time>2025-03-24T19:59:58Z</time>
					</trkpt>
					<trkpt lat="48.084780" lon="6.303660">
						<ele>306</ele>
						<time>2025-03-24T20:00:00Z</time>
					</trkpt>
					<trkpt lat="48.084860" lon="6.303640">
						<ele>307</ele>
						<time>2025-03-24T20:00:02Z</time>
					</trkpt>
					<trkpt lat="48.085140" lon="6.303790">
						<ele>308</ele>
						<time>2025-03-24T20:00:07Z</time>
					</trkpt>
					<trkpt lat="48.085850" lon="6.304520">
						<ele>311</ele>
						<time>2025-03-24T20:00:23Z</time>
					</trkpt>
					<trkpt lat="48.086360" lon="6.304910">
						<ele>314</ele>
						<time>2025-03-24T20:00:33Z</time>
					</trkpt>
					<trkpt lat="48.086860" lon="6.305190">
						<ele>317</ele>
						<time>2025-03-24T20:00:42Z</time>
					</trkpt>
					<trkpt lat="48.087290" lon="6.305570">
						<ele>315</ele>
						<time>2025-03-24T20:00:51Z</time>
					</trkpt>
					<trkpt lat="48.087420" lon="6.305640">
						<ele>315</ele>
						<time>2025-03-24T20:00:54Z</time>
					</trkpt>
					<trkpt lat="48.087800" lon="6.305620">
						<ele>316</ele>
						<time>2025-03-24T20:01:00Z</time>
					</trkpt>
					<trkpt lat="48.088620" lon="6.305360">
						<ele>318</ele>
						<time>2025-03-24T20:01:15Z</time>
					</trkpt>
					<trkpt lat="48.088850" lon="6.305170">
						<ele>318</ele>
						<time>2025-03-24T20:01:20Z</time>
					</trkpt>
					<trkpt lat="48.090030" lon="6.303960">
						<ele>315</ele>
						<time>2025-03-24T20:01:45Z</time>
					</trkpt>
					<trkpt lat="48.090480" lon="6.303620">
						<ele>316</ele>
						<time>2025-03-24T20:01:54Z</time>
					</trkpt>
					<trkpt lat="48.090850" lon="6.303430">
						<ele>315</ele>
						<time>2025-03-24T20:02:01Z</time>
					</trkpt>
					<trkpt lat="48.091710" lon="6.303280">
						<ele>316</ele>
						<time>2025-03-24T20:02:17Z</time>
					</trkpt>
					<trkpt lat="48.092650" lon="6.303190">
						<ele>314</ele>
						<time>2025-03-24T20:02:33Z</time>
					</trkpt>
					<trkpt lat="48.092890" lon="6.303060">
						<ele>315</ele>
						<time>2025-03-24T20:02:38Z</time>
					</trkpt>
					<trkpt lat="48.093720" lon="6.302030">
						<ele>317</ele>
						<time>2025-03-24T20:02:57Z</time>
					</trkpt>
					<trkpt lat="48.094650" lon="6.301280">
						<ele>317</ele>
						<time>2025-03-24T20:03:16Z</time>
					</trkpt>
					<trkpt lat="48.095180" lon="6.300980">
						<ele>317</ele>
						<time>2025-03-24T20:03:26Z</time>
					</trkpt>
					<trkpt lat="48.095850" lon="6.300490">
						<ele>317</ele>
						<time>2025-03-24T20:03:39Z</time>
					</trkpt>
					<trkpt lat="48.096340" lon="6.299760">
						<ele>323</ele>
						<time>2025-03-24T20:03:52Z</time>
					</trkpt>
					<trkpt lat="48.096640" lon="6.299370">
						<ele>326</ele>
						<time>2025-03-24T20:03:59Z</time>
					</trkpt>
					<trkpt lat="48.096920" lon="6.299220">
						<ele>326</ele>
						<time>2025-03-24T20:04:04Z</time>
					</trkpt>
					<trkpt lat="48.097180" lon="6.298920">
						<ele>326</ele>
						<time>2025-03-24T20:04:10Z</time>
					</trkpt>
					<trkpt lat="48.098080" lon="6.297140">
						<ele>327</ele>
						<time>2025-03-24T20:04:36Z</time>
					</trkpt>
					<trkpt lat="48.098470" lon="6.296580">
						<ele>326</ele>
						<time>2025-03-24T20:04:46Z</time>
					</trkpt>
					<trkpt lat="48.098700" lon="6.296390">
						<ele>326</ele>
						<time>2025-03-24T20:04:51Z</time>
					</trkpt>
					<trkpt lat="48.099450" lon="6.296070">
						<ele>323</ele>
						<time>2025-03-24T20:05:05Z</time>
					</trkpt>
					<trkpt lat="48.100510" lon="6.294070">
						<ele>320</ele>
						<time>2025-03-24T20:05:35Z</time>
					</trkpt>
					<trkpt lat="48.101360" lon="6.293080">
						<ele>319</ele>
						<time>2025-03-24T20:05:54Z</time>
					</trkpt>
					<trkpt lat="48.101780" lon="6.292930">
						<ele>318</ele>
						<time>2025-03-24T20:06:02Z</time>
					</trkpt>
					<trkpt lat="48.102160" lon="6.291590">
						<ele>319</ele>
						<time>2025-03-24T20:06:19Z</time>
					</trkpt>
					<trkpt lat="48.102490" lon="6.290170">
						<ele>320</ele>
						<time>2025-03-24T20:06:37Z</time>
					</trkpt>
					<trkpt lat="48.102370" lon="6.288740">
						<ele>323</ele>
						<time>2025-03-24T20:06:54Z</time>
					</trkpt>
					<trkpt lat="48.102220" lon="6.288070">
						<ele>324</ele>
						<time>2025-03-24T20:07:02Z</time>
					</trkpt>
					<trkpt lat="48.102140" lon="6.285600">
						<ele>329</ele>
						<time>2025-03-24T20:07:32Z</time>
					</trkpt>
					<trkpt lat="48.102260" lon="6.284690">
						<ele>332</ele>
						<time>2025-03-24T20:07:43Z</time>
					</trkpt>
					<trkpt lat="48.102700" lon="6.282630">
						<ele>338</ele>
						<time>2025-03-24T20:08:08Z</time>
					</trkpt>
					<trkpt lat="48.102750" lon="6.281360">
						<ele>340</ele>
						<time>2025-03-24T20:08:24Z</time>
					</trkpt>
					<trkpt lat="48.102820" lon="6.280300">
						<ele>340</ele>
						<time>2025-03-24T20:08:36Z</time>
					</trkpt>
					<trkpt lat="48.102950" lon="6.279190">
						<ele>341</ele>
						<time>2025-03-24T20:08:50Z</time>
					</trkpt>
					<trkpt lat="48.102980" lon="6.278220">
						<ele>342</ele>
						<time>2025-03-24T20:09:01Z</time>
					</trkpt>
					<trkpt lat="48.102820" lon="6.277130">
						<ele>341</ele>
						<time>2025-03-24T20:09:14Z</time>
					</trkpt>
					<trkpt lat="48.102800" lon="6.275880">
						<ele>339</ele>
						<time>2025-03-24T20:09:29Z</time>
					</trkpt>
					<trkpt lat="48.103030" lon="6.274700">
						<ele>335</ele>
						<time>2025-03-24T20:09:44Z</time>
					</trkpt>
					<trkpt lat="48.103120" lon="6.273920">
						<ele>331</ele>
						<time>2025-03-24T20:09:53Z</time>
					</trkpt>
					<trkpt lat="48.103030" lon="6.273200">
						<ele>328</ele>
						<time>2025-03-24T20:10:02Z</time>
					</trkpt>
					<trkpt lat="48.103330" lon="6.273300">
						<ele>329</ele>
						<time>2025-03-24T20:10:07Z</time>
					</trkpt>
					<trkpt lat="48.103640" lon="6.273590">
						<ele>331</ele>
						<time>2025-03-24T20:10:14Z</time>
					</trkpt>
					<trkpt lat="48.104060" lon="6.274040">
						<ele>334</ele>
						<time>2025-03-24T20:10:23Z</time>
					</trkpt>
					<trkpt lat="48.104450" lon="6.274330">
						<ele>335</ele>
						<time>2025-03-24T20:10:31Z</time>
					</trkpt>
					<trkpt lat="48.104770" lon="6.274820">
						<ele>337</ele>
						<time>2025-03-24T20:10:39Z</time>
					</trkpt>
					<trkpt lat="48.104910" lon="6.275230">
						<ele>338</ele>
						<time>2025-03-24T20:10:45Z</time>
					</trkpt>
					<trkpt lat="48.105240" lon="6.275880">
						<ele>339</ele>
						<time>2025-03-24T20:10:54Z</time>
					</trkpt>
					<trkpt lat="48.105580" lon="6.276290">
						<ele>340</ele>
						<time>2025-03-24T20:11:02Z</time>
					</trkpt>
					<trkpt lat="48.106250" lon="6.276890">
						<ele>344</ele>
						<time>2025-03-24T20:11:16Z</time>
					</trkpt>
					<trkpt lat="48.106610" lon="6.277470">
						<ele>346</ele>
						<time>2025-03-24T20:11:25Z</time>
					</trkpt>
					<trkpt lat="48.106900" lon="6.278370">
						<ele>345</ele>
						<time>2025-03-24T20:11:37Z</time>
					</trkpt>
					<trkpt lat="48.107280" lon="6.279810">
						<ele>347</ele>
						<time>2025-03-24T20:11:56Z</time>
					</trkpt>
					<trkpt lat="48.109200" lon="6.286090">
						<ele>356</ele>
						<time>2025-03-24T20:13:18Z</time>
					</trkpt>
					<trkpt lat="48.109200" lon="6.286030">
						<ele>356</ele>
						<time>2025-03-24T20:13:18Z</time>
					</trkpt>
					<trkpt lat="48.109300" lon="6.285980">
						<ele>357</ele>
						<time>2025-03-24T20:13:20Z</time>
					</trkpt>
					<trkpt lat="48.110030" lon="6.284910">
						<ele>365</ele>
						<time>2025-03-24T20:13:38Z</time>
					</trkpt>
					<trkpt lat="48.110310" lon="6.284630">
						<ele>368</ele>
						<time>2025-03-24T20:13:44Z</time>
					</trkpt>
					<trkpt lat="48.110530" lon="6.284460">
						<ele>370</ele>
						<time>2025-03-24T20:13:49Z</time>
					</trkpt>
					<trkpt lat="48.110850" lon="6.284010">
						<ele>374</ele>
						<time>2025-03-24T20:13:57Z</time>
					</trkpt>
					<trkpt lat="48.111080" lon="6.283540">
						<ele>378</ele>
						<time>2025-03-24T20:14:04Z</time>
					</trkpt>
					<trkpt lat="48.111790" lon="6.281910">
						<ele>390</ele>
						<time>2025-03-24T20:14:27Z</time>
					</trkpt>
					<trkpt lat="48.112260" lon="6.281110">
						<ele>396</ele>
						<time>2025-03-24T20:14:39Z</time>
					</trkpt>
					<trkpt lat="48.112930" lon="6.280170">
						<ele>403</ele>
						<time>2025-03-24T20:14:56Z</time>
					</trkpt>
					<trkpt lat="48.113720" lon="6.279440">
						<ele>403</ele>
						<time>2025-03-24T20:15:12Z</time>
					</trkpt>
					<trkpt lat="48.114410" lon="6.278900">
						<ele>400</ele>
						<time>2025-03-24T20:15:26Z</time>
					</trkpt>
					<trkpt lat="48.115200" lon="6.277740">
						<ele>398</ele>
						<time>2025-03-24T20:15:46Z</time>
					</trkpt>
					<trkpt lat="48.115700" lon="6.276860">
						<ele>396</ele>
						<time>2025-03-24T20:15:59Z</time>
					</trkpt>
					<trkpt lat="48.116210" lon="6.275700">
						<ele>398</ele>
						<time>2025-03-24T20:16:16Z</time>
					</trkpt>
					<trkpt lat="48.116680" lon="6.274930">
						<ele>401</ele>
						<time>2025-03-24T20:16:28Z</time>
					</trkpt>
					<trkpt lat="48.118160" lon="6.273520">
						<ele>406</ele>
						<time>2025-03-24T20:17:00Z</time>
					</trkpt>
					<trkpt lat="48.118310" lon="6.273210">
						<ele>409</ele>
						<time>2025-03-24T20:17:04Z</time>
					</trkpt>
					<trkpt lat="48.118810" lon="6.271880">
						<ele>407</ele>
						<time>2025-03-24T20:17:22Z</time>
					</trkpt>
					<trkpt lat="48.119020" lon="6.271110">
						<ele>403</ele>
						<time>2025-03-24T20:17:32Z</time>
					</trkpt>
					<trkpt lat="48.119090" lon="6.270980">
						<ele>402</ele>
						<time>2025-03-24T20:17:34Z</time>
					</trkpt>
					<trkpt lat="48.119150" lon="6.271090">
						<ele>402</ele>
						<time>2025-03-24T20:17:36Z</time>
					</trkpt>
					<trkpt lat="48.119600" lon="6.271370">
						<ele>398</ele>
						<time>2025-03-24T20:17:44Z</time>
					</trkpt>
					<trkpt lat="48.119840" lon="6.271580">
						<ele>395</ele>
						<time>2025-03-24T20:17:49Z</time>
					</trkpt>
					<trkpt lat="48.119990" lon="6.271860">
						<ele>394</ele>
						<time>2025-03-24T20:17:54Z</time>
					</trkpt>
					<trkpt lat="48.120250" lon="6.273130">
						<ele>395</ele>
						<time>2025-03-24T20:18:09Z</time>
					</trkpt>
					<trkpt lat="48.120370" lon="6.273580">
						<ele>394</ele>
						<time>2025-03-24T20:18:15Z</time>
					</trkpt>
					<trkpt lat="48.121040" lon="6.275190">
						<ele>385</ele>
						<time>2025-03-24T20:18:38Z</time>
					</trkpt>
					<trkpt lat="48.121640" lon="6.276390">
						<ele>372</ele>
						<time>2025-03-24T20:18:56Z</time>
					</trkpt>
					<trkpt lat="48.122160" lon="6.274850">
						<ele>367</ele>
						<time>2025-03-24T20:19:16Z</time>
					</trkpt>
					<trkpt lat="48.122280" lon="6.274120">
						<ele>366</ele>
						<time>2025-03-24T20:19:25Z</time>
					</trkpt>
					<trkpt lat="48.122370" lon="6.273970">
						<ele>366</ele>
						<time>2025-03-24T20:19:27Z</time>
					</trkpt>
					<trkpt lat="48.123010" lon="6.273840">
						<ele>365</ele>
						<time>2025-03-24T20:19:39Z</time>
					</trkpt>
					<trkpt lat="48.123530" lon="6.273620">
						<ele>364</ele>
						<time>2025-03-24T20:19:48Z</time>
					</trkpt>
					<trkpt lat="48.124150" lon="6.273060">
						<ele>365</ele>
						<time>2025-03-24T20:20:01Z</time>
					</trkpt>
					<trkpt lat="48.124390" lon="6.272790">
						<ele>365</ele>
						<time>2025-03-24T20:20:07Z</time>
					</trkpt>
					<trkpt lat="48.124770" lon="6.272010">
						<ele>370</ele>
						<time>2025-03-24T20:20:18Z</time>
					</trkpt>
					<trkpt lat="48.125650" lon="6.270550">
						<ele>370</ele>
						<time>2025-03-24T20:20:41Z</time>
					</trkpt>
					<trkpt lat="48.125910" lon="6.270000">
						<ele>367</ele>
						<time>2025-03-24T20:20:49Z</time>
					</trkpt>
					<trkpt lat="48.126130" lon="6.269420">
						<ele>367</ele>
						<time>2025-03-24T20:20:57Z</time>
					</trkpt>
					<trkpt lat="48.126340" lon="6.268750">
						<ele>364</ele>
						<time>2025-03-24T20:21:06Z</time>
					</trkpt>
					<trkpt lat="48.126490" lon="6.268430">
						<ele>361</ele>
						<time>2025-03-24T20:21:11Z</time>
					</trkpt>
					<trkpt lat="48.127240" lon="6.267490">
						<ele>362</ele>
						<time>2025-03-24T20:21:28Z</time>
					</trkpt>
					<trkpt lat="48.128310" lon="6.266350">
						<ele>365</ele>
						<time>2025-03-24T20:21:52Z</time>
					</trkpt>
					<trkpt lat="48.128740" lon="6.265830">
						<ele>367</ele>
						<time>2025-03-24T20:22:01Z</time>
					</trkpt>
					<trkpt lat="48.129880" lon="6.264670">
						<ele>370</ele>
						<time>2025-03-24T20:22:26Z</time>
					</trkpt>
					<trkpt lat="48.131120" lon="6.263730">
						<ele>374</ele>
						<time>2025-03-24T20:22:51Z</time>
					</trkpt>
					<trkpt lat="48.131920" lon="6.262940">
						<ele>375</ele>
						<time>2025-03-24T20:23:08Z</time>
					</trkpt>
					<trkpt lat="48.132460" lon="6.262720">
						<ele>374</ele>
						<time>2025-03-24T20:23:18Z</time>
					</trkpt>
					<trkpt lat="48.133290" lon="6.261990">
						<ele>374</ele>
						<time>2025-03-24T20:23:35Z</time>
					</trkpt>
					<trkpt lat="48.133910" lon="6.261630">
						<ele>369</ele>
						<time>2025-03-24T20:23:47Z</time>
					</trkpt>
					<trkpt lat="48.134770" lon="6.261260">
						<ele>367</ele>
						<time>2025-03-24T20:24:03Z</time>
					</trkpt>
					<trkpt lat="48.135460" lon="6.261220">
						<ele>365</ele>
						<time>2025-03-24T20:24:15Z</time>
					</trkpt>
					<trkpt lat="48.135890" lon="6.261160">
						<ele>364</ele>
						<time>2025-03-24T20:24:23Z</time>
					</trkpt>
					<trkpt lat="48.136490" lon="6.260430">
						<ele>359</ele>
						<time>2025-03-24T20:24:36Z</time>
					</trkpt>
					<trkpt lat="48.136580" lon="6.260400">
						<ele>358</ele>
						<time>2025-03-24T20:24:38Z</time>
					</trkpt>
					<trkpt lat="48.136660" lon="6.260190">
						<ele>358</ele>
						<time>2025-03-24T20:24:41Z</time>
					</trkpt>
					<trkpt lat="48.137130" lon="6.259610">
						<ele>359</ele>
						<time>2025-03-24T20:24:52Z</time>
					</trkpt>
					<trkpt lat="48.137350" lon="6.259070">
						<ele>361</ele>
						<time>2025-03-24T20:24:59Z</time>
					</trkpt>
					<trkpt lat="48.136790" lon="6.256990">
						<ele>365</ele>
						<time>2025-03-24T20:25:26Z</time>
					</trkpt>
					<trkpt lat="48.137220" lon="6.256630">
						<ele>364</ele>
						<time>2025-03-24T20:25:35Z</time>
					</trkpt>
					<trkpt lat="48.137610" lon="6.255860">
						<ele>362</ele>
						<time>2025-03-24T20:25:46Z</time>
					</trkpt>
					<trkpt lat="48.138460" lon="6.253540">
						<ele>363</ele>
						<time>2025-03-24T20:26:17Z</time>
					</trkpt>
					<trkpt lat="48.138640" lon="6.253280">
						<ele>363</ele>
						<time>2025-03-24T20:26:22Z</time>
					</trkpt>
					<trkpt lat="48.139820" lon="6.252100">
						<ele>365</ele>
						<time>2025-03-24T20:26:47Z</time>
					</trkpt>
					<trkpt lat="48.140570" lon="6.251390">
						<ele>365</ele>
						<time>2025-03-24T20:27:03Z</time>
					</trkpt>
					<trkpt lat="48.141170" lon="6.250710">
						<ele>363</ele>
						<time>2025-03-24T20:27:16Z</time>
					</trkpt>
					<trkpt lat="48.141530" lon="6.250230">
						<ele>363</ele>
						<time>2025-03-24T20:27:25Z</time>
					</trkpt>
					<trkpt lat="48.141810" lon="6.249950">
						<ele>363</ele>
						<time>2025-03-24T20:27:31Z</time>
					</trkpt>
					<trkpt lat="48.141980" lon="6.249870">
						<ele>363</ele>
						<time>2025-03-24T20:27:34Z</time>
					</trkpt>
					<trkpt lat="48.142690" lon="6.249720">
						<ele>363</ele>
						<time>2025-03-24T20:27:47Z</time>
					</trkpt>
					<trkpt lat="48.143140" lon="6.249570">
						<ele>363</ele>
						<time>2025-03-24T20:27:55Z</time>
					</trkpt>
					<trkpt lat="48.143740" lon="6.249500">
						<ele>361</ele>
						<time>2025-03-24T20:28:06Z</time>
					</trkpt>
					<trkpt lat="48.143910" lon="6.249380">
						<ele>361</ele>
						<time>2025-03-24T20:28:09Z</time>
					</trkpt>
					<trkpt lat="48.144150" lon="6.248880">
						<ele>359</ele>
						<time>2025-03-24T20:28:16Z</time>
					</trkpt>
					<trkpt lat="48.144300" lon="6.248670">
						<ele>357</ele>
						<time>2025-03-24T20:28:20Z</time>
					</trkpt>
					<trkpt lat="48.144450" lon="6.248600">
						<ele>356</ele>
						<time>2025-03-24T20:28:23Z</time>
					</trkpt>
					<trkpt lat="48.144580" lon="6.248620">
						<ele>356</ele>
						<time>2025-03-24T20:28:25Z</time>
					</trkpt>
					<trkpt lat="48.144730" lon="6.248690">
						<ele>356</ele>
						<time>2025-03-24T20:28:28Z</time>
					</trkpt>
					<trkpt lat="48.145420" lon="6.249480">
						<ele>359</ele>
						<time>2025-03-24T20:28:43Z</time>
					</trkpt>
					<trkpt lat="48.145570" lon="6.249590">
						<ele>358</ele>
						<time>2025-03-24T20:28:46Z</time>
					</trkpt>
					<trkpt lat="48.145820" lon="6.249630">
						<ele>358</ele>
						<time>2025-03-24T20:28:51Z</time>
					</trkpt>
					<trkpt lat="48.146100" lon="6.249630">
						<ele>358</ele>
						<time>2025-03-24T20:28:56Z</time>
					</trkpt>
					<trkpt lat="48.147130" lon="6.249420">
						<ele>360</ele>
						<time>2025-03-24T20:29:14Z</time>
					</trkpt>
					<trkpt lat="48.147730" lon="6.249070">
						<ele>362</ele>
						<time>2025-03-24T20:29:26Z</time>
					</trkpt>
					<trkpt lat="48.147820" lon="6.248990">
						<ele>362</ele>
						<time>2025-03-24T20:29:28Z</time>
					</trkpt>
					<trkpt lat="48.147880" lon="6.248840">
						<ele>363</ele>
						<time>2025-03-24T20:29:30Z</time>
					</trkpt>
					<trkpt lat="48.147990" lon="6.248880">
						<ele>363</ele>
						<time>2025-03-24T20:29:32Z</time>
					</trkpt>
					<trkpt lat="48.148100" lon="6.248860">
						<ele>364</ele>
						<time>2025-03-24T20:29:34Z</time>
					</trkpt>
					<trkpt lat="48.149750" lon="6.247890">
						<ele>375</ele>
						<time>2025-03-24T20:30:05Z</time>
					</trkpt>
					<trkpt lat="48.150290" lon="6.247810">
						<ele>375</ele>
						<time>2025-03-24T20:30:15Z</time>
					</trkpt>
					<trkpt lat="48.150520" lon="6.247810">
						<ele>375</ele>
						<time>2025-03-24T20:30:19Z</time>
					</trkpt>
					<trkpt lat="48.150800" lon="6.247920">
						<ele>374</ele>
						<time>2025-03-24T20:30:24Z</time>
					</trkpt>
					<trkpt lat="48.151380" lon="6.248500">
						<ele>372</ele>
						<time>2025-03-24T20:30:37Z</time>
					</trkpt>
					<trkpt lat="48.151900" lon="6.248920">
						<ele>372</ele>
						<time>2025-03-24T20:30:47Z</time>
					</trkpt>
					<trkpt lat="48.152280" lon="6.249400">
						<ele>373</ele>
						<time>2025-03-24T20:30:56Z</time>
					</trkpt>
					<trkpt lat="48.152480" lon="6.249530">
						<ele>373</ele>
						<time>2025-03-24T20:31:00Z</time>
					</trkpt>
					<trkpt lat="48.152690" lon="6.249630">
						<ele>375</ele>
						<time>2025-03-24T20:31:04Z</time>
					</trkpt>
					<trkpt lat="48.153330" lon="6.249850">
						<ele>381</ele>
						<time>2025-03-24T20:31:15Z</time>
					</trkpt>
					<trkpt lat="48.153680" lon="6.249800">
						<ele>384</ele>
						<time>2025-03-24T20:31:22Z</time>
					</trkpt>
					<trkpt lat="48.154260" lon="6.249630">
						<ele>389</ele>
						<time>2025-03-24T20:31:32Z</time>
					</trkpt>
					<trkpt lat="48.155090" lon="6.249250">
						<ele>395</ele>
						<time>2025-03-24T20:31:48Z</time>
					</trkpt>
					<trkpt lat="48.154880" lon="6.250380">
						<ele>393</ele>
						<time>2025-03-24T20:32:02Z</time>
					</trkpt>
					<trkpt lat="48.154600" lon="6.253900">
						<ele>395</ele>
						<time>2025-03-24T20:32:44Z</time>
					</trkpt>
					<trkpt lat="48.154620" lon="6.254610">
						<ele>394</ele>
						<time>2025-03-24T20:32:52Z</time>
					</trkpt>
					<trkpt lat="48.154690" lon="6.254980">
						<ele>395</ele>
						<time>2025-03-24T20:32:57Z</time>
					</trkpt>
					<trkpt lat="48.155140" lon="6.256590">
						<ele>394</ele>
						<time>2025-03-24T20:33:17Z</time>
					</trkpt>
					<trkpt lat="48.155310" lon="6.257290">
						<ele>393</ele>
						<time>2025-03-24T20:33:26Z</time>
					</trkpt>
					<trkpt lat="48.155820" lon="6.260230">
						<ele>393</ele>
						<time>2025-03-24T20:34:02Z</time>
					</trkpt>
					<trkpt lat="48.156360" lon="6.261800">
						<ele>386</ele>
						<time>2025-03-24T20:34:23Z</time>
					</trkpt>
					<trkpt lat="48.156770" lon="6.262740">
						<ele>383</ele>
						<time>2025-03-24T20:34:36Z</time>
					</trkpt>
					<trkpt lat="48.157090" lon="6.265300">
						<ele>377</ele>
						<time>2025-03-24T20:35:07Z</time>
					</trkpt>
					<trkpt lat="48.157350" lon="6.267100">
						<ele>375</ele>
						<time>2025-03-24T20:35:29Z</time>
					</trkpt>
					<trkpt lat="48.157390" lon="6.267530">
						<ele>376</ele>
						<time>2025-03-24T20:35:34Z</time>
					</trkpt>
					<trkpt lat="48.157430" lon="6.269290">
						<ele>373</ele>
						<time>2025-03-24T20:35:55Z</time>
					</trkpt>
					<trkpt lat="48.157580" lon="6.270900">
						<ele>374</ele>
						<time>2025-03-24T20:36:15Z</time>
					</trkpt>
					<trkpt lat="48.157750" lon="6.271990">
						<ele>378</ele>
						<time>2025-03-24T20:36:28Z</time>
					</trkpt>
					<trkpt lat="48.157840" lon="6.272380">
						<ele>379</ele>
						<time>2025-03-24T20:36:33Z</time>
					</trkpt>
					<trkpt lat="48.158050" lon="6.272980">
						<ele>381</ele>
						<time>2025-03-24T20:36:41Z</time>
					</trkpt>
					<trkpt lat="48.158230" lon="6.273300">
						<ele>382</ele>
						<time>2025-03-24T20:36:46Z</time>
					</trkpt>
					<trkpt lat="48.158830" lon="6.273750">
						<ele>383</ele>
						<time>2025-03-24T20:36:58Z</time>
					</trkpt>
					<trkpt lat="48.159080" lon="6.275300">
						<ele>385</ele>
						<time>2025-03-24T20:37:17Z</time>
					</trkpt>
					<trkpt lat="48.159130" lon="6.275270">
						<ele>386</ele>
						<time>2025-03-24T20:37:18Z</time>
					</trkpt>
					<trkpt lat="48.159750" lon="6.275230">
						<ele>386</ele>
						<time>2025-03-24T20:37:29Z</time>
					</trkpt>
					<trkpt lat="48.160240" lon="6.275510">
						<ele>388</ele>
						<time>2025-03-24T20:37:38Z</time>
					</trkpt>
					<trkpt lat="48.160480" lon="6.275680">
						<ele>389</ele>
						<time>2025-03-24T20:37:43Z</time>
					</trkpt>
					<trkpt lat="48.160780" lon="6.275770">
						<ele>390</ele>
						<time>2025-03-24T20:37:48Z</time>
					</trkpt>
					<trkpt lat="48.160890" lon="6.275850">
						<ele>390</ele>
						<time>2025-03-24T20:37:50Z</time>
					</trkpt>
					<trkpt lat="48.161120" lon="6.276110">
						<ele>390</ele>
						<time>2025-03-24T20:37:55Z</time>
					</trkpt>
					<trkpt lat="48.161680" lon="6.276860">
						<ele>394</ele>
						<time>2025-03-24T20:38:09Z</time>
					</trkpt>
					<trkpt lat="48.163200" lon="6.278210">
						<ele>394</ele>
						<time>2025-03-24T20:38:40Z</time>
					</trkpt>
					<trkpt lat="48.163980" lon="6.278690">
						<ele>393</ele>
						<time>2025-03-24T20:38:55Z</time>
					</trkpt>
					<trkpt lat="48.164580" lon="6.279160">
						<ele>393</ele>
						<time>2025-03-24T20:39:07Z</time>
					</trkpt>
					<trkpt lat="48.164770" lon="6.279270">
						<ele>393</ele>
						<time>2025-03-24T20:39:11Z</time>
					</trkpt>
					<trkpt lat="48.166790" lon="6.279970">
						<ele>387</ele>
						<time>2025-03-24T20:39:48Z</time>
					</trkpt>
					<trkpt lat="48.167470" lon="6.280100">
						<ele>386</ele>
						<time>2025-03-24T20:40:00Z</time>
					</trkpt>
					<trkpt lat="48.168720" lon="6.280750">
						<ele>383</ele>
						<time>2025-03-24T20:40:24Z</time>
					</trkpt>
					<trkpt lat="48.169320" lon="6.280940">
						<ele>379</ele>
						<time>2025-03-24T20:40:34Z</time>
					</trkpt>
					<trkpt lat="48.170220" lon="6.281070">
						<ele>373</ele>
						<time>2025-03-24T20:40:51Z</time>
					</trkpt>
					<trkpt lat="48.172520" lon="6.281280">
						<ele>357</ele>
						<time>2025-03-24T20:41:32Z</time>
					</trkpt>
					<trkpt lat="48.173740" lon="6.281520">
						<ele>353</ele>
						<time>2025-03-24T20:41:53Z</time>
					</trkpt>
					<trkpt lat="48.174320" lon="6.281560">
						<ele>349</ele>
						<time>2025-03-24T20:42:04Z</time>
					</trkpt>
					<trkpt lat="48.174470" lon="6.281630">
						<ele>348</ele>
						<time>2025-03-24T20:42:07Z</time>
					</trkpt>
					<trkpt lat="48.174750" lon="6.281910">
						<ele>346</ele>
						<time>2025-03-24T20:42:13Z</time>
					</trkpt>
					<trkpt lat="48.174860" lon="6.282270">
						<ele>344</ele>
						<time>2025-03-24T20:42:17Z</time>
					</trkpt>
					<trkpt lat="48.174880" lon="6.282440">
						<ele>343</ele>
						<time>2025-03-24T20:42:19Z</time>
					</trkpt>
					<trkpt lat="48.174810" lon="6.283300">
						<ele>338</ele>
						<time>2025-03-24T20:42:30Z</time>
					</trkpt>
					<trkpt lat="48.174830" lon="6.283560">
						<ele>338</ele>
						<time>2025-03-24T20:42:33Z</time>
					</trkpt>
					<trkpt lat="48.174900" lon="6.283880">
						<ele>337</ele>
						<time>2025-03-24T20:42:37Z</time>
					</trkpt>
					<trkpt lat="48.175010" lon="6.284160">
						<ele>335</ele>
						<time>2025-03-24T20:42:41Z</time>
					</trkpt>
					<trkpt lat="48.175820" lon="6.285490">
						<ele>334</ele>
						<time>2025-03-24T20:43:02Z</time>
					</trkpt>
					<trkpt lat="48.176040" lon="6.286130">
						<ele>335</ele>
						<time>2025-03-24T20:43:10Z</time>
					</trkpt>
					<trkpt lat="48.176250" lon="6.287120">
						<ele>335</ele>
						<time>2025-03-24T20:43:23Z</time>
					</trkpt>
					<trkpt lat="48.176010" lon="6.287680">
						<ele>336</ele>
						<time>2025-03-24T20:43:31Z</time>
					</trkpt>
					<trkpt lat="48.175650" lon="6.288960">
						<ele>334</ele>
						<time>2025-03-24T20:43:47Z</time>
					</trkpt>
					<trkpt lat="48.175650" lon="6.289160">
						<ele>333</ele>
						<time>2025-03-24T20:43:50Z</time>
					</trkpt>
					<trkpt lat="48.176010" lon="6.289650">
						<ele>330</ele>
						<time>2025-03-24T20:43:58Z</time>
					</trkpt>
					<trkpt lat="48.176340" lon="6.290510">
						<ele>331</ele>
						<time>2025-03-24T20:44:10Z</time>
					</trkpt>
					<trkpt lat="48.176680" lon="6.291280">
						<ele>334</ele>
						<time>2025-03-24T20:44:21Z</time>
					</trkpt>
					<trkpt lat="48.177170" lon="6.292630">
						<ele>342</ele>
						<time>2025-03-24T20:44:39Z</time>
					</trkpt>
					<trkpt lat="48.177450" lon="6.293210">
						<ele>347</ele>
						<time>2025-03-24T20:44:48Z</time>
					</trkpt>
					<trkpt lat="48.177600" lon="6.293690">
						<ele>350</ele>
						<time>2025-03-24T20:44:54Z</time>
					</trkpt>
					<trkpt lat="48.177690" lon="6.294410">
						<ele>354</ele>
						<time>2025-03-24T20:45:03Z</time>
					</trkpt>
					<trkpt lat="48.177880" lon="6.295040">
						<ele>357</ele>
						<time>2025-03-24T20:45:11Z</time>
					</trkpt>
					<trkpt lat="48.178160" lon="6.295720">
						<ele>360</ele>
						<time>2025-03-24T20:45:20Z</time>
					</trkpt>
					<trkpt lat="48.179130" lon="6.294970">
						<ele>361</ele>
						<time>2025-03-24T20:45:40Z</time>
					</trkpt>
					<trkpt lat="48.180220" lon="6.293770">
						<ele>353</ele>
						<time>2025-03-24T20:46:04Z</time>
					</trkpt>
					<trkpt lat="48.182840" lon="6.290700">
						<ele>335</ele>
						<time>2025-03-24T20:47:03Z</time>
					</trkpt>
					<trkpt lat="48.184170" lon="6.289520">
						<ele>335</ele>
						<time>2025-03-24T20:47:30Z</time>
					</trkpt>
					<trkpt lat="48.184980" lon="6.289270">
						<ele>338</ele>
						<time>2025-03-24T20:47:45Z</time>
					</trkpt>
					<trkpt lat="48.185260" lon="6.289240">
						<ele>338</ele>
						<time>2025-03-24T20:47:50Z</time>
					</trkpt>
					<trkpt lat="48.187670" lon="6.289540">
						<ele>337</ele>
						<time>2025-03-24T20:48:33Z</time>
					</trkpt>
					<trkpt lat="48.189470" lon="6.289630">
						<ele>339</ele>
						<time>2025-03-24T20:49:05Z</time>
					</trkpt>
					<trkpt lat="48.189830" lon="6.289820">
						<ele>339</ele>
						<time>2025-03-24T20:49:12Z</time>
					</trkpt>
					<trkpt lat="48.190560" lon="6.289970">
						<ele>339</ele>
						<time>2025-03-24T20:49:25Z</time>
					</trkpt>
					<trkpt lat="48.190840" lon="6.289840">
						<ele>338</ele>
						<time>2025-03-24T20:49:30Z</time>
					</trkpt>
					<trkpt lat="48.190930" lon="6.289760">
						<ele>338</ele>
						<time>2025-03-24T20:49:32Z</time>
					</trkpt>
					<trkpt lat="48.191270" lon="6.289310">
						<ele>339</ele>
						<time>2025-03-24T20:49:40Z</time>
					</trkpt>
					<trkpt lat="48.192240" lon="6.288390">
						<ele>340</ele>
						<time>2025-03-24T20:50:01Z</time>
					</trkpt>
					<trkpt lat="48.193910" lon="6.287180">
						<ele>334</ele>
						<time>2025-03-24T20:50:34Z</time>
					</trkpt>
					<trkpt lat="48.194530" lon="6.286900">
						<ele>332</ele>
						<time>2025-03-24T20:50:45Z</time>
					</trkpt>
					<trkpt lat="48.195630" lon="6.286950">
						<ele>331</ele>
						<time>2025-03-24T20:51:05Z</time>
					</trkpt>
					<trkpt lat="48.196680" lon="6.286540">
						<ele>330</ele>
						<time>2025-03-24T20:51:24Z</time>
					</trkpt>
					<trkpt lat="48.197360" lon="6.286030">
						<ele>328</ele>
						<time>2025-03-24T20:51:38Z</time>
					</trkpt>
					<trkpt lat="48.198630" lon="6.284160">
						<ele>321</ele>
						<time>2025-03-24T20:52:09Z</time>
					</trkpt>
					<trkpt lat="48.199060" lon="6.283970">
						<ele>320</ele>
						<time>2025-03-24T20:52:17Z</time>
					</trkpt>
					<trkpt lat="48.200520" lon="6.283920">
						<ele>319</ele>
						<time>2025-03-24T20:52:43Z</time>
					</trkpt>
					<trkpt lat="48.200880" lon="6.283940">
						<ele>319</ele>
						<time>2025-03-24T20:52:50Z</time>
					</trkpt>
					<trkpt lat="48.202660" lon="6.284460">
						<ele>323</ele>
						<time>2025-03-24T20:53:22Z</time>
					</trkpt>
					<trkpt lat="48.202840" lon="6.284540">
						<ele>324</ele>
						<time>2025-03-24T20:53:25Z</time>
					</trkpt>
					<trkpt lat="48.203200" lon="6.284800">
						<ele>325</ele>
						<time>2025-03-24T20:53:32Z</time>
					</trkpt>
					<trkpt lat="48.203290" lon="6.284890">
						<ele>326</ele>
						<time>2025-03-24T20:53:34Z</time>
					</trkpt>
					<trkpt lat="48.204080" lon="6.285490">
						<ele>328</ele>
						<time>2025-03-24T20:53:50Z</time>
					</trkpt>
					<trkpt lat="48.204850" lon="6.285940">
						<ele>331</ele>
						<time>2025-03-24T20:54:05Z</time>
					</trkpt>
					<trkpt lat="48.205520" lon="6.286130">
						<ele>332</ele>
						<time>2025-03-24T20:54:17Z</time>
					</trkpt>
					<trkpt lat="48.206160" lon="6.286220">
						<ele>334</ele>
						<time>2025-03-24T20:54:28Z</time>
					</trkpt>
					<trkpt lat="48.206250" lon="6.286150">
						<ele>334</ele>
						<time>2025-03-24T20:54:30Z</time>
					</trkpt>
					<trkpt lat="48.206570" lon="6.285720">
						<ele>332</ele>
						<time>2025-03-24T20:54:38Z</time>
					</trkpt>
					<trkpt lat="48.207320" lon="6.285190">
						<ele>330</ele>
						<time>2025-03-24T20:54:53Z</time>
					</trkpt>
					<trkpt lat="48.207790" lon="6.285120">
						<ele>330</ele>
						<time>2025-03-24T20:55:01Z</time>
					</trkpt>
					<trkpt lat="48.208140" lon="6.285190">
						<ele>330</ele>
						<time>2025-03-24T20:55:07Z</time>
					</trkpt>
					<trkpt lat="48.208760" lon="6.285750">
						<ele>333</ele>
						<time>2025-03-24T20:55:20Z</time>
					</trkpt>
					<trkpt lat="48.208870" lon="6.285790">
						<ele>333</ele>
						<time>2025-03-24T20:55:22Z</time>
					</trkpt>
					<trkpt lat="48.210050" lon="6.286000">
						<ele>329</ele>
						<time>2025-03-24T20:55:43Z</time>
					</trkpt>
					<trkpt lat="48.211160" lon="6.286070">
						<ele>327</ele>
						<time>2025-03-24T20:56:03Z</time>
					</trkpt>
					<trkpt lat="48.211330" lon="6.286050">
						<ele>327</ele>
						<time>2025-03-24T20:56:06Z</time>
					</trkpt>
					<trkpt lat="48.212210" lon="6.285850">
						<ele>325</ele>
						<time>2025-03-24T20:56:22Z</time>
					</trkpt>
					<trkpt lat="48.213540" lon="6.285210">
						<ele>325</ele>
						<time>2025-03-24T20:56:47Z</time>
					</trkpt>
					<trkpt lat="48.214100" lon="6.284970">
						<ele>328</ele>
						<time>2025-03-24T20:56:57Z</time>
					</trkpt>
					<trkpt lat="48.214790" lon="6.284970">
						<ele>328</ele>
						<time>2025-03-24T20:57:09Z</time>
					</trkpt>
					<trkpt lat="48.216050" lon="6.284390">
						<ele>331</ele>
						<time>2025-03-24T20:57:33Z</time>
					</trkpt>
					<trkpt lat="48.216570" lon="6.284290">
						<ele>332</ele>
						<time>2025-03-24T20:57:42Z</time>
					</trkpt>
					<trkpt lat="48.216740" lon="6.284200">
						<ele>332</ele>
						<time>2025-03-24T20:57:45Z</time>
					</trkpt>
					<trkpt lat="48.216740" lon="6.283970">
						<ele>331</ele>
						<time>2025-03-24T20:57:48Z</time>
					</trkpt>
					<trkpt lat="48.216810" lon="6.283750">
						<ele>331</ele>
						<time>2025-03-24T20:57:51Z</time>
					</trkpt>
					<trkpt lat="48.217050" lon="6.283620">
						<ele>331</ele>
						<time>2025-03-24T20:57:56Z</time>
					</trkpt>
					<trkpt lat="48.217230" lon="6.283560">
						<ele>331</ele>
						<time>2025-03-24T20:57:59Z</time>
					</trkpt>
					<trkpt lat="48.217640" lon="6.283770">
						<ele>333</ele>
						<time>2025-03-24T20:58:07Z</time>
					</trkpt>
					<trkpt lat="48.217770" lon="6.283970">
						<ele>333</ele>
						<time>2025-03-24T20:58:10Z</time>
					</trkpt>
					<trkpt lat="48.217990" lon="6.284520">
						<ele>333</ele>
						<time>2025-03-24T20:58:17Z</time>
					</trkpt>
					<trkpt lat="48.218160" lon="6.284720">
						<ele>333</ele>
						<time>2025-03-24T20:58:21Z</time>
					</trkpt>
					<trkpt lat="48.218220" lon="6.284720">
						<ele>333</ele>
						<time>2025-03-24T20:58:22Z</time>
					</trkpt>
					<trkpt lat="48.218370" lon="6.284780">
						<ele>332</ele>
						<time>2025-03-24T20:58:25Z</time>
					</trkpt>
					<trkpt lat="48.218590" lon="6.284760">
						<ele>333</ele>
						<time>2025-03-24T20:58:29Z</time>
					</trkpt>
					<trkpt lat="48.218370" lon="6.285830">
						<ele>332</ele>
						<time>2025-03-24T20:58:42Z</time>
					</trkpt>
					<trkpt lat="48.218260" lon="6.286690">
						<ele>331</ele>
						<time>2025-03-24T20:58:53Z</time>
					</trkpt>
					<trkpt lat="48.218260" lon="6.287570">
						<ele>331</ele>
						<time>2025-03-24T20:59:03Z</time>
					</trkpt>
					<trkpt lat="48.218690" lon="6.292610">
						<ele>334</ele>
						<time>2025-03-24T21:00:03Z</time>
					</trkpt>
					<trkpt lat="48.218950" lon="6.293920">
						<ele>335</ele>
						<time>2025-03-24T21:00:20Z</time>
					</trkpt>
					<trkpt lat="48.218890" lon="6.295510">
						<ele>336</ele>
						<time>2025-03-24T21:00:38Z</time>
					</trkpt>
					<trkpt lat="48.218930" lon="6.296090">
						<ele>337</ele>
						<time>2025-03-24T21:00:45Z</time>
					</trkpt>
					<trkpt lat="48.219080" lon="6.296800">
						<ele>337</ele>
						<time>2025-03-24T21:00:54Z</time>
					</trkpt>
					<trkpt lat="48.219470" lon="6.298040">
						<ele>339</ele>
						<time>2025-03-24T21:01:10Z</time>
					</trkpt>
					<trkpt lat="48.219590" lon="6.299500">
						<ele>339</ele>
						<time>2025-03-24T21:01:28Z</time>
					</trkpt>
					<trkpt lat="48.219900" lon="6.301240">
						<ele>344</ele>
						<time>2025-03-24T21:01:49Z</time>
					</trkpt>
					<trkpt lat="48.220300" lon="6.302570">
						<ele>350</ele>
						<time>2025-03-24T21:02:07Z</time>
					</trkpt>
					<trkpt lat="48.220240" lon="6.304090">
						<ele>352</ele>
						<time>2025-03-24T21:02:25Z</time>
					</trkpt>
					<trkpt lat="48.220150" lon="6.304670">
						<ele>353</ele>
						<time>2025-03-24T21:02:32Z</time>
					</trkpt>
					<trkpt lat="48.220000" lon="6.305100">
						<ele>352</ele>
						<time>2025-03-24T21:02:37Z</time>
					</trkpt>
					<trkpt lat="48.219920" lon="6.305570">
						<ele>351</ele>
						<time>2025-03-24T21:02:43Z</time>
					</trkpt>
					<trkpt lat="48.219720" lon="6.306280">
						<ele>349</ele>
						<time>2025-03-24T21:02:52Z</time>
					</trkpt>
					<trkpt lat="48.219700" lon="6.306520">
						<ele>349</ele>
						<time>2025-03-24T21:02:55Z</time>
					</trkpt>
					<trkpt lat="48.219700" lon="6.307550">
						<ele>349</ele>
						<time>2025-03-24T21:03:07Z</time>
					</trkpt>
					<trkpt lat="48.219680" lon="6.307630">
						<ele>348</ele>
						<time>2025-03-24T21:03:08Z</time>
					</trkpt>
					<trkpt lat="48.219790" lon="6.308260">
						<ele>349</ele>
						<time>2025-03-24T21:03:16Z</time>
					</trkpt>
					<trkpt lat="48.219830" lon="6.308880">
						<ele>349</ele>
						<time>2025-03-24T21:03:23Z</time>
					</trkpt>
					<trkpt lat="48.219770" lon="6.310980">
						<ele>351</ele>
						<time>2025-03-24T21:03:48Z</time>
					</trkpt>
					<trkpt lat="48.219510" lon="6.313900">
						<ele>351</ele>
						<time>2025-03-24T21:04:23Z</time>
					</trkpt>
					<trkpt lat="48.219420" lon="6.314280">
						<ele>351</ele>
						<time>2025-03-24T21:04:28Z</time>
					</trkpt>
					<trkpt lat="48.219040" lon="6.315380">
						<ele>352</ele>
						<time>2025-03-24T21:04:43Z</time>
					</trkpt>
					<trkpt lat="48.218970" lon="6.315640">
						<ele>353</ele>
						<time>2025-03-24T21:04:46Z</time>
					</trkpt>
					<trkpt lat="48.218950" lon="6.316000">
						<ele>355</ele>
						<time>2025-03-24T21:04:50Z</time>
					</trkpt>
					<trkpt lat="48.219060" lon="6.316710">
						<ele>357</ele>
						<time>2025-03-24T21:04:59Z</time>
					</trkpt>
					<trkpt lat="48.219270" lon="6.317350">
						<ele>359</ele>
						<time>2025-03-24T21:05:08Z</time>
					</trkpt>
					<trkpt lat="48.219680" lon="6.318210">
						<ele>363</ele>
						<time>2025-03-24T21:05:20Z</time>
					</trkpt>
					<trkpt lat="48.219750" lon="6.318470">
						<ele>363</ele>
						<time>2025-03-24T21:05:23Z</time>
					</trkpt>
					<trkpt lat="48.219810" lon="6.318980">
						<ele>362</ele>
						<time>2025-03-24T21:05:30Z</time>
					</trkpt>
					<trkpt lat="48.219850" lon="6.320010">
						<ele>363</ele>
						<time>2025-03-24T21:05:42Z</time>
					</trkpt>
					<trkpt lat="48.219850" lon="6.321840">
						<ele>364</ele>
						<time>2025-03-24T21:06:03Z</time>
					</trkpt>
					<trkpt lat="48.219720" lon="6.323510">
						<ele>360</ele>
						<time>2025-03-24T21:06:23Z</time>
					</trkpt>
					<trkpt lat="48.219700" lon="6.325490">
						<ele>357</ele>
						<time>2025-03-24T21:06:47Z</time>
					</trkpt>
					<trkpt lat="48.219550" lon="6.326670">
						<ele>355</ele>
						<time>2025-03-24T21:07:01Z</time>
					</trkpt>
					<trkpt lat="48.219530" lon="6.327590">
						<ele>354</ele>
						<time>2025-03-24T21:07:12Z</time>
					</trkpt>
					<trkpt lat="48.219600" lon="6.328020">
						<ele>353</ele>
						<time>2025-03-24T21:07:17Z</time>
					</trkpt>
					<trkpt lat="48.219940" lon="6.329130">
						<ele>351</ele>
						<time>2025-03-24T21:07:32Z</time>
					</trkpt>
					<trkpt lat="48.220090" lon="6.330660">
						<ele>344</ele>
						<time>2025-03-24T21:07:50Z</time>
					</trkpt>
					<trkpt lat="48.220070" lon="6.331040">
						<ele>344</ele>
						<time>2025-03-24T21:07:55Z</time>
					</trkpt>
					<trkpt lat="48.219920" lon="6.331640">
						<ele>343</ele>
						<time>2025-03-24T21:08:02Z</time>
					</trkpt>
					<trkpt lat="48.219900" lon="6.332070">
						<ele>343</ele>
						<time>2025-03-24T21:08:07Z</time>
					</trkpt>
					<trkpt lat="48.220170" lon="6.333700">
						<ele>342</ele>
						<time>2025-03-24T21:08:27Z</time>
					</trkpt>
					<trkpt lat="48.220220" lon="6.334300">
						<ele>342</ele>
						<time>2025-03-24T21:08:34Z</time>
					</trkpt>
					<trkpt lat="48.220150" lon="6.335160">
						<ele>343</ele>
						<time>2025-03-24T21:08:45Z</time>
					</trkpt>
					<trkpt lat="48.220000" lon="6.336040">
						<ele>342</ele>
						<time>2025-03-24T21:08:55Z</time>
					</trkpt>
					<trkpt lat="48.219940" lon="6.336670">
						<ele>340</ele>
						<time>2025-03-24T21:09:03Z</time>
					</trkpt>
					<trkpt lat="48.219940" lon="6.336940">
						<ele>341</ele>
						<time>2025-03-24T21:09:06Z</time>
					</trkpt>
					<trkpt lat="48.220090" lon="6.337930">
						<ele>341</ele>
						<time>2025-03-24T21:09:18Z</time>
					</trkpt>
					<trkpt lat="48.220450" lon="6.338620">
						<ele>340</ele>
						<time>2025-03-24T21:09:29Z</time>
					</trkpt>
					<trkpt lat="48.220420" lon="6.338990">
						<ele>340</ele>
						<time>2025-03-24T21:09:33Z</time>
					</trkpt>
					<trkpt lat="48.220810" lon="6.340060">
						<ele>340</ele>
						<time>2025-03-24T21:09:47Z</time>
					</trkpt>
					<trkpt lat="48.220050" lon="6.340870">
						<ele>338</ele>
						<time>2025-03-24T21:10:04Z</time>
					</trkpt>
					<trkpt lat="48.219790" lon="6.340840">
						<ele>340</ele>
						<time>2025-03-24T21:10:09Z</time>
					</trkpt>
					<trkpt lat="48.220050" lon="6.340840">
						<ele>338</ele>
						<time>2025-03-24T21:10:13Z</time>
					</trkpt>
					<trkpt lat="48.220170" lon="6.341930">
						<ele>339</ele>
						<time>2025-03-24T21:10:26Z</time>
					</trkpt>
					<trkpt lat="48.220020" lon="6.343170">
						<ele>338</ele>
						<time>2025-03-24T21:10:41Z</time>
					</trkpt>
					<trkpt lat="48.219900" lon="6.343900">
						<ele>339</ele>
						<time>2025-03-24T21:10:50Z</time>
					</trkpt>
					<trkpt lat="48.219530" lon="6.344930">
						<ele>342</ele>
						<time>2025-03-24T21:11:04Z</time>
					</trkpt>
					<trkpt lat="48.219320" lon="6.346320">
						<ele>341</ele>
						<time>2025-03-24T21:11:21Z</time>
					</trkpt>
					<trkpt lat="48.219120" lon="6.346860">
						<ele>340</ele>
						<time>2025-03-24T21:11:28Z</time>
					</trkpt>
					<trkpt lat="48.218440" lon="6.348510">
						<ele>344</ele>
						<time>2025-03-24T21:11:51Z</time>
					</trkpt>
					<trkpt lat="48.218290" lon="6.349070">
						<ele>347</ele>
						<time>2025-03-24T21:11:59Z</time>
					</trkpt>
					<trkpt lat="48.218200" lon="6.349560">
						<ele>349</ele>
						<time>2025-03-24T21:12:05Z</time>
					</trkpt>
					<trkpt lat="48.218180" lon="6.350290">
						<ele>353</ele>
						<time>2025-03-24T21:12:13Z</time>
					</trkpt>
					<trkpt lat="48.218370" lon="6.351510">
						<ele>357</ele>
						<time>2025-03-24T21:12:28Z</time>
					</trkpt>
					<trkpt lat="48.218350" lon="6.351840">
						<ele>358</ele>
						<time>2025-03-24T21:12:32Z</time>
					</trkpt>
					<trkpt lat="48.218160" lon="6.353100">
						<ele>363</ele>
						<time>2025-03-24T21:12:47Z</time>
					</trkpt>
					<trkpt lat="48.218140" lon="6.354260">
						<ele>363</ele>
						<time>2025-03-24T21:13:01Z</time>
					</trkpt>
					<trkpt lat="48.217770" lon="6.356190">
						<ele>363</ele>
						<time>2025-03-24T21:13:25Z</time>
					</trkpt>
					<trkpt lat="48.217730" lon="6.356750">
						<ele>363</ele>
						<time>2025-03-24T21:13:32Z</time>
					</trkpt>
					<trkpt lat="48.217770" lon="6.357160">
						<ele>364</ele>
						<time>2025-03-24T21:13:36Z</time>
					</trkpt>
					<trkpt lat="48.217990" lon="6.357740">
						<ele>364</ele>
						<time>2025-03-24T21:13:44Z</time>
					</trkpt>
					<trkpt lat="48.218460" lon="6.359170">
						<ele>362</ele>
						<time>2025-03-24T21:14:03Z</time>
					</trkpt>
					<trkpt lat="48.219120" lon="6.361320">
						<ele>362</ele>
						<time>2025-03-24T21:14:31Z</time>
					</trkpt>
					<trkpt lat="48.219190" lon="6.361660">
						<ele>362</ele>
						<time>2025-03-24T21:14:36Z</time>
					</trkpt>
					<trkpt lat="48.219190" lon="6.361920">
						<ele>362</ele>
						<time>2025-03-24T21:14:39Z</time>
					</trkpt>
					<trkpt lat="48.218950" lon="6.363700">
						<ele>357</ele>
						<time>2025-03-24T21:15:00Z</time>
					</trkpt>
					<trkpt lat="48.218800" lon="6.365290">
						<ele>354</ele>
						<time>2025-03-24T21:15:19Z</time>
					</trkpt>
					<trkpt lat="48.218460" lon="6.367480">
						<ele>356</ele>
						<time>2025-03-24T21:15:46Z</time>
					</trkpt>
					<trkpt lat="48.218010" lon="6.369920">
						<ele>355</ele>
						<time>2025-03-24T21:16:16Z</time>
					</trkpt>
					<trkpt lat="48.217510" lon="6.371810">
						<ele>355</ele>
						<time>2025-03-24T21:16:40Z</time>
					</trkpt>
					<trkpt lat="48.217360" lon="6.372160">
						<ele>354</ele>
						<time>2025-03-24T21:16:45Z</time>
					</trkpt>
					<trkpt lat="48.216330" lon="6.373940">
						<ele>342</ele>
						<time>2025-03-24T21:17:13Z</time>
					</trkpt>
					<trkpt lat="48.215630" lon="6.376360">
						<ele>331</ele>
						<time>2025-03-24T21:17:44Z</time>
					</trkpt>
					<trkpt lat="48.215390" lon="6.376660">
						<ele>332</ele>
						<time>2025-03-24T21:17:50Z</time>
					</trkpt>
					<trkpt lat="48.215070" lon="6.377370">
						<ele>331</ele>
						<time>2025-03-24T21:18:00Z</time>
					</trkpt>
					<trkpt lat="48.214850" lon="6.377710">
						<ele>332</ele>
						<time>2025-03-24T21:18:05Z</time>
					</trkpt>
					<trkpt lat="48.214360" lon="6.378230">
						<ele>331</ele>
						<time>2025-03-24T21:18:16Z</time>
					</trkpt>
					<trkpt lat="48.214020" lon="6.378510">
						<ele>330</ele>
						<time>2025-03-24T21:18:23Z</time>
					</trkpt>
					<trkpt lat="48.213650" lon="6.378660">
						<ele>329</ele>
						<time>2025-03-24T21:18:30Z</time>
					</trkpt>
					<trkpt lat="48.213630" lon="6.378770">
						<ele>329</ele>
						<time>2025-03-24T21:18:31Z</time>
					</trkpt>
					<trkpt lat="48.213650" lon="6.379020">
						<ele>328</ele>
						<time>2025-03-24T21:18:34Z</time>
					</trkpt>
					<trkpt lat="48.213570" lon="6.379730">
						<ele>330</ele>
						<time>2025-03-24T21:18:43Z</time>
					</trkpt>
					<trkpt lat="48.213570" lon="6.379990">
						<ele>330</ele>
						<time>2025-03-24T21:18:46Z</time>
					</trkpt>
					<trkpt lat="48.213480" lon="6.380180">
						<ele>331</ele>
						<time>2025-03-24T21:18:49Z</time>
					</trkpt>
					<trkpt lat="48.213350" lon="6.380740">
						<ele>334</ele>
						<time>2025-03-24T21:18:56Z</time>
					</trkpt>
					<trkpt lat="48.213460" lon="6.380950">
						<ele>334</ele>
						<time>2025-03-24T21:18:59Z</time>
					</trkpt>
					<trkpt lat="48.213330" lon="6.382160">
						<ele>339</ele>
						<time>2025-03-24T21:19:13Z</time>
					</trkpt>
					<trkpt lat="48.213290" lon="6.382350">
						<ele>340</ele>
						<time>2025-03-24T21:19:16Z</time>
					</trkpt>
					<trkpt lat="48.213200" lon="6.382630">
						<ele>341</ele>
						<time>2025-03-24T21:19:19Z</time>
					</trkpt>
					<trkpt lat="48.212660" lon="6.383440">
						<ele>346</ele>
						<time>2025-03-24T21:19:33Z</time>
					</trkpt>
					<trkpt lat="48.212150" lon="6.384430">
						<ele>352</ele>
						<time>2025-03-24T21:19:48Z</time>
					</trkpt>
					<trkpt lat="48.212110" lon="6.384560">
						<ele>352</ele>
						<time>2025-03-24T21:19:49Z</time>
					</trkpt>
					<trkpt lat="48.212040" lon="6.385050">
						<ele>353</ele>
						<time>2025-03-24T21:19:55Z</time>
					</trkpt>
					<trkpt lat="48.211980" lon="6.385850">
						<ele>356</ele>
						<time>2025-03-24T21:20:05Z</time>
					</trkpt>
					<trkpt lat="48.211720" lon="6.387350">
						<ele>367</ele>
						<time>2025-03-24T21:20:23Z</time>
					</trkpt>
					<trkpt lat="48.211380" lon="6.388030">
						<ele>373</ele>
						<time>2025-03-24T21:20:33Z</time>
					</trkpt>
					<trkpt lat="48.211180" lon="6.388550">
						<ele>376</ele>
						<time>2025-03-24T21:20:41Z</time>
					</trkpt>
					<trkpt lat="48.210840" lon="6.390160">
						<ele>375</ele>
						<time>2025-03-24T21:21:01Z</time>
					</trkpt>
					<trkpt lat="48.210670" lon="6.390800">
						<ele>372</ele>
						<time>2025-03-24T21:21:09Z</time>
					</trkpt>
					<trkpt lat="48.209940" lon="6.392150">
						<ele>373</ele>
						<time>2025-03-24T21:21:29Z</time>
					</trkpt>
					<trkpt lat="48.209470" lon="6.393310">
						<ele>374</ele>
						<time>2025-03-24T21:21:45Z</time>
					</trkpt>
					<trkpt lat="48.209340" lon="6.394020">
						<ele>374</ele>
						<time>2025-03-24T21:21:54Z</time>
					</trkpt>
					<trkpt lat="48.209120" lon="6.396150">
						<ele>376</ele>
						<time>2025-03-24T21:22:20Z</time>
					</trkpt>
					<trkpt lat="48.208950" lon="6.396960">
						<ele>376</ele>
						<time>2025-03-24T21:22:30Z</time>
					</trkpt>
					<trkpt lat="48.207880" lon="6.399190">
						<ele>371</ele>
						<time>2025-03-24T21:23:02Z</time>
					</trkpt>
					<trkpt lat="48.207450" lon="6.400310">
						<ele>369</ele>
						<time>2025-03-24T21:23:18Z</time>
					</trkpt>
					<trkpt lat="48.206960" lon="6.401450">
						<ele>372</ele>
						<time>2025-03-24T21:23:34Z</time>
					</trkpt>
					<trkpt lat="48.205200" lon="6.404790">
						<ele>371</ele>
						<time>2025-03-24T21:24:24Z</time>
					</trkpt>
					<trkpt lat="48.205000" lon="6.405030">
						<ele>371</ele>
						<time>2025-03-24T21:24:29Z</time>
					</trkpt>
					<trkpt lat="48.204770" lon="6.405220">
						<ele>370</ele>
						<time>2025-03-24T21:24:34Z</time>
					</trkpt>
					<trkpt lat="48.204620" lon="6.405310">
						<ele>370</ele>
						<time>2025-03-24T21:24:36Z</time>
					</trkpt>
					<trkpt lat="48.203030" lon="6.405610">
						<ele>368</ele>
						<time>2025-03-24T21:25:05Z</time>
					</trkpt>
					<trkpt lat="48.201460" lon="6.406530">
						<ele>371</ele>
						<time>2025-03-24T21:25:35Z</time>
					</trkpt>
					<trkpt lat="48.200910" lon="6.406900">
						<ele>375</ele>
						<time>2025-03-24T21:25:46Z</time>
					</trkpt>
					<trkpt lat="48.200180" lon="6.407930">
						<ele>376</ele>
						<time>2025-03-24T21:26:03Z</time>
					</trkpt>
					<trkpt lat="48.198540" lon="6.410500">
						<ele>367</ele>
						<time>2025-03-24T21:26:46Z</time>
					</trkpt>
					<trkpt lat="48.198030" lon="6.411020">
						<ele>366</ele>
						<time>2025-03-24T21:26:57Z</time>
					</trkpt>
					<trkpt lat="48.197880" lon="6.411320">
						<ele>365</ele>
						<time>2025-03-24T21:27:01Z</time>
					</trkpt>
					<trkpt lat="48.197880" lon="6.411530">
						<ele>363</ele>
						<time>2025-03-24T21:27:04Z</time>
					</trkpt>
					<trkpt lat="48.197790" lon="6.411680">
						<ele>363</ele>
						<time>2025-03-24T21:27:06Z</time>
					</trkpt>
					<trkpt lat="48.197640" lon="6.411680">
						<ele>364</ele>
						<time>2025-03-24T21:27:09Z</time>
					</trkpt>
					<trkpt lat="48.197470" lon="6.411870">
						<ele>363</ele>
						<time>2025-03-24T21:27:12Z</time>
					</trkpt>
					<trkpt lat="48.197410" lon="6.412130">
						<ele>361</ele>
						<time>2025-03-24T21:27:16Z</time>
					</trkpt>
					<trkpt lat="48.197470" lon="6.412670">
						<ele>358</ele>
						<time>2025-03-24T21:27:22Z</time>
					</trkpt>
					<trkpt lat="48.197450" lon="6.413120">
						<ele>356</ele>
						<time>2025-03-24T21:27:28Z</time>
					</trkpt>
					<trkpt lat="48.197390" lon="6.413530">
						<ele>354</ele>
						<time>2025-03-24T21:27:32Z</time>
					</trkpt>
					<trkpt lat="48.197170" lon="6.414260">
						<ele>351</ele>
						<time>2025-03-24T21:27:42Z</time>
					</trkpt>
					<trkpt lat="48.196980" lon="6.414730">
						<ele>352</ele>
						<time>2025-03-24T21:27:49Z</time>
					</trkpt>
					<trkpt lat="48.196790" lon="6.415050">
						<ele>353</ele>
						<time>2025-03-24T21:27:54Z</time>
					</trkpt>
					<trkpt lat="48.196270" lon="6.415820">
						<ele>355</ele>
						<time>2025-03-24T21:28:07Z</time>
					</trkpt>
					<trkpt lat="48.196100" lon="6.416190">
						<ele>356</ele>
						<time>2025-03-24T21:28:12Z</time>
					</trkpt>
					<trkpt lat="48.195950" lon="6.416640">
						<ele>356</ele>
						<time>2025-03-24T21:28:18Z</time>
					</trkpt>
					<trkpt lat="48.196010" lon="6.416790">
						<ele>355</ele>
						<time>2025-03-24T21:28:20Z</time>
					</trkpt>
					<trkpt lat="48.195970" lon="6.416960">
						<ele>354</ele>
						<time>2025-03-24T21:28:22Z</time>
					</trkpt>
					<trkpt lat="48.195910" lon="6.417000">
						<ele>354</ele>
						<time>2025-03-24T21:28:23Z</time>
					</trkpt>
					<trkpt lat="48.195820" lon="6.416980">
						<ele>354</ele>
						<time>2025-03-24T21:28:25Z</time>
					</trkpt>
					<trkpt lat="48.195690" lon="6.417320">
						<ele>352</ele>
						<time>2025-03-24T21:28:30Z</time>
					</trkpt>
					<trkpt lat="48.195430" lon="6.417750">
						<ele>350</ele>
						<time>2025-03-24T21:28:36Z</time>
					</trkpt>
					<trkpt lat="48.194900" lon="6.418290">
						<ele>347</ele>
						<time>2025-03-24T21:28:48Z</time>
					</trkpt>
					<trkpt lat="48.194660" lon="6.418590">
						<ele>345</ele>
						<time>2025-03-24T21:28:53Z</time>
					</trkpt>
					<trkpt lat="48.194530" lon="6.418850">
						<ele>344</ele>
						<time>2025-03-24T21:28:57Z</time>
					</trkpt>
					<trkpt lat="48.194450" lon="6.419060">
						<ele>343</ele>
						<time>2025-03-24T21:29:00Z</time>
					</trkpt>
					<trkpt lat="48.193590" lon="6.421980">
						<ele>351</ele>
						<time>2025-03-24T21:29:38Z</time>
					</trkpt>
					<trkpt lat="48.193500" lon="6.422350">
						<ele>352</ele>
						<time>2025-03-24T21:29:43Z</time>
					</trkpt>
					<trkpt lat="48.193520" lon="6.422390">
						<ele>352</ele>
						<time>2025-03-24T21:29:43Z</time>
					</trkpt>
					<trkpt lat="48.193500" lon="6.422560">
						<ele>352</ele>
						<time>2025-03-24T21:29:45Z</time>
					</trkpt>
					<trkpt lat="48.193440" lon="6.422600">
						<ele>352</ele>
						<time>2025-03-24T21:29:46Z</time>
					</trkpt>
					<trkpt lat="48.193350" lon="6.422600">
						<ele>353</ele>
						<time>2025-03-24T21:29:48Z</time>
					</trkpt>
					<trkpt lat="48.193050" lon="6.423440">
						<ele>351</ele>
						<time>2025-03-24T21:29:59Z</time>
					</trkpt>
					<trkpt lat="48.192620" lon="6.424320">
						<ele>346</ele>
						<time>2025-03-24T21:30:12Z</time>
					</trkpt>
					<trkpt lat="48.191210" lon="6.426530">
						<ele>345</ele>
						<time>2025-03-24T21:30:49Z</time>
					</trkpt>
					<trkpt lat="48.191160" lon="6.426700">
						<ele>345</ele>
						<time>2025-03-24T21:30:51Z</time>
					</trkpt>
					<trkpt lat="48.191030" lon="6.426850">
						<ele>345</ele>
						<time>2025-03-24T21:30:54Z</time>
					</trkpt>
					<trkpt lat="48.190840" lon="6.427520">
						<ele>346</ele>
						<time>2025-03-24T21:31:02Z</time>
					</trkpt>
					<trkpt lat="48.190930" lon="6.427670">
						<ele>345</ele>
						<time>2025-03-24T21:31:05Z</time>
					</trkpt>
					<trkpt lat="48.190880" lon="6.427860">
						<ele>345</ele>
						<time>2025-03-24T21:31:07Z</time>
					</trkpt>
					<trkpt lat="48.190840" lon="6.427920">
						<ele>345</ele>
						<time>2025-03-24T21:31:08Z</time>
					</trkpt>
					<trkpt lat="48.190760" lon="6.427920">
						<ele>346</ele>
						<time>2025-03-24T21:31:10Z</time>
					</trkpt>
					<trkpt lat="48.190650" lon="6.427820">
						<ele>346</ele>
						<time>2025-03-24T21:31:12Z</time>
					</trkpt>
					<trkpt lat="48.190650" lon="6.427770">
						<ele>346</ele>
						<time>2025-03-24T21:31:12Z</time>
					</trkpt>
					<trkpt lat="48.190540" lon="6.427840">
						<ele>346</ele>
						<time>2025-03-24T21:31:15Z</time>
					</trkpt>
					<trkpt lat="48.190130" lon="6.428740">
						<ele>345</ele>
						<time>2025-03-24T21:31:28Z</time>
					</trkpt>
					<trkpt lat="48.189810" lon="6.429230">
						<ele>344</ele>
						<time>2025-03-24T21:31:36Z</time>
					</trkpt>
					<trkpt lat="48.189830" lon="6.429280">
						<ele>344</ele>
						<time>2025-03-24T21:31:36Z</time>
					</trkpt>
					<trkpt lat="48.189810" lon="6.429380">
						<ele>344</ele>
						<time>2025-03-24T21:31:38Z</time>
					</trkpt>
					<trkpt lat="48.189730" lon="6.429380">
						<ele>344</ele>
						<time>2025-03-24T21:31:39Z</time>
					</trkpt>
					<trkpt lat="48.189640" lon="6.429560">
						<ele>343</ele>
						<time>2025-03-24T21:31:42Z</time>
					</trkpt>
					<trkpt lat="48.189430" lon="6.429880">
						<ele>343</ele>
						<time>2025-03-24T21:31:47Z</time>
					</trkpt>
					<trkpt lat="48.189000" lon="6.430690">
						<ele>340</ele>
						<time>2025-03-24T21:31:59Z</time>
					</trkpt>
					<trkpt lat="48.188740" lon="6.432110">
						<ele>334</ele>
						<time>2025-03-24T21:32:17Z</time>
					</trkpt>
					<trkpt lat="48.188590" lon="6.432710">
						<ele>332</ele>
						<time>2025-03-24T21:32:24Z</time>
					</trkpt>
					<trkpt lat="48.188440" lon="6.433180">
						<ele>331</ele>
						<time>2025-03-24T21:32:31Z</time>
					</trkpt>
					<trkpt lat="48.188310" lon="6.433480">
						<ele>330</ele>
						<time>2025-03-24T21:32:35Z</time>
					</trkpt>
					<trkpt lat="48.188180" lon="6.433870">
						<ele>331</ele>
						<time>2025-03-24T21:32:40Z</time>
					</trkpt>
					<trkpt lat="48.188160" lon="6.434020">
						<ele>331</ele>
						<time>2025-03-24T21:32:42Z</time>
					</trkpt>
					<trkpt lat="48.188200" lon="6.434250">
						<ele>331</ele>
						<time>2025-03-24T21:32:45Z</time>
					</trkpt>
					<trkpt lat="48.188460" lon="6.435260">
						<ele>332</ele>
						<time>2025-03-24T21:32:57Z</time>
					</trkpt>
					<trkpt lat="48.188490" lon="6.435230">
						<ele>332</ele>
						<time>2025-03-24T21:32:58Z</time>
					</trkpt>
					<trkpt lat="48.188460" lon="6.435260">
						<ele>332</ele>
						<time>2025-03-24T21:32:59Z</time>
					</trkpt>
					<trkpt lat="48.188520" lon="6.435820">
						<ele>334</ele>
						<time>2025-03-24T21:33:05Z</time>
					</trkpt>
					<trkpt lat="48.188500" lon="6.436190">
						<ele>335</ele>
						<time>2025-03-24T21:33:10Z</time>
					</trkpt>
					<trkpt lat="48.188420" lon="6.436810">
						<ele>337</ele>
						<time>2025-03-24T21:33:17Z</time>
					</trkpt>
					<trkpt lat="48.188420" lon="6.437130">
						<ele>337</ele>
						<time>2025-03-24T21:33:21Z</time>
					</trkpt>
					<trkpt lat="48.188350" lon="6.437300">
						<ele>337</ele>
						<time>2025-03-24T21:33:24Z</time>
					</trkpt>
					<trkpt lat="48.188310" lon="6.437600">
						<ele>337</ele>
						<time>2025-03-24T21:33:27Z</time>
					</trkpt>
					<trkpt lat="48.188350" lon="6.438290">
						<ele>335</ele>
						<time>2025-03-24T21:33:35Z</time>
					</trkpt>
					<trkpt lat="48.186230" lon="6.439960">
						<ele>335</ele>
						<time>2025-03-24T21:34:18Z</time>
					</trkpt>
					<trkpt lat="48.184770" lon="6.440650">
						<ele>331</ele>
						<time>2025-03-24T21:34:45Z</time>
					</trkpt>
					<trkpt lat="48.184550" lon="6.440780">
						<ele>331</ele>
						<time>2025-03-24T21:34:49Z</time>
					</trkpt>
					<trkpt lat="48.184190" lon="6.441140">
						<ele>329</ele>
						<time>2025-03-24T21:34:57Z</time>
					</trkpt>
					<trkpt lat="48.184040" lon="6.441440">
						<ele>326</ele>
						<time>2025-03-24T21:35:02Z</time>
					</trkpt>
					<trkpt lat="48.184060" lon="6.441440">
						<ele>326</ele>
						<time>2025-03-24T21:35:02Z</time>
					</trkpt>
					<trkpt lat="48.184080" lon="6.441610">
						<ele>325</ele>
						<time>2025-03-24T21:35:04Z</time>
					</trkpt>
					<trkpt lat="48.184060" lon="6.441680">
						<ele>324</ele>
						<time>2025-03-24T21:35:05Z</time>
					</trkpt>
					<trkpt lat="48.183890" lon="6.441790">
						<ele>323</ele>
						<time>2025-03-24T21:35:08Z</time>
					</trkpt>
					<trkpt lat="48.183830" lon="6.441740">
						<ele>324</ele>
						<time>2025-03-24T21:35:09Z</time>
					</trkpt>
					<trkpt lat="48.183570" lon="6.441830">
						<ele>323</ele>
						<time>2025-03-24T21:35:14Z</time>
					</trkpt>
					<trkpt lat="48.183310" lon="6.442150">
						<ele>321</ele>
						<time>2025-03-24T21:35:20Z</time>
					</trkpt>
					<trkpt lat="48.183310" lon="6.442260">
						<ele>320</ele>
						<time>2025-03-24T21:35:21Z</time>
					</trkpt>
					<trkpt lat="48.183400" lon="6.442640">
						<ele>319</ele>
						<time>2025-03-24T21:35:26Z</time>
					</trkpt>
					<trkpt lat="48.184300" lon="6.444600">
						<ele>319</ele>
						<time>2025-03-24T21:35:54Z</time>
					</trkpt>
					<trkpt lat="48.184400" lon="6.445280">
						<ele>319</ele>
						<time>2025-03-24T21:36:03Z</time>
					</trkpt>
					<trkpt lat="48.184450" lon="6.445460">
						<ele>320</ele>
						<time>2025-03-24T21:36:05Z</time>
					</trkpt>
					<trkpt lat="48.184510" lon="6.445520">
						<ele>320</ele>
						<time>2025-03-24T21:36:06Z</time>
					</trkpt>
					<trkpt lat="48.184510" lon="6.445670">
						<ele>320</ele>
						<time>2025-03-24T21:36:08Z</time>
					</trkpt>
					<trkpt lat="48.184450" lon="6.445730">
						<ele>320</ele>
						<time>2025-03-24T21:36:09Z</time>
					</trkpt>
					<trkpt lat="48.184360" lon="6.445710">
						<ele>320</ele>
						<time>2025-03-24T21:36:11Z</time>
					</trkpt>
					<trkpt lat="48.184100" lon="6.445820">
						<ele>320</ele>
						<time>2025-03-24T21:36:16Z</time>
					</trkpt>
					<trkpt lat="48.184000" lon="6.445820">
						<ele>320</ele>
						<time>2025-03-24T21:36:18Z</time>
					</trkpt>
					<trkpt lat="48.182860" lon="6.446160">
						<ele>322</ele>
						<time>2025-03-24T21:36:38Z</time>
					</trkpt>
					<trkpt lat="48.182430" lon="6.446420">
						<ele>322</ele>
						<time>2025-03-24T21:36:46Z</time>
					</trkpt>
					<trkpt lat="48.180740" lon="6.447710">
						<ele>324</ele>
						<time>2025-03-24T21:37:20Z</time>
					</trkpt>
					<trkpt lat="48.180350" lon="6.448090">
						<ele>323</ele>
						<time>2025-03-24T21:37:28Z</time>
					</trkpt>
					<trkpt lat="48.179210" lon="6.449470">
						<ele>330</ele>
						<time>2025-03-24T21:37:55Z</time>
					</trkpt>
					<trkpt lat="48.179020" lon="6.449640">
						<ele>331</ele>
						<time>2025-03-24T21:37:58Z</time>
					</trkpt>
					<trkpt lat="48.178310" lon="6.450180">
						<ele>330</ele>
						<time>2025-03-24T21:38:13Z</time>
					</trkpt>
					<trkpt lat="48.178140" lon="6.450260">
						<ele>331</ele>
						<time>2025-03-24T21:38:16Z</time>
					</trkpt>
					<trkpt lat="48.177670" lon="6.450260">
						<ele>329</ele>
						<time>2025-03-24T21:38:24Z</time>
					</trkpt>
					<trkpt lat="48.176680" lon="6.450180">
						<ele>324</ele>
						<time>2025-03-24T21:38:42Z</time>
					</trkpt>
					<trkpt lat="48.176600" lon="6.450290">
						<ele>325</ele>
						<time>2025-03-24T21:38:44Z</time>
					</trkpt>
					<trkpt lat="48.176480" lon="6.450760">
						<ele>326</ele>
						<time>2025-03-24T21:38:50Z</time>
					</trkpt>
					<trkpt lat="48.176330" lon="6.450980">
						<ele>327</ele>
						<time>2025-03-24T21:38:53Z</time>
					</trkpt>
					<trkpt lat="48.176260" lon="6.451000">
						<ele>327</ele>
						<time>2025-03-24T21:38:55Z</time>
					</trkpt>
					<trkpt lat="48.176140" lon="6.451230">
						<ele>328</ele>
						<time>2025-03-24T21:38:58Z</time>
					</trkpt>
					<trkpt lat="48.176100" lon="6.451360">
						<ele>328</ele>
						<time>2025-03-24T21:39:00Z</time>
					</trkpt>
					<trkpt lat="48.176060" lon="6.451660">
						<ele>329</ele>
						<time>2025-03-24T21:39:04Z</time>
					</trkpt>
					<trkpt lat="48.175800" lon="6.452640">
						<ele>330</ele>
						<time>2025-03-24T21:39:16Z</time>
					</trkpt>
					<trkpt lat="48.175780" lon="6.452790">
						<ele>331</ele>
						<time>2025-03-24T21:39:18Z</time>
					</trkpt>
					<trkpt lat="48.175720" lon="6.452820">
						<ele>331</ele>
						<time>2025-03-24T21:39:19Z</time>
					</trkpt>
					<trkpt lat="48.175710" lon="6.452910">
						<ele>331</ele>
						<time>2025-03-24T21:39:20Z</time>
					</trkpt>
					<trkpt lat="48.175890" lon="6.453350">
						<ele>332</ele>
						<time>2025-03-24T21:39:26Z</time>
					</trkpt>
					<trkpt lat="48.176310" lon="6.454000">
						<ele>338</ele>
						<time>2025-03-24T21:39:37Z</time>
					</trkpt>
					<trkpt lat="48.176510" lon="6.454400">
						<ele>339</ele>
						<time>2025-03-24T21:39:43Z</time>
					</trkpt>
					<trkpt lat="48.176810" lon="6.455110">
						<ele>341</ele>
						<time>2025-03-24T21:39:53Z</time>
					</trkpt>
					<trkpt lat="48.177090" lon="6.455610">
						<ele>346</ele>
						<time>2025-03-24T21:40:01Z</time>
					</trkpt>
					<trkpt lat="48.177340" lon="6.456270">
						<ele>345</ele>
						<time>2025-03-24T21:40:10Z</time>
					</trkpt>
					<trkpt lat="48.177410" lon="6.456530">
						<ele>343</ele>
						<time>2025-03-24T21:40:13Z</time>
					</trkpt>
					<trkpt lat="48.177260" lon="6.456660">
						<ele>345</ele>
						<time>2025-03-24T21:40:16Z</time>
					</trkpt>
					<trkpt lat="48.177220" lon="6.457190">
						<ele>349</ele>
						<time>2025-03-24T21:40:22Z</time>
					</trkpt>
					<trkpt lat="48.177290" lon="6.457410">
						<ele>348</ele>
						<time>2025-03-24T21:40:25Z</time>
					</trkpt>
					<trkpt lat="48.177280" lon="6.457900">
						<ele>350</ele>
						<time>2025-03-24T21:40:31Z</time>
					</trkpt>
					<trkpt lat="48.177510" lon="6.459330">
						<ele>358</ele>
						<time>2025-03-24T21:40:48Z</time>
					</trkpt>
					<trkpt lat="48.177880" lon="6.461380">
						<ele>372</ele>
						<time>2025-03-24T21:41:14Z</time>
					</trkpt>
					<trkpt lat="48.177860" lon="6.461630">
						<ele>375</ele>
						<time>2025-03-24T21:41:17Z</time>
					</trkpt>
					<trkpt lat="48.177710" lon="6.462170">
						<ele>375</ele>
						<time>2025-03-24T21:41:24Z</time>
					</trkpt>
					<trkpt lat="48.176880" lon="6.463480">
						<ele>362</ele>
						<time>2025-03-24T21:41:45Z</time>
					</trkpt>
					<trkpt lat="48.176730" lon="6.462810">
						<ele>364</ele>
						<time>2025-03-24T21:41:53Z</time>
					</trkpt>
					</trkseg>
				</trk>
			</gpx>